Provisional Data: Quittapahilla Creek near Syner, PA


Please select a monitoring station.
Please select start date.
Please select start date.

Toggle Unit: C/F Toggle Unit: C/F
Sample Time Temperature (C) Temperature (F) Specific Conductivity (mS/cm) pH   Turbidity (NTU+) DO (mg/L)
6/3/2022 12:00:00 AM 17.39 63.302 0.609 7.73 19.04 7.91
6/3/2022 12:15:00 AM 17.35 63.23 0.611 7.73 13.23 7.89
6/3/2022 12:30:00 AM 17.33 63.194 0.611 7.73 13.11 7.89
6/3/2022 12:45:00 AM 17.32 63.176 0.612 7.73 15.56 7.87
6/3/2022 1:00:00 AM 17.32 63.176 0.612 7.73 22.95 7.84
6/3/2022 1:15:00 AM 17.32 63.176 0.612 7.73 11.62 7.82
6/3/2022 1:30:00 AM 17.34 63.212 0.611 7.73 13.46 7.78
6/3/2022 1:45:00 AM 17.35 63.23 0.611 7.73 11.21 7.77
6/3/2022 2:00:00 AM 17.36 63.248 0.61 7.72 11.12 7.75
6/3/2022 2:15:00 AM 17.37 63.266 0.611 7.72 12.04 7.72
6/3/2022 2:30:00 AM 17.37 63.266 0.613 7.72 11.12 7.72
6/3/2022 2:45:00 AM 17.37 63.266 0.613 7.72 11.37 7.71
6/3/2022 3:00:00 AM 17.37 63.266 0.617 7.72 11.48 7.71
6/3/2022 3:15:00 AM 17.36 63.248 0.619 7.72 11.2 7.7
6/3/2022 3:30:00 AM 17.35 63.23 0.621 7.72 13.23 7.7
6/3/2022 3:45:00 AM 17.33 63.194 0.623 7.72 12.86 7.69
6/3/2022 4:00:00 AM 17.3 63.14 0.624 7.72 10.89 7.69
6/3/2022 4:15:00 AM 17.27 63.086 0.613 7.72 11.62 7.7
6/3/2022 4:30:00 AM 17.24 63.032 0.611 7.72 13.91 7.69
6/3/2022 4:45:00 AM 17.2 62.96 0.617 7.72 11.68 7.69
6/3/2022 5:00:00 AM 17.16 62.888 0.614 7.71 14.7 7.66
6/3/2022 5:15:00 AM 17.13 62.834 0.608 7.71 12.38 7.63
6/3/2022 5:30:00 AM 17.1 62.78 0.601 7.7 12.54 7.56
6/3/2022 5:45:00 AM 17.08 62.744 0.592 7.69 12.5 7.49
6/3/2022 6:00:00 AM 17.06 62.708 0.583 7.68 12.42 7.43
6/3/2022 6:15:00 AM 17.04 62.672 0.575 7.67 12.97 7.38
6/3/2022 6:30:00 AM 17.02 62.636 0.569 7.67 11.62 7.38
6/3/2022 6:45:00 AM 17 62.6 0.564 7.66 13.14 7.4
6/3/2022 7:00:00 AM 16.99 62.582 0.56 7.66 13.24 7.45
6/3/2022 7:15:00 AM 16.97 62.546 0.559 7.66 11.7 7.53
6/3/2022 7:30:00 AM 16.97 62.546 0.56 7.67 11.63 7.67
6/3/2022 7:45:00 AM 16.97 62.546 0.561 7.68 11.98 7.84
6/3/2022 8:00:00 AM 16.98 62.564 0.563 7.69 12.32 8.02
6/3/2022 8:15:00 AM 17 62.6 0.565 7.7 10.95 8.2
6/3/2022 8:30:00 AM 17.03 62.654 0.567 7.72 10.92 8.39
6/3/2022 8:45:00 AM 17.07 62.726 0.569 7.73 11.53 8.59
6/3/2022 9:00:00 AM 17.1 62.78 0.572 7.75 11.08 8.77
6/3/2022 9:15:00 AM 17.15 62.87 0.574 7.76 10.27 8.97
6/3/2022 9:30:00 AM 17.19 62.942 0.576 7.78 10.05 9.15
6/3/2022 9:45:00 AM 17.25 63.05 0.578 7.8 10.5 9.33
6/3/2022 10:00:00 AM 17.31 63.158 0.58 7.82 10.46 9.5
6/3/2022 10:15:00 AM 17.38 63.284 0.571 7.84 10.15 9.65
6/3/2022 10:30:00 AM 17.45 63.41 0.566 7.86 9.82 9.84
6/3/2022 10:45:00 AM 17.53 63.554 0.586 7.87 10.26 10
6/3/2022 11:00:00 AM 17.61 63.698 0.57 7.89 10.17 10.16
6/3/2022 11:15:00 AM 17.69 63.842 0.584 7.91 9.49 10.31
6/3/2022 11:30:00 AM 17.77 63.986 0.588 7.93 10.8 10.44
6/3/2022 11:45:00 AM 17.85 64.13 0.594 7.94 10.68 10.6
6/3/2022 12:00:00 PM 17.91 64.238 0.595 7.96 11.09 10.72
6/3/2022 12:15:00 PM 17.99 64.382 0.597 7.98 10.37 10.85
6/3/2022 12:30:00 PM 18.07 64.526 0.598 7.99 10.85 10.97
6/3/2022 12:45:00 PM 18.15 64.67 0.6 8.01 10.52 11.08
6/3/2022 1:00:00 PM 18.25 64.85 0.602 8.02 11.77 11.19
6/3/2022 1:15:00 PM 18.32 64.976 0.603 8.04 11.83 11.28
6/3/2022 1:30:00 PM 18.41 65.138 0.605 8.05 16.08 11.36
6/3/2022 1:45:00 PM 18.47 65.246 0.607 8.06 12.91 11.44
6/3/2022 2:00:00 PM 18.52 65.336 0.609 8.07 12.94 11.48
6/3/2022 2:15:00 PM 18.54 65.372 0.61 8.08 10.56 11.52
6/3/2022 2:30:00 PM 18.59 65.462 0.612 8.1 9.59 11.57
6/3/2022 2:45:00 PM 18.64 65.552 0.614 8.11 9.48 11.58
6/3/2022 3:00:00 PM 18.65 65.57 0.615 8.11 9.56 11.59
6/3/2022 3:15:00 PM 18.69 65.642 0.617 8.12 9.25 11.58
6/3/2022 3:30:00 PM 18.71 65.67799 0.618 8.12 10.82 11.57
6/3/2022 3:45:00 PM 18.7 65.66 0.62 8.12 10.59 11.54
6/3/2022 4:00:00 PM 18.71 65.67799 0.621 8.13 11.38 11.52
6/3/2022 4:15:00 PM 18.71 65.67799 0.622 8.13 10.66 11.46
6/3/2022 4:30:00 PM 18.69 65.642 0.623 8.13 9.78 11.4
6/3/2022 4:45:00 PM 18.68 65.624 0.624 8.13 9.8 11.34
6/3/2022 5:00:00 PM 18.66 65.588 0.624 8.13 10.46 11.27
6/3/2022 5:15:00 PM 18.64 65.552 0.625 8.12 10.09 11.17
6/3/2022 5:30:00 PM 18.62 65.516 0.626 8.12 9.7 11.08
6/3/2022 5:45:00 PM 18.58 65.444 0.627 8.11 10.02 10.94
6/3/2022 6:00:00 PM 18.54 65.372 0.627 8.1 9.97 10.81
6/3/2022 6:15:00 PM 18.51 65.318 0.628 8.09 10.52 10.68
6/3/2022 6:30:00 PM 18.47 65.246 0.629 8.08 9.32 10.52
6/3/2022 6:45:00 PM 18.42 65.156 0.629 8.06 62.29 10.35
6/3/2022 7:00:00 PM 18.35 65.03 0.63 8.05 11.57 10.15
6/3/2022 7:15:00 PM 18.29 64.922 0.631 8.04 14.51 9.97
6/3/2022 7:30:00 PM 18.23 64.814 0.631 8.02 9.81 9.83
6/3/2022 7:45:00 PM 18.18 64.724 0.632 8.01 9.09 9.69
6/3/2022 8:00:00 PM 18.14 64.652 0.632 8 14.15 9.54
6/3/2022 8:15:00 PM 18.09 64.562 0.633 7.99 10.09 9.39
6/3/2022 8:30:00 PM 18.05 64.49 0.634 7.98 12.17 9.25
6/3/2022 8:45:00 PM 18 64.4 0.634 7.96 11.08 9.11
6/3/2022 9:00:00 PM 17.95 64.31 0.635 7.95 10.59 8.98
6/3/2022 9:15:00 PM 17.89 64.202 0.635 7.94 12.75 8.87
6/3/2022 9:30:00 PM 17.84 64.112 0.636 7.92 17.25 8.76
6/3/2022 9:45:00 PM 17.78 64.004 0.636 7.91 35.24 8.67
6/3/2022 10:00:00 PM 17.72 63.896 0.637 7.91 18.69 8.59
6/3/2022 10:15:00 PM 17.66 63.788 0.637 7.9 42.74 8.52
6/3/2022 10:30:00 PM 17.6 63.68 0.638 7.89 77.17 8.46
6/3/2022 10:45:00 PM 17.54 63.572 0.638 7.88 49.61 8.41
6/3/2022 11:00:00 PM 17.48 63.464 0.638 7.88 51.63 8.37
6/3/2022 11:15:00 PM 17.42 63.356 0.639 7.87 46.44 8.33
6/3/2022 11:30:00 PM 17.36 63.248 0.639 7.87 61.1 8.29
6/3/2022 11:45:00 PM 17.3 63.14 0.639 7.86 131.1 8.25
6/4/2022 12:00:00 AM 17.25 63.05 0.639 7.86 11.66 8.22
6/4/2022 12:15:00 AM 17.2 62.96 0.64 7.86 13.28 8.19
6/4/2022 12:30:00 AM 17.14 62.852 0.64 7.85 11.95 8.16
6/4/2022 12:45:00 AM 17.08 62.744 0.64 7.85 11.68 8.14
6/4/2022 1:00:00 AM 17.03 62.654 0.64 7.85 13.69 8.12
6/4/2022 1:15:00 AM 16.98 62.564 0.64 7.84 12.74 8.12
6/4/2022 1:30:00 AM 16.92 62.456 0.641 7.84 14.43 8.1
6/4/2022 1:45:00 AM 16.87 62.366 0.641 7.84 13.86 8.09
6/4/2022 2:00:00 AM 16.82 62.276 0.641 7.84 17.52 8.08
6/4/2022 2:15:00 AM 16.77 62.186 0.641 7.83 17.7 8.08
6/4/2022 2:30:00 AM 16.72 62.096 0.641 7.83 17.75 8.07
6/4/2022 2:45:00 AM 16.67 62.006 0.641 7.83 16 8.07
6/4/2022 3:00:00 AM 16.61 61.898 0.641 7.83 17.31 8.07
6/4/2022 3:15:00 AM 16.56 61.808 0.642 7.82 18.12 8.07
6/4/2022 3:30:00 AM 16.51 61.718 0.642 7.82 15.79 8.07
6/4/2022 3:45:00 AM 16.47 61.646 0.642 7.82 19.09 8.07
6/4/2022 4:00:00 AM 16.42 61.556 0.642 7.82 18.77 8.07
6/4/2022 4:15:00 AM 16.37 61.466 0.642 7.82 18.52 8.08
6/4/2022 4:30:00 AM 16.32 61.376 0.642 7.82 15.7 8.07
6/4/2022 4:45:00 AM 16.28 61.304 0.642 7.82 16.21 8.08
6/4/2022 5:00:00 AM 16.23 61.214 0.643 7.82 17.66 8.08
6/4/2022 5:15:00 AM 16.19 61.142 0.643 7.82 20 8.09
6/4/2022 5:30:00 AM 16.14 61.052 0.643 7.81 20.35 8.1
6/4/2022 5:45:00 AM 16.1 60.98 0.643 7.81 26.94 8.08
6/4/2022 6:00:00 AM 16.06 60.908 0.643 7.82 23.29 8.11
6/4/2022 6:15:00 AM 16.02 60.836 0.643 7.81 25.69 8.13
6/4/2022 6:30:00 AM 15.99 60.782 0.643 7.82 23.8 8.17
6/4/2022 6:45:00 AM 15.96 60.728 0.643 7.82 24.63 8.23
6/4/2022 7:00:00 AM 15.94 60.692 0.643 7.82 25.25 8.31
6/4/2022 7:15:00 AM 15.93 60.674 0.643 7.83 23.75 8.4
6/4/2022 7:30:00 AM 15.93 60.674 0.643 7.83 24.3 8.52
6/4/2022 7:45:00 AM 15.94 60.692 0.642 7.85 21.6 8.65
6/4/2022 8:00:00 AM 15.97 60.746 0.642 7.86 23.01 8.79
6/4/2022 8:15:00 AM 16.02 60.836 0.642 7.87 22.21 8.96
6/4/2022 8:30:00 AM 16.08 60.944 0.642 7.88 23.74 9.14
6/4/2022 8:45:00 AM 16.15 61.07 0.642 7.89 23.45 9.31
6/4/2022 9:00:00 AM 16.23 61.214 0.642 7.91 23.63 9.48
6/4/2022 9:15:00 AM 16.32 61.376 0.642 7.93 22.28 9.64
6/4/2022 9:30:00 AM 16.41 61.538 0.642 7.94 21.73 9.81
6/4/2022 9:45:00 AM 16.51 61.718 0.641 7.96 22.83 9.98
6/4/2022 10:00:00 AM 16.61 61.898 0.641 7.97 22.64 10.12
6/4/2022 10:15:00 AM 16.7 62.06 0.641 7.98 24.97 10.27
6/4/2022 10:30:00 AM 16.81 62.258 0.641 8 24.88 10.43
6/4/2022 10:45:00 AM 16.92 62.456 0.641 8.01 25.73 10.57
6/4/2022 11:00:00 AM 17.02 62.636 0.641 8.02 27.24 10.7
6/4/2022 11:15:00 AM 17.14 62.852 0.641 8.04 18.05 10.84
6/4/2022 11:30:00 AM 17.25 63.05 0.641 8.05 17.26 10.95
6/4/2022 11:45:00 AM 17.37 63.266 0.641 8.06 18.16 11.07
6/4/2022 12:00:00 PM 17.48 63.464 0.641 8.08 12.91 11.18
6/4/2022 12:15:00 PM 17.59 63.662 0.641 8.09 35.83 11.28
6/4/2022 12:30:00 PM 17.71 63.878 0.641 8.1 18.78 11.38
6/4/2022 12:45:00 PM 17.8 64.04 0.641 8.11 16.87 11.46
6/4/2022 1:00:00 PM 17.9 64.22 0.641 8.12 14.64 11.53
6/4/2022 1:15:00 PM 18 64.4 0.641 8.13 14.47 11.61
6/4/2022 1:30:00 PM 18.09 64.562 0.64 8.14 14.98 11.67
6/4/2022 1:45:00 PM 18.17 64.706 0.64 8.15 15.16 11.69
6/4/2022 2:00:00 PM 18.24 64.832 0.64 8.15 15.5 11.74
6/4/2022 2:15:00 PM 18.32 64.976 0.64 8.16 13.94 11.78
6/4/2022 2:30:00 PM 18.39 65.102 0.64 8.16 13.79 11.81
6/4/2022 2:45:00 PM 18.44 65.192 0.64 8.17 12.87 11.82
6/4/2022 3:00:00 PM 18.49 65.282 0.64 8.18 13.26 11.81
6/4/2022 3:15:00 PM 18.52 65.336 0.64 8.18 11.66 11.79
6/4/2022 3:30:00 PM 18.54 65.372 0.64 8.18 11.23 11.74
6/4/2022 3:45:00 PM 18.55 65.39 0.639 8.18 11.92 11.7
6/4/2022 4:00:00 PM 18.55 65.39 0.64 8.18 11.64 11.64
6/4/2022 4:15:00 PM 18.53 65.354 0.64 8.17 20.6 11.57
6/4/2022 4:30:00 PM 18.52 65.336 0.641 8.17 12.31 11.49
6/4/2022 4:45:00 PM 18.5 65.3 0.641 8.17 11.55 11.37
6/4/2022 5:00:00 PM 18.47 65.246 0.641 8.16 10.95 11.28
6/4/2022 5:15:00 PM 18.44 65.192 0.642 8.15 14.9 11.14
6/4/2022 5:30:00 PM 18.41 65.138 0.642 8.15 21.38 11.02
6/4/2022 5:45:00 PM 18.37 65.066 0.642 8.14 13.64 10.87
6/4/2022 6:00:00 PM 18.34 65.012 0.642 8.13 13.41 10.74
6/4/2022 6:15:00 PM 18.29 64.922 0.642 8.11 13.79 10.57
6/4/2022 6:30:00 PM 18.25 64.85 0.643 8.1 13.32 10.41
6/4/2022 6:45:00 PM 18.2 64.76 0.643 8.09 11.76 10.24
6/4/2022 7:00:00 PM 18.14 64.652 0.639 8.08 12.24 10.08
6/4/2022 7:15:00 PM 18.08 64.544 0.644 8.06 12.52 9.91
6/4/2022 7:30:00 PM 18.03 64.454 0.644 8.05 12.22 9.76
6/4/2022 7:45:00 PM 17.97 64.346 0.644 8.04 11.66 9.61
6/4/2022 8:00:00 PM 17.92 64.256 0.644 8.02 11.69 9.48
6/4/2022 8:15:00 PM 17.86 64.148 0.644 8.01 15.64 9.35
6/4/2022 8:30:00 PM 17.8 64.04 0.644 8 12.19 9.22
6/4/2022 8:45:00 PM 17.74 63.932 0.644 7.99 15.39 9.1
6/4/2022 9:00:00 PM 17.67 63.806 0.644 7.98 12.09 9
6/4/2022 9:15:00 PM 17.61 63.698 0.644 7.97 11.05 8.88
6/4/2022 9:30:00 PM 17.54 63.572 0.644 7.96 11.77 8.8
6/4/2022 9:45:00 PM 17.47 63.446 0.644 7.95 10.38 8.72
6/4/2022 10:00:00 PM 17.4 63.32 0.644 7.94 11.01 8.65
6/4/2022 10:15:00 PM 17.34 63.212 0.645 7.93 10.57 8.59
6/4/2022 10:30:00 PM 17.27 63.086 0.645 7.92 13.36 8.54
6/4/2022 10:45:00 PM 17.21 62.978 0.646 7.92 68.99 8.49
6/4/2022 11:00:00 PM 17.14 62.852 0.646 7.91 12.2 8.44
6/4/2022 11:15:00 PM 17.08 62.744 0.646 7.91 12.14 8.4
6/4/2022 11:30:00 PM 17.01 62.618 0.646 7.9 13.93 8.37
6/4/2022 11:45:00 PM 16.95 62.51 0.646 7.89 10.9 8.35
6/5/2022 12:00:00 AM 16.88 62.384 0.647 7.89 14.43 8.33
6/5/2022 12:15:00 AM 16.82 62.276 0.647 7.88 13.08 8.3
6/5/2022 12:30:00 AM 16.76 62.168 0.646 7.88 12.74 8.28
6/5/2022 12:45:00 AM 16.71 62.078 0.646 7.88 13.1 8.25
6/5/2022 1:00:00 AM 16.65 61.97 0.647 7.87 14.07 8.24
6/5/2022 1:15:00 AM 16.6 61.88 0.647 7.87 12.04 8.22
6/5/2022 1:30:00 AM 16.55 61.79 0.646 7.87 12.42 8.21
6/5/2022 1:45:00 AM 16.5 61.7 0.646 7.86 12.44 8.21
6/5/2022 2:00:00 AM 16.46 61.628 0.646 7.86 12.72 8.2
6/5/2022 2:15:00 AM 16.41 61.538 0.646 7.86 12.08 8.2
6/5/2022 2:30:00 AM 16.36 61.448 0.646 7.86 12.85 8.19
6/5/2022 2:45:00 AM 16.32 61.376 0.646 7.86 12.87 8.18
6/5/2022 3:00:00 AM 16.27 61.286 0.646 7.85 28.35 8.19
6/5/2022 3:15:00 AM 16.22 61.196 0.645 7.85 14.63 8.19
6/5/2022 3:30:00 AM 16.16 61.088 0.646 7.85 22.89 8.19
6/5/2022 3:45:00 AM 16.12 61.016 0.646 7.85 14.26 8.18
6/5/2022 4:00:00 AM 16.06 60.908 0.645 7.84 14.72 8.2
6/5/2022 4:15:00 AM 16.01 60.818 0.645 7.84 14.41 8.21
6/5/2022 4:30:00 AM 15.96 60.728 0.644 7.84 15.11 8.22
6/5/2022 4:45:00 AM 15.92 60.656 0.645 7.84 15.54 8.22
6/5/2022 5:00:00 AM 15.87 60.566 0.633 7.84 15.98 8.23
6/5/2022 5:15:00 AM 15.83 60.494 0.628 7.84 15.27 8.22
6/5/2022 5:30:00 AM 15.79 60.422 0.646 7.84 14.75 8.24
6/5/2022 5:45:00 AM 15.75 60.35 0.646 7.84 16.52 8.24
6/5/2022 6:00:00 AM 15.7 60.26 0.646 7.84 16.06 8.26
6/5/2022 6:15:00 AM 15.66 60.188 0.646 7.84 15.05 8.28
6/5/2022 6:30:00 AM 15.62 60.116 0.646 7.84 15 8.32
6/5/2022 6:45:00 AM 15.59 60.062 0.645 7.84 14.13 8.37
6/5/2022 7:00:00 AM 15.57 60.026 0.645 7.85 14.71 8.44
6/5/2022 7:15:00 AM 15.56 60.008 0.645 7.85 16.56 8.53
6/5/2022 7:30:00 AM 15.56 60.008 0.644 7.86 32.83 8.64
6/5/2022 7:45:00 AM 15.58 60.044 0.643 7.87 152.4 8.77
6/5/2022 8:00:00 AM 15.61 60.098 0.628 7.88 114.1 8.91
6/5/2022 8:15:00 AM 15.65 60.17 0.627 7.89 175.8 9.09
6/5/2022 8:30:00 AM 15.71 60.278 0.643 7.91 136 9.26
6/5/2022 8:45:00 AM 15.78 60.404 0.643 7.92 50.17 9.45
6/5/2022 9:00:00 AM 15.85 60.53 0.643 7.94 13.37 9.62
6/5/2022 9:15:00 AM 15.94 60.692 0.643 7.95 15.68 9.78
6/5/2022 9:30:00 AM 16.02 60.836 0.643 7.96 72.8 9.94
6/5/2022 9:45:00 AM 16.11 60.998 0.643 7.98 78.13 10.12
6/5/2022 10:00:00 AM 16.19 61.142 0.643 8 16.37 10.28
6/5/2022 10:15:00 AM 16.28 61.304 0.643 8.01 101.8 10.42
6/5/2022 10:30:00 AM 16.37 61.466 0.642 8.02 12.4 10.57
6/5/2022 10:45:00 AM 16.48 61.664 0.642 8.04 14.43 10.71
6/5/2022 11:00:00 AM 16.58 61.844 0.642 8.05 13.44 10.85
6/5/2022 11:15:00 AM 16.68 62.024 0.642 8.07 12.57 10.98
6/5/2022 11:30:00 AM 16.78 62.204 0.642 8.08 12.79 11.1
6/5/2022 11:45:00 AM 16.84 62.312 0.642 8.09 12.65 11.22
6/5/2022 12:00:00 PM 16.92 62.456 0.642 8.1 12.67 11.33
6/5/2022 12:15:00 PM 16.98 62.564 0.642 8.11 15.47 11.42
6/5/2022 12:30:00 PM 17.07 62.726 0.642 8.12 12.93 11.52
6/5/2022 12:45:00 PM 17.16 62.888 0.642 8.13 13.4 11.61
6/5/2022 1:00:00 PM 17.26 63.068 0.642 8.14 12.71 11.69
6/5/2022 1:15:00 PM 17.36 63.248 0.642 8.15 14.11 11.77
6/5/2022 1:30:00 PM 17.44 63.392 0.642 8.16 14.52 11.83
6/5/2022 1:45:00 PM 17.54 63.572 0.642 8.17 12.9 11.9
6/5/2022 2:00:00 PM 17.62 63.716 0.642 8.17 13.37 11.94
6/5/2022 2:15:00 PM 17.7 63.86 0.642 8.18 15.7 11.98
6/5/2022 2:30:00 PM 17.77 63.986 0.641 8.19 18.64 11.99
6/5/2022 2:45:00 PM 17.82 64.076 0.641 8.19 13.51 11.99
6/5/2022 3:00:00 PM 17.86 64.148 0.642 8.2 13.04 12
6/5/2022 3:15:00 PM 17.89 64.202 0.641 8.2 19.2 11.96
6/5/2022 3:30:00 PM 17.92 64.256 0.641 8.2 12.65 11.93
6/5/2022 3:45:00 PM 17.93 64.274 0.641 8.2 12.91 11.88
6/5/2022 4:00:00 PM 17.95 64.31 0.641 8.2 14.51 11.82
6/5/2022 4:15:00 PM 17.95 64.31 0.641 8.19 24.37 11.74
6/5/2022 4:30:00 PM 17.94 64.292 0.641 8.19 15.14 11.65
6/5/2022 4:45:00 PM 17.92 64.256 0.641 8.19 13.25 11.53
6/5/2022 5:00:00 PM 17.89 64.202 0.642 8.18 13.32 11.44
6/5/2022 5:15:00 PM 17.87 64.166 0.642 8.18 46.27 11.33
6/5/2022 5:30:00 PM 17.83 64.094 0.642 8.17 13.65 11.2
6/5/2022 5:45:00 PM 17.8 64.04 0.642 8.16 12.78 11.06
6/5/2022 6:00:00 PM 17.77 63.986 0.643 8.15 18.19 10.9
6/5/2022 6:15:00 PM 17.74 63.932 0.643 8.13 14.03 10.75
6/5/2022 6:30:00 PM 17.71 63.878 0.643 8.12 20.29 10.59
6/5/2022 6:45:00 PM 17.68 63.824 0.643 8.11 15.77 10.42
6/5/2022 7:00:00 PM 17.64 63.752 0.644 8.09 15.53 10.26
6/5/2022 7:15:00 PM 17.59 63.662 0.644 8.08 16.73 10.08
6/5/2022 7:30:00 PM 17.54 63.572 0.644 8.07 14.33 9.92
6/5/2022 7:45:00 PM 17.49 63.482 0.644 8.05 15.27 9.77
6/5/2022 8:00:00 PM 17.44 63.392 0.645 8.04 21.12 9.62
6/5/2022 8:15:00 PM 17.39 63.302 0.645 8.03 15.86 9.49
6/5/2022 8:30:00 PM 17.33 63.194 0.645 8.02 28.26 9.37
6/5/2022 8:45:00 PM 17.28 63.104 0.645 8 21.84 9.25
6/5/2022 9:00:00 PM 17.22 62.996 0.645 7.99 21.07 9.13
6/5/2022 9:15:00 PM 17.17 62.906 0.645 7.98 31.22 9.01
6/5/2022 9:30:00 PM 17.1 62.78 0.645 7.97 21.88 8.94
6/5/2022 9:45:00 PM 17.04 62.672 0.646 7.96 22.98 8.85
6/5/2022 10:00:00 PM 16.98 62.564 0.642 7.95 19.61 8.77
6/5/2022 10:15:00 PM 16.92 62.456 0.646 7.94 21.37 8.71
6/5/2022 10:30:00 PM 16.86 62.348 0.646 7.93 24.24 8.67
6/5/2022 10:45:00 PM 16.8 62.24 0.646 7.93 22.66 8.61
6/5/2022 11:00:00 PM 16.74 62.132 0.646 7.92 29.66 8.56
6/5/2022 11:15:00 PM 16.68 62.024 0.646 7.91 81.57 8.53
6/5/2022 11:30:00 PM 16.63 61.934 0.647 7.91 25.55 8.5
6/5/2022 11:45:00 PM 16.57 61.826 0.644 7.91 25.83 8.45
6/6/2022 12:00:00 AM 16.51 61.718 0.647 7.9 87.09 8.42
6/6/2022 12:15:00 AM 16.46 61.628 0.648 7.9 76.99 8.41
6/6/2022 12:30:00 AM 16.4 61.52 0.647 7.89 62.09 8.39
6/6/2022 12:45:00 AM 16.35 61.43 0.648 7.89 43.27 8.37
6/6/2022 1:00:00 AM 16.3 61.34 0.648 7.89 31.7 8.35
6/6/2022 1:15:00 AM 16.25 61.25 0.648 7.88 29.81 8.35
6/6/2022 1:30:00 AM 16.2 61.16 0.648 7.88 27.82 8.32
6/6/2022 1:45:00 AM 16.15 61.07 0.648 7.88 27.05 8.3
6/6/2022 2:00:00 AM 16.11 60.998 0.648 7.87 27.65 8.29
6/6/2022 2:15:00 AM 16.06 60.908 0.648 7.87 27.73 8.29
6/6/2022 2:30:00 AM 16.02 60.836 0.648 7.87 28.39 8.28
6/6/2022 2:45:00 AM 15.98 60.764 0.649 7.86 29.53 8.27
6/6/2022 3:00:00 AM 15.94 60.692 0.649 7.86 30.84 8.27
6/6/2022 3:15:00 AM 15.9 60.62 0.649 7.86 28.39 8.27
6/6/2022 3:30:00 AM 15.85 60.53 0.649 7.86 31.14 8.27
6/6/2022 3:45:00 AM 15.81 60.458 0.649 7.86 31.4 8.27
6/6/2022 4:00:00 AM 15.77 60.386 0.648 7.86 31.09 8.27
6/6/2022 4:15:00 AM 15.72 60.296 0.637 7.85 23.42 8.29
6/6/2022 4:30:00 AM 15.69 60.242 0.634 7.85 23.85 8.29
6/6/2022 4:45:00 AM 15.65 60.17 0.648 7.85 24.92 8.29
6/6/2022 5:00:00 AM 15.61 60.098 0.648 7.85 25.32 8.3
6/6/2022 5:15:00 AM 15.56 60.008 0.648 7.85 23.53 8.3
6/6/2022 5:30:00 AM 15.52 59.936 0.648 7.85 23.91 8.3
6/6/2022 5:45:00 AM 15.49 59.882 0.648 7.84 23.49 8.31
6/6/2022 6:00:00 AM 15.46 59.828 0.648 7.84 23.79 8.32
6/6/2022 6:15:00 AM 15.43 59.774 0.647 7.85 26.3 8.35
6/6/2022 6:30:00 AM 15.4 59.72 0.647 7.84 24.22 8.37
6/6/2022 6:45:00 AM 15.38 59.684 0.647 7.85 24.6 8.43
6/6/2022 7:00:00 AM 15.37 59.666 0.646 7.85 24.78 8.5
6/6/2022 7:15:00 AM 15.37 59.666 0.646 7.85 25.3 8.58
6/6/2022 7:30:00 AM 15.38 59.684 0.646 7.86 24.81 8.69
6/6/2022 7:45:00 AM 15.4 59.72 0.645 7.87 24.52 8.82
6/6/2022 8:00:00 AM 15.44 59.792 0.645 7.88 24.38 8.97
6/6/2022 8:15:00 AM 15.49 59.882 0.645 7.89 26.14 9.15
6/6/2022 8:30:00 AM 15.56 60.008 0.645 7.9 26.78 9.33
6/6/2022 8:45:00 AM 15.64 60.152 0.645 7.92 37.1 9.49
6/6/2022 9:00:00 AM 15.7 60.26 0.645 7.93 23.59 9.66
6/6/2022 9:15:00 AM 15.77 60.386 0.645 7.94 23.94 9.79
6/6/2022 9:30:00 AM 15.85 60.53 0.646 7.96 24.38 9.94
6/6/2022 9:45:00 AM 15.95 60.71 0.645 7.97 24.07 10.08
6/6/2022 10:00:00 AM 16.05 60.89 0.645 7.99 24.26 10.24
6/6/2022 10:15:00 AM 16.16 61.088 0.645 8 24.99 10.38
6/6/2022 10:30:00 AM 16.28 61.304 0.645 8.01 25.26 10.53
6/6/2022 10:45:00 AM 16.43 61.574 0.644 8.03 25.52 10.69
6/6/2022 11:00:00 AM 16.57 61.826 0.643 8.05 24.87 10.87
6/6/2022 11:15:00 AM 16.63 61.934 0.643 8.06 24.94 11
6/6/2022 11:30:00 AM 16.68 62.024 0.642 8.07 24.72 11.09
6/6/2022 11:45:00 AM 16.8 62.24 0.642 8.09 24.99 11.22
6/6/2022 12:00:00 PM 16.9 62.42 0.642 8.09 25.35 11.31
6/6/2022 12:15:00 PM 17.02 62.636 0.642 8.1 25.74 11.43
6/6/2022 12:30:00 PM 17.15 62.87 0.643 8.12 25.98 11.56
6/6/2022 12:45:00 PM 17.29 63.122 0.643 8.13 27.82 11.66
6/6/2022 1:00:00 PM 17.41 63.338 0.643 8.14 26.52 11.79
6/6/2022 1:15:00 PM 17.52 63.536 0.642 8.15 26.56 11.87
6/6/2022 1:30:00 PM 17.63 63.734 0.643 8.16 26.3 11.94
6/6/2022 1:45:00 PM 17.73 63.914 0.643 8.17 27.27 11.99
6/6/2022 2:00:00 PM 17.81 64.058 0.643 8.18 27.34 12.03
6/6/2022 2:15:00 PM 17.9 64.22 0.643 8.19 26.32 12.05
6/6/2022 2:30:00 PM 17.98 64.364 0.643 8.19 26.06 12.05
6/6/2022 2:45:00 PM 18.04 64.472 0.643 8.2 26.77 12.05
6/6/2022 3:00:00 PM 18.08 64.544 0.643 8.2 27.22 12.02
6/6/2022 3:15:00 PM 18.11 64.598 0.643 8.2 26.87 12.03
6/6/2022 3:30:00 PM 18.12 64.616 0.643 8.2 25.09 12
6/6/2022 3:45:00 PM 18.13 64.634 0.643 8.2 22.97 12.01
6/6/2022 4:00:00 PM 18.13 64.634 0.644 8.2 23.66 11.93
6/6/2022 4:15:00 PM 18.12 64.616 0.644 8.2 24.13 11.89
6/6/2022 4:30:00 PM 18.1 64.58 0.644 8.2 24.15 11.76
6/6/2022 4:45:00 PM 18.09 64.562 0.644 8.2 24.67 11.69
6/6/2022 5:00:00 PM 18.07 64.526 0.643 8.19 25.41 11.57
6/6/2022 5:15:00 PM 18.05 64.49 0.643 8.19 25.46 11.46
6/6/2022 5:30:00 PM 18.02 64.436 0.644 8.18 26.36 11.35
6/6/2022 5:45:00 PM 17.99 64.382 0.644 8.18 25.5 11.22
6/6/2022 6:00:00 PM 17.96 64.328 0.644 8.17 24.48 11.09
6/6/2022 6:15:00 PM 17.92 64.256 0.644 8.16 26 10.94
6/6/2022 6:30:00 PM 17.88 64.184 0.644 8.15 25.25 10.81
6/6/2022 6:45:00 PM 17.84 64.112 0.645 8.13 30.92 10.65
6/6/2022 7:00:00 PM 17.8 64.04 0.646 8.12 39.95 10.49
6/6/2022 7:15:00 PM 17.77 63.986 0.646 8.11 26.44 10.34
6/6/2022 7:30:00 PM 17.73 63.914 0.645 8.1 27.34 10.19
6/6/2022 7:45:00 PM 17.7 63.86 0.646 8.09 23.11 10.04
6/6/2022 8:00:00 PM 17.66 63.788 0.646 8.07 27.07 9.89
6/6/2022 8:15:00 PM 17.61 63.698 0.646 8.06 25.97 9.72
6/6/2022 8:30:00 PM 17.56 63.608 0.646 8.05 26.05 9.57
6/6/2022 8:45:00 PM 17.51 63.518 0.646 8.03 27.01 9.42
6/6/2022 9:00:00 PM 17.46 63.428 0.647 8.02 25.12 9.27
6/6/2022 9:15:00 PM 17.41 63.338 0.647 8.01 26.95 9.16
6/6/2022 9:30:00 PM 17.36 63.248 0.647 7.99 61.03 9.05
6/6/2022 9:45:00 PM 17.3 63.14 0.645 7.98 27.06 8.96
6/6/2022 10:00:00 PM 17.26 63.068 0.648 7.97 31.75 8.87
6/6/2022 10:15:00 PM 17.21 62.978 0.648 7.96 26.93 8.81
6/6/2022 10:30:00 PM 17.17 62.906 0.649 7.95 32.25 8.74
6/6/2022 10:45:00 PM 17.12 62.816 0.649 7.94 28.82 8.66
6/6/2022 11:00:00 PM 17.08 62.744 0.649 7.93 33.74 8.62
6/6/2022 11:15:00 PM 17.04 62.672 0.649 7.93 30.2 8.56
6/6/2022 11:30:00 PM 16.99 62.582 0.649 7.92 79.02 8.53
6/6/2022 11:45:00 PM 16.95 62.51 0.649 7.92 30.34 8.48
6/7/2022 12:00:00 AM 16.9 62.42 0.65 7.91 30.48 8.44
6/7/2022 12:15:00 AM 16.86 62.348 0.65 7.9 31.86 8.4
6/7/2022 12:30:00 AM 16.82 62.276 0.65 7.9 39.81 8.38
6/7/2022 12:45:00 AM 16.78 62.204 0.65 7.89 114.1 8.35
6/7/2022 1:00:00 AM 16.73 62.114 0.65 7.89 122.3 8.33
6/7/2022 1:15:00 AM 16.69 62.042 0.65 7.89 33.56 8.32
6/7/2022 1:30:00 AM 16.65 61.97 0.65 7.88 71.54 8.3
6/7/2022 1:45:00 AM 16.62 61.916 0.649 7.88 50.25 8.27
6/7/2022 2:00:00 AM 16.58 61.844 0.649 7.87 35.08 8.27
6/7/2022 2:15:00 AM 16.53 61.754 0.649 7.87 58.18 8.26
6/7/2022 2:30:00 AM 16.49 61.682 0.649 7.87 44.44 8.24
6/7/2022 2:45:00 AM 16.45 61.61 0.649 7.87 59.43 8.23
6/7/2022 3:00:00 AM 16.41 61.538 0.555 7.86 42.23 8.23
6/7/2022 3:15:00 AM 16.37 61.466 0.649 7.86 51.67 8.22
6/7/2022 3:30:00 AM 16.33 61.394 0.649 7.86 32.97 8.21
6/7/2022 3:45:00 AM 16.29 61.322 0.649 7.85 49.91 8.2
6/7/2022 4:00:00 AM 16.26 61.268 0.649 7.85 69.02 8.19
6/7/2022 4:15:00 AM 16.23 61.214 0.649 7.85 38.11 8.19
6/7/2022 4:30:00 AM 16.21 61.178 0.648 7.85 33.05 8.19
6/7/2022 4:45:00 AM 16.17 61.106 0.648 7.85 40.69 8.19
6/7/2022 5:00:00 AM 16.14 61.052 0.648 7.84 99.07 8.19
6/7/2022 5:15:00 AM 16.12 61.016 0.648 7.84 165.2 8.19
6/7/2022 5:30:00 AM 16.09 60.962 0.648 7.84 70.47 8.19
6/7/2022 5:45:00 AM 16.06 60.908 0.648 7.84 144.4 8.19
6/7/2022 6:00:00 AM 16.04 60.872 0.648 7.83 42.48 8.21
6/7/2022 6:15:00 AM 16.02 60.836 0.647 7.83 29.83 8.24
6/7/2022 6:30:00 AM 16 60.8 0.647 7.84 27.62 8.29
6/7/2022 6:45:00 AM 15.99 60.782 0.647 7.84 22.19 8.36
6/7/2022 7:00:00 AM 15.99 60.782 0.647 7.84 19.83 8.43
6/7/2022 7:15:00 AM 15.99 60.782 0.646 7.85 18.35 8.52
6/7/2022 7:30:00 AM 16 60.8 0.646 7.85 16.38 8.63
6/7/2022 7:45:00 AM 16.01 60.818 0.646 7.86 17.52 8.74
6/7/2022 8:00:00 AM 16.04 60.872 0.646 7.87 17.7 8.87
6/7/2022 8:15:00 AM 16.09 60.962 0.645 7.89 17.01 9.06
6/7/2022 8:30:00 AM 16.13 61.034 0.643 7.9 89.92 9.17
6/7/2022 8:45:00 AM 16.15 61.07 0.634 7.9 42.98 9.24
6/7/2022 9:00:00 AM 16.18 61.124 0.592 7.91 112.8 9.3
6/7/2022 9:15:00 AM 16.2 61.16 0.642 7.92 121.5 9.36
6/7/2022 9:30:00 AM 16.23 61.214 0.637 7.92 122.8 9.42
6/7/2022 9:45:00 AM 16.25 61.25 0.626 7.93 170.9 9.47
6/7/2022 10:00:00 AM 16.27 61.286 0.645 7.93 96.41 9.5
6/7/2022 10:15:00 AM 16.29 61.322 0.645 7.93 73.14 9.56
6/7/2022 10:30:00 AM 16.32 61.376 0.623 7.94 53.79 9.67
6/7/2022 10:45:00 AM 16.41 61.538 0.639 7.95 76.31 9.87
6/7/2022 11:00:00 AM 16.48 61.664 0.639 7.98 73.91 10.1
6/7/2022 11:15:00 AM 16.52 61.736 0.582 7.99 108.6 10.24
6/7/2022 11:30:00 AM 16.57 61.826 0.571 8 81.58 10.36
6/7/2022 11:45:00 AM 16.6 61.88 0.573 8.02 60.15 10.45
6/7/2022 12:00:00 PM 16.62 61.916 0.628 8.02 109.8 10.47
6/7/2022 12:15:00 PM 16.68 62.024 0.645 8.03 82.22 10.58
6/7/2022 12:30:00 PM 16.83 62.294 0.645 8.05 25.41 10.83
6/7/2022 12:45:00 PM 16.96 62.528 0.644 8.07 25.69 11.05
6/7/2022 1:00:00 PM 16.99 62.582 0.645 8.09 40.85 11.14
6/7/2022 1:15:00 PM 17.01 62.618 0.645 8.09 70.61 11.17
6/7/2022 1:30:00 PM 17.04 62.672 0.646 8.09 33.11 11.13
6/7/2022 1:45:00 PM 17.02 62.636 0.646 8.09 91.77 11.04
6/7/2022 2:00:00 PM 16.97 62.546 0.646 8.08 63.14 10.89
6/7/2022 2:15:00 PM 16.92 62.456 0.647 8.07 77.98 10.77
6/7/2022 2:30:00 PM 16.87 62.366 0.646 8.06 29.39 10.68
6/7/2022 2:45:00 PM 16.83 62.294 0.647 8.06 13.28 10.58
6/7/2022 3:00:00 PM 16.79 62.222 0.647 8.05 5.55 10.5
6/7/2022 3:15:00 PM 16.76 62.168 0.647 8.04 10.46 10.4
6/7/2022 3:30:00 PM 16.73 62.114 0.647 8.04 4.28 10.28
6/7/2022 3:45:00 PM 16.71 62.078 0.648 8.03 4.48 10.2
6/7/2022 4:00:00 PM 16.7 62.06 0.635 8.03 4.19 10.15
6/7/2022 4:15:00 PM 16.71 62.078 0.647 8.02 3.53 10.13
6/7/2022 4:30:00 PM 16.7 62.06 0.649 8.02 2.95 10.07
6/7/2022 4:45:00 PM 16.7 62.06 0.649 8.02 2.88 9.99
6/7/2022 5:00:00 PM 16.69 62.042 0.631 8.01 3.35 9.94
6/7/2022 5:15:00 PM 16.68 62.024 0.648 8.01 3.12 9.83
6/7/2022 5:30:00 PM 16.67 62.006 0.648 8.01 3.25 9.81
6/7/2022 5:45:00 PM 16.65 61.97 0.649 8 3.14 9.77
6/7/2022 6:00:00 PM 16.63 61.934 0.649 8 3.17 9.69
6/7/2022 6:15:00 PM 16.62 61.916 0.648 7.99 3.09 9.62
6/7/2022 6:30:00 PM 16.59 61.862 0.648 7.99 4.26 9.53
6/7/2022 6:45:00 PM 16.58 61.844 0.647 7.98 2.92 9.44
6/7/2022 7:00:00 PM 16.56 61.808 0.648 7.97 3.56 9.4
6/7/2022 7:15:00 PM 16.54 61.772 0.648 7.97 3.36 9.32
6/7/2022 7:30:00 PM 16.52 61.736 0.648 7.96 3.51 9.23
6/7/2022 7:45:00 PM 16.5 61.7 0.648 7.95 4.36 9.18
6/7/2022 8:00:00 PM 16.5 61.7 0.644 7.95 4.41 9.12
6/7/2022 8:15:00 PM 16.48 61.664 0.644 7.95 4.5 9.04
6/7/2022 8:30:00 PM 16.47 61.646 0.642 7.94 4.94 8.98
6/7/2022 8:45:00 PM 16.45 61.61 0.641 7.93 6.96 8.91
6/7/2022 9:00:00 PM 16.42 61.556 0.642 7.92 18.82 8.85
6/7/2022 9:15:00 PM 16.4 61.52 0.642 7.91 8.96 8.79
6/7/2022 9:30:00 PM 16.39 61.502 0.642 7.9 8.12 8.73
6/7/2022 9:45:00 PM 16.36 61.448 0.642 7.9 8.87 8.68
6/7/2022 10:00:00 PM 16.34 61.412 0.642 7.89 8.76 8.63
6/7/2022 10:15:00 PM 16.32 61.376 0.642 7.88 10.6 8.58
6/7/2022 10:30:00 PM 16.31 61.358 0.642 7.88 11.86 8.55
6/7/2022 10:45:00 PM 16.29 61.322 0.643 7.87 15.05 8.52
6/7/2022 11:00:00 PM 16.28 61.304 0.643 7.87 15.78 8.49
6/7/2022 11:15:00 PM 16.27 61.286 0.644 7.86 14.99 8.46
6/7/2022 11:30:00 PM 16.27 61.286 0.645 7.86 12.51 8.45
6/7/2022 11:45:00 PM 16.26 61.268 0.645 7.85 14.94 8.41
6/8/2022 12:00:00 AM 16.26 61.268 0.644 7.85 17.72 8.38
6/8/2022 12:15:00 AM 16.26 61.268 0.644 7.84 13.39 8.34
6/8/2022 12:30:00 AM 16.25 61.25 0.644 7.83 14.69 8.31
6/8/2022 12:45:00 AM 16.23 61.214 0.645 7.83 17.8 8.29
6/8/2022 1:00:00 AM 16.21 61.178 0.645 7.83 18.84 8.29
6/8/2022 1:15:00 AM 16.19 61.142 0.647 7.82 16.69 8.28
6/8/2022 1:30:00 AM 16.17 61.106 0.648 7.82 18.15 8.28
6/8/2022 1:45:00 AM 16.15 61.07 0.64 7.81 17.43 8.28
6/8/2022 2:00:00 AM 16.13 61.034 0.644 7.81 17.18 8.28
6/8/2022 2:15:00 AM 16.13 61.034 0.65 7.81 18.54 8.26
6/8/2022 2:30:00 AM 16.13 61.034 0.65 7.81 17.26 8.24
6/8/2022 2:45:00 AM 16.14 61.052 0.648 7.8 17.97 8.22
6/8/2022 3:00:00 AM 16.15 61.07 0.646 7.8 21.43 8.2
6/8/2022 3:15:00 AM 16.16 61.088 0.644 7.79 22.02 8.18
6/8/2022 3:30:00 AM 16.18 61.124 0.645 7.79 21.47 8.17
6/8/2022 3:45:00 AM 16.18 61.124 0.645 7.79 21.2 8.16
6/8/2022 4:00:00 AM 16.18 61.124 0.646 7.79 19.37 8.16
6/8/2022 4:15:00 AM 16.18 61.124 0.646 7.78 23.73 8.16
6/8/2022 4:30:00 AM 16.18 61.124 0.647 7.78 22.79 8.15
6/8/2022 4:45:00 AM 16.19 61.142 0.648 7.78 27.03 8.14
6/8/2022 5:00:00 AM 16.19 61.142 0.649 7.78 24.59 8.13
6/8/2022 5:15:00 AM 16.2 61.16 0.65 7.78 24.37 8.12
6/8/2022 5:30:00 AM 16.2 61.16 0.651 7.78 21.66 8.12
6/8/2022 5:45:00 AM 16.2 61.16 0.651 7.78 20.54 8.12
6/8/2022 6:00:00 AM 16.21 61.178 0.652 7.78 23.4 8.12
6/8/2022 6:15:00 AM 16.21 61.178 0.652 7.78 22.67 8.14
6/8/2022 6:30:00 AM 16.21 61.178 0.652 7.78 20.68 8.17
6/8/2022 6:45:00 AM 16.21 61.178 0.652 7.79 28.96 8.2
6/8/2022 7:00:00 AM 16.22 61.196 0.652 7.79 23.16 8.25
6/8/2022 7:15:00 AM 16.23 61.214 0.65 7.79 22.95 8.31
6/8/2022 7:30:00 AM 16.25 61.25 0.648 7.8 19.95 8.39
6/8/2022 7:45:00 AM 16.29 61.322 0.645 7.8 31.42 8.5
6/8/2022 8:00:00 AM 16.33 61.394 0.642 7.81 22.62 8.62
6/8/2022 8:15:00 AM 16.41 61.538 0.638 7.81 20.35 8.78
6/8/2022 8:30:00 AM 16.48 61.664 0.634 7.82 21.15 8.92
6/8/2022 8:45:00 AM 16.56 61.808 0.629 7.83 21 9.05
6/8/2022 9:00:00 AM 16.64 61.952 0.624 7.84 20.88 9.18
6/8/2022 9:15:00 AM 16.71 62.078 0.619 7.84 21.15 9.29
6/8/2022 9:30:00 AM 16.78 62.204 0.614 7.85 20.54 9.37
6/8/2022 9:45:00 AM 16.86 62.348 0.609 7.86 21.24 9.51
6/8/2022 10:00:00 AM 16.95 62.51 0.606 7.86 20.61 9.64
6/8/2022 10:15:00 AM 17.05 62.69 0.603 7.88 21.55 9.81
6/8/2022 10:30:00 AM 17.14 62.852 0.602 7.89 21.41 9.98
6/8/2022 10:45:00 AM 17.23 63.014 0.601 7.9 22.28 10.14
6/8/2022 11:00:00 AM 17.32 63.176 0.601 7.92 19.79 10.3
6/8/2022 11:15:00 AM 17.42 63.356 0.602 7.93 20.73 10.48
6/8/2022 11:30:00 AM 17.54 63.572 0.603 7.95 20.51 10.64
6/8/2022 11:45:00 AM 17.64 63.752 0.603 7.96 19.75 10.8
6/8/2022 12:00:00 PM 17.76 63.968 0.604 7.98 21.58 10.94
6/8/2022 12:15:00 PM 17.88 64.184 0.604 8 20.39 11.1
6/8/2022 12:30:00 PM 17.99 64.382 0.604 8.01 25.41 11.24
6/8/2022 12:45:00 PM 18.1 64.58 0.603 8.03 19.72 11.36
6/8/2022 1:00:00 PM 18.23 64.814 0.602 8.04 20.3 11.46
6/8/2022 1:15:00 PM 18.32 64.976 0.6 8.05 19.75 11.57
6/8/2022 1:30:00 PM 18.42 65.156 0.598 8.06 20.43 11.64
6/8/2022 1:45:00 PM 18.51 65.318 0.596 8.07 21.16 11.69
6/8/2022 2:00:00 PM 18.59 65.462 0.594 8.08 28.2 11.76
6/8/2022 2:15:00 PM 18.66 65.588 0.592 8.09 21.17 11.8
6/8/2022 2:30:00 PM 18.73 65.714 0.592 8.1 20.52 11.84
6/8/2022 2:45:00 PM 18.79 65.82201 0.592 8.11 20.6 11.87
6/8/2022 3:00:00 PM 18.85 65.93 0.592 8.12 28.42 11.88
6/8/2022 3:15:00 PM 18.88 65.984 0.592 8.12 20.57 11.86
6/8/2022 3:30:00 PM 18.91 66.038 0.593 8.12 21.36 11.84
6/8/2022 3:45:00 PM 18.92 66.056 0.594 8.12 21.39 11.79
6/8/2022 4:00:00 PM 18.92 66.056 0.595 8.12 18.45 11.73
6/8/2022 4:15:00 PM 18.91 66.038 0.598 8.12 18.52 11.66
6/8/2022 4:30:00 PM 18.89 66.002 0.6 8.12 19.44 11.58
6/8/2022 4:45:00 PM 18.87 65.966 0.602 8.11 20.11 11.47
6/8/2022 5:00:00 PM 18.85 65.93 0.604 8.11 17.51 11.36
6/8/2022 5:15:00 PM 18.82 65.876 0.605 8.1 16.46 11.26
6/8/2022 5:30:00 PM 18.78 65.804 0.607 8.1 16.99 11.13
6/8/2022 5:45:00 PM 18.74 65.732 0.608 8.09 17.21 10.97
6/8/2022 6:00:00 PM 18.71 65.67799 0.61 8.08 17.18 10.8
6/8/2022 6:15:00 PM 18.67 65.606 0.611 8.07 17.34 10.65
6/8/2022 6:30:00 PM 18.64 65.552 0.612 8.06 16.92 10.46
6/8/2022 6:45:00 PM 18.59 65.462 0.613 8.05 16.75 10.3
6/8/2022 7:00:00 PM 18.55 65.39 0.614 8.03 17.35 10.13
6/8/2022 7:15:00 PM 18.5 65.3 0.615 8.02 18.52 9.97
6/8/2022 7:30:00 PM 18.46 65.228 0.616 8.01 18.96 9.83
6/8/2022 7:45:00 PM 18.43 65.174 0.617 8 17.46 9.68
6/8/2022 8:00:00 PM 18.39 65.102 0.619 7.99 17.7 9.53
6/8/2022 8:15:00 PM 18.36 65.048 0.62 7.97 17.95 9.36
6/8/2022 8:30:00 PM 18.31 64.958 0.621 7.96 17.55 9.21
6/8/2022 8:45:00 PM 18.27 64.886 0.622 7.95 17.69 9.06
6/8/2022 9:00:00 PM 18.22 64.796 0.623 7.94 18.1 8.91
6/8/2022 9:15:00 PM 18.17 64.706 0.625 7.93 18.03 8.79
6/8/2022 9:30:00 PM 18.13 64.634 0.626 7.92 17.83 8.7
6/8/2022 9:45:00 PM 18.09 64.562 0.627 7.91 18.68 8.6
6/8/2022 10:00:00 PM 18.05 64.49 0.628 7.9 18.57 8.52
6/8/2022 10:15:00 PM 18.02 64.436 0.63 7.89 19.2 8.44
6/8/2022 10:30:00 PM 17.98 64.364 0.631 7.88 18.08 8.38
6/8/2022 10:45:00 PM 17.94 64.292 0.632 7.88 22.69 8.32
6/8/2022 11:00:00 PM 17.89 64.202 0.634 7.87 19.59 8.27
6/8/2022 11:15:00 PM 17.86 64.148 0.635 7.87 19.43 8.21
6/8/2022 11:30:00 PM 17.83 64.094 0.636 7.86 20.61 8.17
6/8/2022 11:45:00 PM 17.8 64.04 0.637 7.86 20.06 8.13
6/9/2022 12:00:00 AM 17.76 63.968 0.623 7.86 20.25 8.08
6/9/2022 12:15:00 AM 17.73 63.914 0.637 7.85 22.56 8.06
6/9/2022 12:30:00 AM 17.7 63.86 0.632 7.85 19.92 8.04
6/9/2022 12:45:00 AM 17.67 63.806 0.636 7.85 21.58 8.02
6/9/2022 1:00:00 AM 17.64 63.752 0.636 7.84 22.18 7.98
6/9/2022 1:15:00 AM 17.62 63.716 0.636 7.84 22.71 7.96
6/9/2022 1:30:00 AM 17.6 63.68 0.636 7.84 24 7.92
6/9/2022 1:45:00 AM 17.58 63.644 0.636 7.84 22.02 7.9
6/9/2022 2:00:00 AM 17.56 63.608 0.635 7.83 22.58 7.88
6/9/2022 2:15:00 AM 17.54 63.572 0.634 7.83 21.38 7.85
6/9/2022 2:30:00 AM 17.53 63.554 0.632 7.83 22.36 7.85
6/9/2022 2:45:00 AM 17.52 63.536 0.632 7.83 22.31 7.82
6/9/2022 3:00:00 AM 17.52 63.536 0.633 7.83 22.24 7.8
6/9/2022 3:15:00 AM 17.51 63.518 0.633 7.83 23.05 7.79
6/9/2022 3:30:00 AM 17.49 63.482 0.634 7.83 25.01 7.78
6/9/2022 3:45:00 AM 17.47 63.446 0.634 7.83 25.09 7.76
6/9/2022 4:00:00 AM 17.44 63.392 0.633 7.82 26.43 7.75
6/9/2022 4:15:00 AM 17.42 63.356 0.634 7.82 24.6 7.74
6/9/2022 4:30:00 AM 17.39 63.302 0.635 7.82 24.9 7.73
6/9/2022 4:45:00 AM 17.37 63.266 0.636 7.82 39.21 7.72
6/9/2022 5:00:00 AM 17.35 63.23 0.637 7.81 25.45 7.73
6/9/2022 5:15:00 AM 17.33 63.194 0.637 7.81 25.91 7.73
6/9/2022 5:30:00 AM 17.31 63.158 0.637 7.81 26.81 7.72
6/9/2022 5:45:00 AM 17.29 63.122 0.637 7.81 26.35 7.71
6/9/2022 6:00:00 AM 17.27 63.086 0.636 7.81 25.37 7.71
6/9/2022 6:15:00 AM 17.27 63.086 0.633 7.8 25.73 7.7
6/9/2022 6:30:00 AM 17.29 63.122 0.628 7.8 24.92 7.69
6/9/2022 6:45:00 AM 17.31 63.158 0.623 7.8 26.25 7.7
6/9/2022 7:00:00 AM 17.34 63.212 0.62 7.79 25.12 7.73
6/9/2022 7:15:00 AM 17.35 63.23 0.619 7.79 25.83 7.8
6/9/2022 7:30:00 AM 17.35 63.23 0.621 7.8 24.81 7.88
6/9/2022 7:45:00 AM 17.37 63.266 0.622 7.8 26.32 7.99
6/9/2022 8:00:00 AM 17.39 63.302 0.624 7.82 25.68 8.13
6/9/2022 8:15:00 AM 17.44 63.392 0.622 7.83 25.63 8.28
6/9/2022 8:30:00 AM 17.51 63.518 0.621 7.84 26.43 8.43
6/9/2022 8:45:00 AM 17.58 63.644 0.62 7.85 26.52 8.58
6/9/2022 9:00:00 AM 17.65 63.77 0.62 7.86 25.43 8.76
6/9/2022 9:15:00 AM 17.7 63.86 0.621 7.87 26.27 8.9
6/9/2022 9:30:00 AM 17.73 63.914 0.623 7.88 26.62 8.98
6/9/2022 9:45:00 AM 17.72 63.896 0.625 7.89 27.49 8.95
6/9/2022 10:00:00 AM 17.79 64.022 0.629 7.89 29.45 9.11
6/9/2022 10:15:00 AM 17.87 64.166 0.63 7.91 26.28 9.3
6/9/2022 10:30:00 AM 17.97 64.346 0.63 7.93 26.79 9.51
6/9/2022 10:45:00 AM 18.07 64.526 0.629 7.94 26.94 9.72
6/9/2022 11:00:00 AM 18.16 64.688 0.628 7.96 28.07 9.88
6/9/2022 11:15:00 AM 18.18 64.724 0.627 7.97 26.29 9.95
6/9/2022 11:30:00 AM 18.22 64.796 0.627 7.97 26.89 9.95
6/9/2022 11:45:00 AM 18.29 64.922 0.628 7.98 27.64 10.07
6/9/2022 12:00:00 PM 18.33 64.994 0.629 7.99 28.6 10.14
6/9/2022 12:15:00 PM 18.44 65.192 0.629 8.01 26.52 10.35
6/9/2022 12:30:00 PM 18.57 65.426 0.598 8.03 27.87 10.55
6/9/2022 12:45:00 PM 18.64 65.552 0.611 8.05 29.5 10.68
6/9/2022 1:00:00 PM 18.72 65.696 0.63 8.06 32.95 10.8
6/9/2022 1:15:00 PM 18.85 65.93 0.629 8.08 38.64 10.94
6/9/2022 1:30:00 PM 18.92 66.056 0.631 8.1 49.49 11.03
6/9/2022 1:45:00 PM 18.94 66.092 0.631 8.11 40.4 11.06
6/9/2022 2:00:00 PM 18.99 66.182 0.633 8.12 27.46 11.13
6/9/2022 2:15:00 PM 18.98 66.164 0.633 8.13 28.17 11.13
6/9/2022 2:30:00 PM 18.98 66.164 0.632 8.13 27.63 11.12
6/9/2022 2:45:00 PM 19.07 66.326 0.631 8.14 26.37 11.28
6/9/2022 3:00:00 PM 19.11 66.398 0.627 8.15 28.09 11.35
6/9/2022 3:15:00 PM 19.16 66.488 0.624 8.16 27.96 11.41
6/9/2022 3:30:00 PM 19.16 66.488 0.62 8.16 26.58 11.41
6/9/2022 3:45:00 PM 19.17 66.506 0.615 8.16 28.99 11.39
6/9/2022 4:00:00 PM 19.14 66.452 0.611 8.16 26.82 11.33
6/9/2022 4:15:00 PM 19.05 66.29 0.607 8.15 25.45 11.19
6/9/2022 4:30:00 PM 19.07 66.326 0.602 8.14 27.47 11.16
6/9/2022 4:45:00 PM 19.09 66.362 0.599 8.14 28.15 11.13
6/9/2022 5:00:00 PM 19.05 66.29 0.597 8.13 25.95 11.02
6/9/2022 5:15:00 PM 19 66.2 0.595 8.12 25.4 10.9
6/9/2022 5:30:00 PM 18.96 66.128 0.594 8.11 19.22 10.83
6/9/2022 5:45:00 PM 18.86 65.948 0.594 8.09 21.38 10.64
6/9/2022 6:00:00 PM 18.8 65.84 0.593 8.08 20.89 10.52
6/9/2022 6:15:00 PM 18.72 65.696 0.593 8.07 22.14 10.33
6/9/2022 6:30:00 PM 18.62 65.516 0.593 8.05 21.59 10.14
6/9/2022 6:45:00 PM 18.53 65.354 0.593 8.03 21.42 9.93
6/9/2022 7:00:00 PM 18.45 65.21 0.592 8.01 21.97 9.79
6/9/2022 7:15:00 PM 18.38 65.084 0.591 8 22.69 9.66
6/9/2022 7:30:00 PM 18.32 64.976 0.59 7.99 23.39 9.56
6/9/2022 7:45:00 PM 18.28 64.904 0.59 7.98 23.44 9.46
6/9/2022 8:00:00 PM 18.23 64.814 0.589 7.97 23.76 9.36
6/9/2022 8:15:00 PM 18.17 64.706 0.59 7.96 24.56 9.23
6/9/2022 8:30:00 PM 18.12 64.616 0.59 7.95 25.23 9.12
6/9/2022 8:45:00 PM 18.06 64.508 0.591 7.94 27.91 8.99
6/9/2022 9:00:00 PM 17.99 64.382 0.593 7.92 41.43 8.87
6/9/2022 9:15:00 PM 17.92 64.256 0.594 7.91 27.28 8.77
6/9/2022 9:30:00 PM 17.85 64.13 0.596 7.9 26.35 8.67
6/9/2022 9:45:00 PM 17.79 64.022 0.598 7.89 27.88 8.59
6/9/2022 10:00:00 PM 17.73 63.914 0.6 7.88 27.91 8.52
6/9/2022 10:15:00 PM 17.66 63.788 0.603 7.88 29.48 8.46
6/9/2022 10:30:00 PM 17.6 63.68 0.605 7.87 30.32 8.4
6/9/2022 10:45:00 PM 17.55 63.59 0.607 7.86 28.84 8.35
6/9/2022 11:00:00 PM 17.5 63.5 0.609 7.86 32.98 8.31
6/9/2022 11:15:00 PM 17.44 63.392 0.61 7.86 31.66 8.27
6/9/2022 11:30:00 PM 17.39 63.302 0.612 7.85 31.83 8.23
6/9/2022 11:45:00 PM 17.33 63.194 0.614 7.85 32.64 8.21
6/10/2022 12:00:00 AM 17.27 63.086 0.616 7.84 44.33 8.18
6/10/2022 12:15:00 AM 17.21 62.978 0.617 7.84 40.16 8.14
6/10/2022 12:30:00 AM 17.14 62.852 0.618 7.84 32.72 8.12
6/10/2022 12:45:00 AM 17.07 62.726 0.62 7.83 33.29 8.09
6/10/2022 1:00:00 AM 17.01 62.618 0.622 7.83 33.79 8.09
6/10/2022 1:15:00 AM 16.95 62.51 0.623 7.83 33.09 8.07
6/10/2022 1:30:00 AM 16.89 62.402 0.624 7.82 33.92 8.07
6/10/2022 1:45:00 AM 16.83 62.294 0.626 7.82 38.9 8.06
6/10/2022 2:00:00 AM 16.78 62.204 0.612 7.82 73.64 8.05
6/10/2022 2:15:00 AM 16.72 62.096 0.628 7.82 35.51 8.03
6/10/2022 2:30:00 AM 16.67 62.006 0.629 7.82 36.99 8.04
6/10/2022 2:45:00 AM 16.62 61.916 0.63 7.82 43.16 8.04
6/10/2022 3:00:00 AM 16.56 61.808 0.631 7.82 36.99 8.03
6/10/2022 3:15:00 AM 16.51 61.718 0.632 7.82 50.07 8.04
6/10/2022 3:30:00 AM 16.46 61.628 0.632 7.82 37.19 8.04
6/10/2022 3:45:00 AM 16.41 61.538 0.633 7.83 37.99 8.05
6/10/2022 4:00:00 AM 16.36 61.448 0.634 7.82 39.18 8.06
6/10/2022 4:15:00 AM 16.31 61.358 0.635 7.82 38.34 8.07
6/10/2022 4:30:00 AM 16.26 61.268 0.635 7.82 39.35 8.07
6/10/2022 4:45:00 AM 16.21 61.178 0.636 7.82 38.52 8.07
6/10/2022 5:00:00 AM 16.16 61.088 0.585 7.81 37.96 8.09
6/10/2022 5:15:00 AM 16.12 61.016 0.637 7.81 38.97 8.09
6/10/2022 5:30:00 AM 16.07 60.926 0.637 7.81 39.92 8.1
6/10/2022 5:45:00 AM 16.03 60.854 0.637 7.81 40.06 8.11
6/10/2022 6:00:00 AM 15.98 60.764 0.638 7.81 40.86 8.13
6/10/2022 6:15:00 AM 15.94 60.692 0.638 7.81 43.44 8.16
6/10/2022 6:30:00 AM 15.91 60.638 0.638 7.81 41.09 8.19
6/10/2022 6:45:00 AM 15.88 60.584 0.639 7.81 43.2 8.24
6/10/2022 7:00:00 AM 15.86 60.548 0.638 7.81 38.61 8.32
6/10/2022 7:15:00 AM 15.85 60.53 0.639 7.82 39.81 8.41
6/10/2022 7:30:00 AM 15.85 60.53 0.638 7.83 40.29 8.52
6/10/2022 7:45:00 AM 15.87 60.566 0.638 7.83 41.42 8.66
6/10/2022 8:00:00 AM 15.9 60.62 0.638 7.85 42.61 8.81
6/10/2022 8:15:00 AM 15.94 60.692 0.638 7.86 41.58 9
6/10/2022 8:30:00 AM 15.99 60.782 0.638 7.88 42.77 9.19
6/10/2022 8:45:00 AM 16.06 60.908 0.638 7.89 45.83 9.37
6/10/2022 9:00:00 AM 16.13 61.034 0.638 7.91 41.58 9.57
6/10/2022 9:15:00 AM 16.21 61.178 0.638 7.93 40.58 9.75
6/10/2022 9:30:00 AM 16.3 61.34 0.638 7.94 41.56 9.96
6/10/2022 9:45:00 AM 16.34 61.412 0.638 7.96 46.51 10.12
6/10/2022 10:00:00 AM 16.36 61.448 0.638 7.97 42.64 10.22
6/10/2022 10:15:00 AM 16.39 61.502 0.638 7.98 43 10.33
6/10/2022 10:30:00 AM 16.46 61.628 0.638 8 43.25 10.49
6/10/2022 10:45:00 AM 16.58 61.844 0.638 8.01 43.58 10.69
6/10/2022 11:00:00 AM 16.69 62.042 0.638 8.03 43.36 10.89
6/10/2022 11:15:00 AM 16.8 62.24 0.638 8.05 44.28 11.06
6/10/2022 11:30:00 AM 16.95 62.51 0.638 8.07 43.16 11.2
6/10/2022 11:45:00 AM 17.04 62.672 0.639 8.08 43.56 11.31
6/10/2022 12:00:00 PM 17.05 62.69 0.639 8.09 44.36 11.3
6/10/2022 12:15:00 PM 17.12 62.816 0.639 8.09 43.69 11.29
6/10/2022 12:30:00 PM 17.23 63.014 0.64 8.1 42.77 11.39
6/10/2022 12:45:00 PM 17.35 63.23 0.64 8.11 43.68 11.46
6/10/2022 1:00:00 PM 17.44 63.392 0.641 8.12 43.47 11.57
6/10/2022 1:15:00 PM 17.54 63.572 0.641 8.13 44.4 11.64
6/10/2022 1:30:00 PM 17.66 63.788 0.641 8.14 42.93 11.75
6/10/2022 1:45:00 PM 17.69 63.842 0.641 8.15 40.61 11.77
6/10/2022 2:00:00 PM 17.72 63.896 0.641 8.16 40.78 11.81
6/10/2022 2:15:00 PM 17.83 64.094 0.641 8.17 39.17 11.88
6/10/2022 2:30:00 PM 17.95 64.31 0.64 8.18 39.01 11.99
6/10/2022 2:45:00 PM 17.99 64.382 0.64 8.19 36.42 12.04
6/10/2022 3:00:00 PM 18 64.4 0.64 8.2 36.11 12.04
6/10/2022 3:15:00 PM 18.06 64.508 0.64 8.2 38.53 11.99
6/10/2022 3:30:00 PM 18.14 64.652 0.64 8.21 37.45 12.07
6/10/2022 3:45:00 PM 18.18 64.724 0.64 8.21 37.7 12.03
6/10/2022 4:00:00 PM 18.15 64.67 0.641 8.21 38.41 11.97
6/10/2022 4:15:00 PM 18.1 64.58 0.641 8.21 39.15 11.95
6/10/2022 4:30:00 PM 18.04 64.472 0.642 8.21 45.64 11.89
6/10/2022 4:45:00 PM 17.99 64.382 0.642 8.21 38.69 11.79
6/10/2022 5:00:00 PM 17.93 64.274 0.643 8.21 39.62 11.69
6/10/2022 5:15:00 PM 17.88 64.184 0.643 8.2 38.74 11.57
6/10/2022 5:30:00 PM 17.84 64.112 0.643 8.19 41.04 11.47
6/10/2022 5:45:00 PM 17.83 64.094 0.642 8.19 40.97 11.39
6/10/2022 6:00:00 PM 17.83 64.094 0.642 8.18 41.26 11.26
6/10/2022 6:15:00 PM 17.83 64.094 0.642 8.17 34.73 11.09
6/10/2022 6:30:00 PM 17.82 64.076 0.642 8.15 37.64 10.95
6/10/2022 6:45:00 PM 17.8 64.04 0.643 8.14 36.55 10.76
6/10/2022 7:00:00 PM 17.78 64.004 0.643 8.13 35.69 10.56
6/10/2022 7:15:00 PM 17.75 63.95 0.643 8.11 35.75 10.38
6/10/2022 7:30:00 PM 17.71 63.878 0.644 8.09 36.86 10.2
6/10/2022 7:45:00 PM 17.67 63.806 0.644 8.08 37.98 10.03
6/10/2022 8:00:00 PM 17.63 63.734 0.644 8.06 39.03 9.85
6/10/2022 8:15:00 PM 17.58 63.644 0.645 8.05 38.29 9.71
6/10/2022 8:30:00 PM 17.54 63.572 0.645 8.03 38.56 9.56
6/10/2022 8:45:00 PM 17.49 63.482 0.645 8.02 38.33 9.43
6/10/2022 9:00:00 PM 17.44 63.392 0.645 8.01 38.66 9.29
6/10/2022 9:15:00 PM 17.39 63.302 0.645 7.99 39.24 9.17
6/10/2022 9:30:00 PM 17.34 63.212 0.645 7.98 39.58 9.07
6/10/2022 9:45:00 PM 17.3 63.14 0.645 7.97 39.6 8.97
6/10/2022 10:00:00 PM 17.26 63.068 0.646 7.96 40.91 8.89
6/10/2022 10:15:00 PM 17.21 62.978 0.646 7.95 41.59 8.82
6/10/2022 10:30:00 PM 17.17 62.906 0.646 7.94 40.64 8.75
6/10/2022 10:45:00 PM 17.12 62.816 0.647 7.94 41.54 8.7
6/10/2022 11:00:00 PM 17.07 62.726 0.647 7.93 41.71 8.64
6/10/2022 11:15:00 PM 17.03 62.654 0.647 7.92 40.64 8.59
6/10/2022 11:30:00 PM 16.98 62.564 0.647 7.91 41.14 8.54
6/10/2022 11:45:00 PM 16.94 62.492 0.648 7.91 44.24 8.51
6/11/2022 12:00:00 AM 16.89 62.402 0.648 7.9 51.71 8.47
6/11/2022 12:15:00 AM 16.85 62.33 0.648 7.9 43.08 8.44
6/11/2022 12:30:00 AM 16.81 62.258 0.649 7.89 42.83 8.4
6/11/2022 12:45:00 AM 16.76 62.168 0.649 7.89 69.19 8.37
6/11/2022 1:00:00 AM 16.72 62.096 0.649 7.88 42.86 8.35
6/11/2022 1:15:00 AM 16.68 62.024 0.649 7.88 50.9 8.32
6/11/2022 1:30:00 AM 16.63 61.934 0.649 7.88 45.87 8.3
6/11/2022 1:45:00 AM 16.59 61.862 0.65 7.87 48.75 8.28
6/11/2022 2:00:00 AM 16.56 61.808 0.65 7.87 50.58 8.27
6/11/2022 2:15:00 AM 16.52 61.736 0.65 7.87 99.41 8.25
6/11/2022 2:30:00 AM 16.48 61.664 0.65 7.86 65.12 8.23
6/11/2022 2:45:00 AM 16.45 61.61 0.651 7.86 74.66 8.23
6/11/2022 3:00:00 AM 16.42 61.556 0.65 7.86 89.39 8.21
6/11/2022 3:15:00 AM 16.38 61.484 0.65 7.86 65.19 8.2
6/11/2022 3:30:00 AM 16.35 61.43 0.65 7.85 51.64 8.2
6/11/2022 3:45:00 AM 16.32 61.376 0.649 7.85 64.64 8.2
6/11/2022 4:00:00 AM 16.28 61.304 0.65 7.85 52.63 8.19
6/11/2022 4:15:00 AM 16.25 61.25 0.65 7.84 44.11 8.19
6/11/2022 4:30:00 AM 16.21 61.178 0.649 7.84 46.11 8.19
6/11/2022 4:45:00 AM 16.17 61.106 0.649 7.84 65.54 8.18
6/11/2022 5:00:00 AM 16.13 61.034 0.649 7.84 46.84 8.18
6/11/2022 5:15:00 AM 16.09 60.962 0.649 7.84 118.5 8.16
6/11/2022 5:30:00 AM 16.04 60.872 0.649 7.84 72.43 8.14
6/11/2022 5:45:00 AM 15.98 60.764 0.651 7.84 55.67 8.11
6/11/2022 6:00:00 AM 15.94 60.692 0.651 7.84 47.03 8.09
6/11/2022 6:15:00 AM 15.91 60.638 0.651 7.84 41.47 8.1
6/11/2022 6:30:00 AM 15.88 60.584 0.651 7.84 50.55 8.16
6/11/2022 6:45:00 AM 15.87 60.566 0.652 7.84 44.71 8.22
6/11/2022 7:00:00 AM 15.87 60.566 0.651 7.85 77.88 8.31
6/11/2022 7:15:00 AM 15.88 60.584 0.65 7.86 37.06 8.42
6/11/2022 7:30:00 AM 15.91 60.638 0.649 7.87 37.13 8.61
6/11/2022 7:45:00 AM 15.94 60.692 0.648 7.88 55.14 8.77
6/11/2022 8:00:00 AM 15.96 60.728 0.648 7.88 46.86 8.87
6/11/2022 8:15:00 AM 15.97 60.746 0.647 7.89 101.9 8.95
6/11/2022 8:30:00 AM 15.97 60.746 0.647 7.89 166.6 8.96
6/11/2022 8:45:00 AM 15.98 60.764 0.647 7.9 37.26 8.98
6/11/2022 9:00:00 AM 15.98 60.764 0.647 7.9 42.92 9.03
6/11/2022 9:15:00 AM 15.98 60.764 0.647 7.9 34.9 9.06
6/11/2022 9:30:00 AM 15.99 60.782 0.647 7.91 36.1 9.09
6/11/2022 9:45:00 AM 16 60.8 0.646 7.91 49.01 9.17
6/11/2022 10:00:00 AM 16.02 60.836 0.646 7.92 104.7 9.3
6/11/2022 10:15:00 AM 16.04 60.872 0.646 7.93 42.99 9.47
6/11/2022 10:30:00 AM 16.08 60.944 0.646 7.95 38.28 9.66
6/11/2022 10:45:00 AM 16.11 60.998 0.646 7.96 35.94 9.87
6/11/2022 11:00:00 AM 16.12 61.016 0.646 7.98 34.9 9.95
6/11/2022 11:15:00 AM 16.13 61.034 0.646 7.98 35.54 10.02
6/11/2022 11:30:00 AM 16.15 61.07 0.646 7.99 35.01 10.14
6/11/2022 11:45:00 AM 16.18 61.124 0.645 8 82.48 10.28
6/11/2022 12:00:00 PM 16.21 61.178 0.645 8.01 36.16 10.43
6/11/2022 12:15:00 PM 16.23 61.214 0.645 8.02 36.98 10.53
6/11/2022 12:30:00 PM 16.26 61.268 0.646 8.03 39.15 10.64
6/11/2022 12:45:00 PM 16.29 61.322 0.645 8.04 38.32 10.78
6/11/2022 1:00:00 PM 16.29 61.322 0.645 8.06 126.7 10.78
6/11/2022 1:15:00 PM 16.3 61.34 0.646 8.06 42.31 10.81
6/11/2022 1:30:00 PM 16.33 61.394 0.646 8.07 36.7 10.93
6/11/2022 1:45:00 PM 16.33 61.394 0.645 8.08 36.64 10.98
6/11/2022 2:00:00 PM 16.35 61.43 0.645 8.08 49.44 11.06
6/11/2022 2:15:00 PM 16.38 61.484 0.644 8.09 49.11 11.2
6/11/2022 2:30:00 PM 16.4 61.52 0.645 8.1 200.1 11.25
6/11/2022 2:45:00 PM 16.42 61.556 0.645 8.11 37.85 11.34
6/11/2022 3:00:00 PM 16.46 61.628 0.645 8.12 37.23 11.44
6/11/2022 3:15:00 PM 16.46 61.628 0.645 8.13 37.25 11.47
6/11/2022 3:30:00 PM 16.49 61.682 0.645 8.14 36.83 11.52
6/11/2022 3:45:00 PM 16.52 61.736 0.644 8.15 36.83 11.61
6/11/2022 4:00:00 PM 16.53 61.754 0.644 8.16 36.18 11.64
6/11/2022 4:15:00 PM 16.57 61.826 0.644 8.17 36.92 11.72
6/11/2022 4:30:00 PM 16.64 61.952 0.644 8.18 37.2 11.79
6/11/2022 4:45:00 PM 16.66 61.988 0.644 8.19 35.68 11.81
6/11/2022 5:00:00 PM 16.66 61.988 0.644 8.19 35.6 11.78
6/11/2022 5:15:00 PM 16.67 62.006 0.644 8.18 38.27 11.73
6/11/2022 5:30:00 PM 16.68 62.024 0.644 8.18 42.52 11.69
6/11/2022 5:45:00 PM 16.65 61.97 0.644 8.18 35.73 11.58
6/11/2022 6:00:00 PM 16.64 61.952 0.645 8.17 35.8 11.47
6/11/2022 6:15:00 PM 16.62 61.916 0.645 8.16 36.28 11.29
6/11/2022 6:30:00 PM 16.59 61.862 0.645 8.15 36.3 11.12
6/11/2022 6:45:00 PM 16.53 61.754 0.645 8.14 36.41 10.94
6/11/2022 7:00:00 PM 16.48 61.664 0.646 8.13 36.76 10.75
6/11/2022 7:15:00 PM 16.42 61.556 0.646 8.11 36.8 10.58
6/11/2022 7:30:00 PM 16.37 61.466 0.646 8.1 36.66 10.41
6/11/2022 7:45:00 PM 16.32 61.376 0.646 8.08 37.86 10.24
6/11/2022 8:00:00 PM 16.28 61.304 0.647 8.07 36.47 10.11
6/11/2022 8:15:00 PM 16.24 61.232 0.647 8.06 38.06 9.98
6/11/2022 8:30:00 PM 16.2 61.16 0.647 8.05 47.27 9.85
6/11/2022 8:45:00 PM 16.17 61.106 0.647 8.03 37.66 9.74
6/11/2022 9:00:00 PM 16.13 61.034 0.647 8.02 42.25 9.62
6/11/2022 9:15:00 PM 16.1 60.98 0.648 8.01 38.89 9.53
6/11/2022 9:30:00 PM 16.06 60.908 0.648 8 43.32 9.42
6/11/2022 9:45:00 PM 16.02 60.836 0.648 7.99 40.93 9.34
6/11/2022 10:00:00 PM 15.97 60.746 0.648 7.98 40.24 9.26
6/11/2022 10:15:00 PM 15.93 60.674 0.648 7.97 41.33 9.19
6/11/2022 10:30:00 PM 15.89 60.602 0.649 7.96 44.83 9.12
6/11/2022 10:45:00 PM 15.84 60.512 0.649 7.96 50.23 9.07
6/11/2022 11:00:00 PM 15.8 60.44 0.649 7.95 55.92 9.03
6/11/2022 11:15:00 PM 15.76 60.368 0.649 7.95 50.54 8.99
6/11/2022 11:30:00 PM 15.72 60.296 0.649 7.94 53.19 8.95
6/11/2022 11:45:00 PM 15.69 60.242 0.649 7.94 43.6 8.89
6/12/2022 12:00:00 AM 15.65 60.17 0.65 7.93 43.64 8.88
6/12/2022 12:15:00 AM 15.61 60.098 0.65 7.93 47.72 8.84
6/12/2022 12:30:00 AM 15.58 60.044 0.65 7.92 43.82 8.81
6/12/2022 12:45:00 AM 15.55 59.99 0.65 7.92 46.1 8.79
6/12/2022 1:00:00 AM 15.52 59.936 0.651 7.92 43.52 8.76
6/12/2022 1:15:00 AM 15.5 59.9 0.651 7.91 42.33 8.73
6/12/2022 1:30:00 AM 15.47 59.846 0.652 7.91 43.25 8.69
6/12/2022 1:45:00 AM 15.45 59.81 0.652 7.91 43.82 8.69
6/12/2022 2:00:00 AM 15.43 59.774 0.652 7.9 43.49 8.66
6/12/2022 2:15:00 AM 15.41 59.738 0.653 7.9 44.63 8.65
6/12/2022 2:30:00 AM 15.4 59.72 0.653 7.9 45.57 8.63
6/12/2022 2:45:00 AM 15.38 59.684 0.653 7.89 46.06 8.62
6/12/2022 3:00:00 AM 15.37 59.666 0.653 7.89 45.85 8.61
6/12/2022 3:15:00 AM 15.36 59.648 0.654 7.89 44.1 8.59
6/12/2022 3:30:00 AM 15.35 59.63 0.654 7.89 44.85 8.59
6/12/2022 3:45:00 AM 15.33 59.594 0.654 7.88 46.39 8.58
6/12/2022 4:00:00 AM 15.32 59.576 0.654 7.88 46.94 8.57
6/12/2022 4:15:00 AM 15.31 59.558 0.655 7.88 46.47 8.58
6/12/2022 4:30:00 AM 15.3 59.54 0.655 7.88 46.81 8.57
6/12/2022 4:45:00 AM 15.29 59.522 0.655 7.87 48.9 8.56
6/12/2022 5:00:00 AM 15.28 59.504 0.655 7.87 47.82 8.56
6/12/2022 5:15:00 AM 15.27 59.486 0.655 7.87 46.71 8.56
6/12/2022 5:30:00 AM 15.26 59.468 0.655 7.87 47.54 8.54
6/12/2022 5:45:00 AM 15.26 59.468 0.656 7.87 50.04 8.53
6/12/2022 6:00:00 AM 15.26 59.468 0.656 7.86 50.65 8.52
6/12/2022 6:15:00 AM 15.25 59.45 0.655 7.86 50.5 8.54
6/12/2022 6:30:00 AM 15.25 59.45 0.655 7.86 52.2 8.53
6/12/2022 6:45:00 AM 15.26 59.468 0.655 7.86 51.88 8.55
6/12/2022 7:00:00 AM 15.26 59.468 0.655 7.86 51.04 8.61
6/12/2022 7:15:00 AM 15.27 59.486 0.655 7.87 51.67 8.69
6/12/2022 7:30:00 AM 15.28 59.504 0.655 7.87 51.62 8.76
6/12/2022 7:45:00 AM 15.28 59.504 0.654 7.88 52.94 8.8
6/12/2022 8:00:00 AM 15.28 59.504 0.653 7.88 53.61 8.83
6/12/2022 8:15:00 AM 15.29 59.522 0.653 7.88 54.8 8.85
6/12/2022 8:30:00 AM 15.29 59.522 0.653 7.88 54.04 8.91
6/12/2022 8:45:00 AM 15.3 59.54 0.652 7.89 54.12 8.96
6/12/2022 9:00:00 AM 15.32 59.576 0.652 7.89 54.75 9.03
6/12/2022 9:15:00 AM 15.35 59.63 0.651 7.9 53.14 9.21
6/12/2022 9:30:00 AM 15.36 59.648 0.651 7.91 54.54 9.32
6/12/2022 9:45:00 AM 15.37 59.666 0.651 7.92 55.48 9.33
6/12/2022 10:00:00 AM 15.38 59.684 0.65 7.92 53.56 9.42
6/12/2022 10:15:00 AM 15.4 59.72 0.65 7.93 56.54 9.5
6/12/2022 10:30:00 AM 15.42 59.756 0.649 7.94 56.92 9.62
6/12/2022 10:45:00 AM 15.45 59.81 0.649 7.95 56.81 9.73
6/12/2022 11:00:00 AM 15.48 59.864 0.649 7.96 56.07 9.88
6/12/2022 11:15:00 AM 15.52 59.936 0.648 7.97 55.21 10.01
6/12/2022 11:30:00 AM 15.55 59.99 0.648 7.98 58.63 10.06
6/12/2022 11:45:00 AM 15.56 60.008 0.647 7.97 58.39 10.07
6/12/2022 12:00:00 PM 15.58 60.044 0.647 7.97 56.25 10.07
6/12/2022 12:15:00 PM 15.61 60.098 0.646 7.98 57.07 10.13
6/12/2022 12:30:00 PM 15.66 60.188 0.645 7.98 57.59 10.29
6/12/2022 12:45:00 PM 15.73 60.314 0.644 8 56.79 10.46
6/12/2022 1:00:00 PM 15.81 60.458 0.643 8.02 57.34 10.69
6/12/2022 1:15:00 PM 15.89 60.602 0.641 8.04 56.7 10.86
6/12/2022 1:30:00 PM 15.96 60.728 0.641 8.05 57.08 11.01
6/12/2022 1:45:00 PM 16.01 60.818 0.64 8.06 56.98 11.09
6/12/2022 2:00:00 PM 16.13 61.034 0.64 8.08 56.96 11.25
6/12/2022 2:15:00 PM 16.29 61.322 0.641 8.1 59.8 11.51
6/12/2022 2:30:00 PM 16.35 61.43 0.642 8.12 60.67 11.61
6/12/2022 2:45:00 PM 16.45 61.61 0.643 8.13 67.5 11.69
6/12/2022 3:00:00 PM 16.47 61.646 0.644 8.14 55.32 11.68
6/12/2022 3:15:00 PM 16.43 61.574 0.644 8.13 57.61 11.57
6/12/2022 3:30:00 PM 16.42 61.556 0.645 8.13 56.3 11.48
6/12/2022 3:45:00 PM 16.41 61.538 0.645 8.12 57.45 11.37
6/12/2022 4:00:00 PM 16.41 61.538 0.645 8.12 56.81 11.29
6/12/2022 4:15:00 PM 16.38 61.484 0.644 8.11 58.68 11.17
6/12/2022 4:30:00 PM 16.39 61.502 0.644 8.1 58.45 11.11
6/12/2022 4:45:00 PM 16.44 61.592 0.644 8.11 58.38 11.19
6/12/2022 5:00:00 PM 16.41 61.538 0.644 8.1 55.69 10.96
6/12/2022 5:15:00 PM 16.37 61.466 0.643 8.08 53.05 10.74
6/12/2022 5:30:00 PM 16.37 61.466 0.642 8.07 54.11 10.6
6/12/2022 5:45:00 PM 16.38 61.484 0.638 8.06 84.33 10.36
6/12/2022 6:00:00 PM 16.37 61.466 0.636 8.04 54.51 10.23
6/12/2022 6:15:00 PM 16.35 61.43 0.636 8.03 55.16 10.09
6/12/2022 6:30:00 PM 16.35 61.43 0.635 8.02 55.41 9.99
6/12/2022 6:45:00 PM 16.34 61.412 0.636 8.02 67.71 9.93
6/12/2022 7:00:00 PM 16.32 61.376 0.637 8.01 60.82 9.83
6/12/2022 7:15:00 PM 16.32 61.376 0.637 8 61.33 9.78
6/12/2022 7:30:00 PM 16.32 61.376 0.637 8 164.1 9.78
6/12/2022 7:45:00 PM 16.32 61.376 0.619 7.99 63.12 9.74
6/12/2022 8:00:00 PM 16.32 61.376 0.635 7.99 63 9.64
6/12/2022 8:15:00 PM 16.32 61.376 0.634 7.98 64.76 9.54
6/12/2022 8:30:00 PM 16.32 61.376 0.632 7.98 62.51 9.45
6/12/2022 8:45:00 PM 16.31 61.358 0.629 7.98 62.59 9.33
6/12/2022 9:00:00 PM 16.29 61.322 0.626 7.97 64.66 9.2
6/12/2022 9:15:00 PM 16.27 61.286 0.623 7.95 65.11 9.1
6/12/2022 9:30:00 PM 16.26 61.268 0.619 7.93 69.11 9.02
6/12/2022 9:45:00 PM 16.25 61.25 0.615 7.91 67.5 8.93
6/12/2022 10:00:00 PM 16.25 61.25 0.612 7.9 67.9 8.86
6/12/2022 10:15:00 PM 16.25 61.25 0.609 7.88 74.75 8.78
6/12/2022 10:30:00 PM 16.25 61.25 0.607 7.86 73.3 8.72
6/12/2022 10:45:00 PM 16.25 61.25 0.605 7.85 73.8 8.66
6/12/2022 11:00:00 PM 16.27 61.286 0.603 7.84 74.34 8.59
6/12/2022 11:15:00 PM 16.3 61.34 0.598 7.83 77.13 8.52
6/12/2022 11:30:00 PM 16.37 61.466 0.59 7.82 78.92 8.41
6/12/2022 11:45:00 PM 16.47 61.646 0.58 7.81 101.5 8.33
6/13/2022 12:00:00 AM 16.57 61.826 0.571 7.79 81.8 8.22
6/13/2022 12:15:00 AM 16.62 61.916 0.567 7.77 84.74 8.14
6/13/2022 12:30:00 AM 16.6 61.88 0.571 7.76 88.77 8.09
6/13/2022 12:45:00 AM 16.54 61.772 0.58 7.75 94.92 8.09
6/13/2022 1:00:00 AM 16.47 61.646 0.59 7.74 91.16 8.1
6/13/2022 1:15:00 AM 16.43 61.574 0.597 7.74 91.3 8.1
6/13/2022 1:30:00 AM 16.45 61.61 0.601 7.74 96.89 8.08
6/13/2022 1:45:00 AM 16.49 61.682 0.604 7.74 97.95 8.05
6/13/2022 2:00:00 AM 16.55 61.79 0.604 7.75 102.3 8.03
6/13/2022 2:15:00 AM 16.61 61.898 0.604 7.74 94.53 8.01
6/13/2022 2:30:00 AM 16.68 62.024 0.602 7.75 95.73 7.96
6/13/2022 2:45:00 AM 16.75 62.15 0.602 7.75 96.38 7.94
6/13/2022 3:00:00 AM 16.81 62.258 0.604 7.75 96.79 7.93
6/13/2022 3:15:00 AM 16.85 62.33 0.607 7.75 101.7 7.9
6/13/2022 3:30:00 AM 16.88 62.384 0.609 7.75 105.1 7.9
6/13/2022 3:45:00 AM 16.91 62.438 0.609 7.75 90.87 7.87
6/13/2022 4:00:00 AM 16.94 62.492 0.606 7.75 88.61 7.85
6/13/2022 4:15:00 AM 16.97 62.546 0.599 7.74 86.65 7.82
6/13/2022 4:30:00 AM 17.01 62.618 0.588 7.74 84.97 7.77
6/13/2022 4:45:00 AM 17.05 62.69 0.575 7.73 85.16 7.72
6/13/2022 5:00:00 AM 17.09 62.762 0.56 7.72 87.14 7.66
6/13/2022 5:15:00 AM 17.14 62.852 0.544 7.71 85.33 7.62
6/13/2022 5:30:00 AM 17.18 62.924 0.53 7.7 84.79 7.58
6/13/2022 5:45:00 AM 17.21 62.978 0.519 7.69 100.7 7.57
6/13/2022 6:00:00 AM 17.24 63.032 0.512 7.68 84.2 7.59
6/13/2022 6:15:00 AM 17.29 63.122 0.509 7.67 85.55 7.6
6/13/2022 6:30:00 AM 17.33 63.194 0.509 7.67 79.51 7.61
6/13/2022 6:45:00 AM 17.37 63.266 0.509 7.66 81.35 7.65
6/13/2022 7:00:00 AM 17.39 63.302 0.509 7.67 100.4 7.72
6/13/2022 7:15:00 AM 17.39 63.302 0.509 7.67 155.9 7.77
6/13/2022 7:30:00 AM 17.39 63.302 0.511 7.67 82.27 7.84
6/13/2022 7:45:00 AM 17.39 63.302 0.513 7.67 89.9 7.92
6/13/2022 8:00:00 AM 17.38 63.284 0.515 7.68 87.65 8.02
6/13/2022 8:15:00 AM 17.37 63.266 0.517 7.68 89.73 8.12
6/13/2022 8:30:00 AM 17.36 63.248 0.518 7.69 85.4 8.22
6/13/2022 8:45:00 AM 17.36 63.248 0.518 7.7 84.64 8.36
6/13/2022 9:00:00 AM 17.36 63.248 0.519 7.72 90.66 8.61
6/13/2022 9:15:00 AM 17.37 63.266 0.521 7.74 96.41 8.82
6/13/2022 9:30:00 AM 17.41 63.338 0.524 7.75 77.49 9.08
6/13/2022 9:45:00 AM 17.42 63.356 0.527 7.78 200.1 9.29
6/13/2022 10:00:00 AM 17.45 63.41 0.532 7.79 77.23 9.41
6/13/2022 10:15:00 AM 17.53 63.554 0.536 7.81 82.7 9.64
6/13/2022 10:30:00 AM 17.62 63.716 0.539 7.84 83.85 9.84
6/13/2022 10:45:00 AM 17.7 63.86 0.542 7.86 77.63 10.06
6/13/2022 11:00:00 AM 17.8 64.04 0.545 7.88 88.21 10.27
6/13/2022 11:15:00 AM 17.91 64.238 0.548 7.91 86.72 10.46
6/13/2022 11:30:00 AM 17.98 64.364 0.55 7.92 78.11 10.57
6/13/2022 11:45:00 AM 18.07 64.526 0.552 7.94 75.8 10.72
6/13/2022 12:00:00 PM 18.1 64.58 0.554 7.95 78.71 10.77
6/13/2022 12:15:00 PM 18.15 64.67 0.555 7.96 102.7 10.87
6/13/2022 12:30:00 PM 18.25 64.85 0.557 7.98 74.57 10.96
6/13/2022 12:45:00 PM 18.39 65.102 0.558 8 68.43 11.14
6/13/2022 1:00:00 PM 18.51 65.318 0.56 8.02 70.96 11.28
6/13/2022 1:15:00 PM 18.63 65.534 0.561 8.04 76.24 11.38
6/13/2022 1:30:00 PM 18.75 65.75 0.563 8.05 72.64 11.49
6/13/2022 1:45:00 PM 18.84 65.912 0.565 8.07 69.19 11.58
6/13/2022 2:00:00 PM 18.91 66.038 0.568 8.08 74.68 11.63
6/13/2022 2:15:00 PM 18.97 66.146 0.57 8.09 68.15 11.65
6/13/2022 2:30:00 PM 19.03 66.254 0.573 8.1 67.3 11.7
6/13/2022 2:45:00 PM 19.05 66.29 0.576 8.11 68.04 11.7
6/13/2022 3:00:00 PM 19.07 66.326 0.579 8.12 71.57 11.71
6/13/2022 3:15:00 PM 19.09 66.362 0.582 8.11 80.88 11.69
6/13/2022 3:30:00 PM 19.15 66.47 0.585 8.12 95.37 11.7
6/13/2022 3:45:00 PM 19.2 66.56 0.587 8.13 69.29 11.68
6/13/2022 4:00:00 PM 19.21 66.578 0.59 8.13 116.3 11.62
6/13/2022 4:15:00 PM 19.2 66.56 0.592 8.13 68.29 11.56
6/13/2022 4:30:00 PM 19.2 66.56 0.594 8.13 63.36 11.46
6/13/2022 4:45:00 PM 19.19 66.542 0.596 8.12 75.9 11.37
6/13/2022 5:00:00 PM 19.16 66.488 0.598 8.12 88.31 11.23
6/13/2022 5:15:00 PM 19.14 66.452 0.6 8.11 68.82 11.11
6/13/2022 5:30:00 PM 19.12 66.416 0.602 8.11 88.61 11
6/13/2022 5:45:00 PM 19.1 66.38 0.605 8.1 72.23 10.87
6/13/2022 6:00:00 PM 19.08 66.344 0.606 8.09 77.73 10.67
6/13/2022 6:15:00 PM 19.05 66.29 0.608 8.08 66.19 10.54
6/13/2022 6:30:00 PM 19.01 66.218 0.61 8.07 71.89 10.37
6/13/2022 6:45:00 PM 18.97 66.146 0.612 8.06 64.56 10.2
6/13/2022 7:00:00 PM 18.91 66.038 0.613 8.04 66.31 10.02
6/13/2022 7:15:00 PM 18.86 65.948 0.614 8.03 63.48 9.83
6/13/2022 7:30:00 PM 18.81 65.858 0.615 8.01 62.23 9.66
6/13/2022 7:45:00 PM 18.76 65.768 0.616 8 64.69 9.51
6/13/2022 8:00:00 PM 18.71 65.67799 0.617 7.98 64.86 9.35
6/13/2022 8:15:00 PM 18.67 65.606 0.618 7.96 65.05 9.2
6/13/2022 8:30:00 PM 18.63 65.534 0.619 7.95 65.53 9.05
6/13/2022 8:45:00 PM 18.59 65.462 0.62 7.94 66.18 8.9
6/13/2022 9:00:00 PM 18.55 65.39 0.621 7.93 59.05 8.78
6/13/2022 9:15:00 PM 18.51 65.318 0.622 7.91 59.25 8.67
6/13/2022 9:30:00 PM 18.46 65.228 0.623 7.9 59.93 8.56
6/13/2022 9:45:00 PM 18.42 65.156 0.624 7.89 59.37 8.48
6/13/2022 10:00:00 PM 18.38 65.084 0.625 7.88 60.18 8.42
6/13/2022 10:15:00 PM 18.34 65.012 0.626 7.86 60.62 8.34
6/13/2022 10:30:00 PM 18.3 64.94 0.627 7.86 57.69 8.28
6/13/2022 10:45:00 PM 18.26 64.868 0.628 7.85 58.15 8.24
6/13/2022 11:00:00 PM 18.22 64.796 0.629 7.84 57.12 8.17
6/13/2022 11:15:00 PM 18.18 64.724 0.63 7.84 60.36 8.11
6/13/2022 11:30:00 PM 18.14 64.652 0.631 7.83 57.5 8.08
6/13/2022 11:45:00 PM 18.11 64.598 0.632 7.82 59.07 8.05
6/14/2022 12:00:00 AM 18.07 64.526 0.633 7.82 57.23 8.02
6/14/2022 12:15:00 AM 18.03 64.454 0.634 7.82 57.31 7.98
6/14/2022 12:30:00 AM 17.99 64.382 0.635 7.81 58.9 7.96
6/14/2022 12:45:00 AM 17.95 64.31 0.636 7.81 59.92 7.93
6/14/2022 1:00:00 AM 17.91 64.238 0.636 7.8 60.02 7.9
6/14/2022 1:15:00 AM 17.88 64.184 0.637 7.8 61.29 7.89
6/14/2022 1:30:00 AM 17.84 64.112 0.637 7.79 60.18 7.87
6/14/2022 1:45:00 AM 17.81 64.058 0.638 7.79 60.96 7.84
6/14/2022 2:00:00 AM 17.79 64.022 0.638 7.79 61.08 7.84
6/14/2022 2:15:00 AM 17.76 63.968 0.638 7.79 60.57 7.82
6/14/2022 2:30:00 AM 17.74 63.932 0.638 7.78 61.13 7.82
6/14/2022 2:45:00 AM 17.71 63.878 0.639 7.78 61.14 7.81
6/14/2022 3:00:00 AM 17.69 63.842 0.639 7.78 62.77 7.8
6/14/2022 3:15:00 AM 17.67 63.806 0.639 7.78 61.69 7.8
6/14/2022 3:30:00 AM 17.65 63.77 0.639 7.78 62.48 7.79
6/14/2022 3:45:00 AM 17.62 63.716 0.639 7.78 62.98 7.79
6/14/2022 4:00:00 AM 17.6 63.68 0.622 7.77 63.95 7.79
6/14/2022 4:15:00 AM 17.57 63.626 0.638 7.77 66.38 7.78
6/14/2022 4:30:00 AM 17.55 63.59 0.618 7.77 65.49 7.77
6/14/2022 4:45:00 AM 17.53 63.554 0.63 7.77 65.8 7.78
6/14/2022 5:00:00 AM 17.52 63.536 0.618 7.77 66.67 7.77
6/14/2022 5:15:00 AM 17.5 63.5 0.616 7.77 68.07 7.78
6/14/2022 5:30:00 AM 17.49 63.482 0.64 7.77 67.62 7.76
6/14/2022 5:45:00 AM 17.47 63.446 0.639 7.77 66.09 7.76
6/14/2022 6:00:00 AM 17.46 63.428 0.64 7.77 66.25 7.76
6/14/2022 6:15:00 AM 17.45 63.41 0.638 7.77 66.8 7.77
6/14/2022 6:30:00 AM 17.44 63.392 0.639 7.77 67.92 7.78
6/14/2022 6:45:00 AM 17.43 63.374 0.641 7.77 67.6 7.79
6/14/2022 7:00:00 AM 17.42 63.356 0.638 7.77 67.04 7.81
6/14/2022 7:15:00 AM 17.41 63.338 0.638 7.77 66.65 7.83
6/14/2022 7:30:00 AM 17.4 63.32 0.639 7.77 67.85 7.86
6/14/2022 7:45:00 AM 17.39 63.302 0.638 7.78 68.51 7.89
6/14/2022 8:00:00 AM 17.37 63.266 0.639 7.79 69.28 7.94
6/14/2022 8:15:00 AM 17.37 63.266 0.631 7.79 71.74 8.01
6/14/2022 8:30:00 AM 17.36 63.248 0.603 7.8 202.6 8.1
6/14/2022 8:45:00 AM 17.36 63.248 0.611 7.81 139.2 8.23
6/14/2022 9:00:00 AM 17.37 63.266 0.607 7.82 188.1 8.41
6/14/2022 9:15:00 AM 17.38 63.284 0.617 7.84 97.44 8.56
6/14/2022 9:30:00 AM 17.38 63.284 0.632 7.85 222.6 8.62
6/14/2022 9:45:00 AM 17.38 63.284 0.616 7.86 88.36 8.71
6/14/2022 10:00:00 AM 17.38 63.284 0.606 7.86 354.4 8.83
6/14/2022 10:15:00 AM 17.38 63.284 0.621 7.87 127.1 8.89
6/14/2022 10:30:00 AM 17.4 63.32 0.635 7.88 293.4 9.04
6/14/2022 10:45:00 AM 17.42 63.356 0.638 7.9 206.2 9.21
6/14/2022 11:00:00 AM 17.43 63.374 0.638 7.91 143.3 9.33
6/14/2022 11:15:00 AM 17.45 63.41 0.639 7.92 70.44 9.5
6/14/2022 11:30:00 AM 17.58 63.644 0.639 7.94 69.39 9.74
6/14/2022 11:45:00 AM 17.74 63.932 0.639 7.98 69.47 10.15
6/14/2022 12:00:00 PM 17.86 64.148 0.64 8.02 89.09 10.47
6/14/2022 12:15:00 PM 17.93 64.274 0.642 8.04 78.76 10.69
6/14/2022 12:30:00 PM 17.98 64.364 0.643 8.06 75.62 10.84
6/14/2022 12:45:00 PM 18.05 64.49 0.643 8.08 94.63 10.97
6/14/2022 1:00:00 PM 18.16 64.688 0.644 8.1 86.87 11.14
6/14/2022 1:15:00 PM 18.29 64.922 0.644 8.12 69.19 11.3
6/14/2022 1:30:00 PM 18.41 65.138 0.644 8.14 75.7 11.44
6/14/2022 1:45:00 PM 18.52 65.336 0.644 8.15 70.03 11.54
6/14/2022 2:00:00 PM 18.63 65.534 0.644 8.17 90.92 11.65
6/14/2022 2:15:00 PM 18.73 65.714 0.644 8.18 70.24 11.75
6/14/2022 2:30:00 PM 18.79 65.82201 0.644 8.19 69.79 11.82
6/14/2022 2:45:00 PM 18.84 65.912 0.644 8.2 70.52 11.91
6/14/2022 3:00:00 PM 18.78 65.804 0.644 8.2 78.1 11.8
6/14/2022 3:15:00 PM 18.73 65.714 0.644 8.19 68.33 11.66
6/14/2022 3:30:00 PM 18.82 65.876 0.644 8.2 68.2 11.8
6/14/2022 3:45:00 PM 18.85 65.93 0.644 8.21 76.28 11.82
6/14/2022 4:00:00 PM 18.83 65.894 0.644 8.21 79.19 11.76
6/14/2022 4:15:00 PM 18.86 65.948 0.644 8.22 68.47 11.76
6/14/2022 4:30:00 PM 18.87 65.966 0.644 8.22 65.2 11.73
6/14/2022 4:45:00 PM 18.86 65.948 0.644 8.22 85.57 11.66
6/14/2022 5:00:00 PM 18.83 65.894 0.644 8.21 87.35 11.54
6/14/2022 5:15:00 PM 18.79 65.82201 0.644 8.2 85.73 11.4
6/14/2022 5:30:00 PM 18.74 65.732 0.646 8.19 102 11.23
6/14/2022 5:45:00 PM 18.68 65.624 0.646 8.18 83.4 11.02
6/14/2022 6:00:00 PM 18.63 65.534 0.645 8.16 75.87 10.8
6/14/2022 6:15:00 PM 18.59 65.462 0.645 8.14 71.18 10.65
6/14/2022 6:30:00 PM 18.55 65.39 0.644 8.13 78.9 10.52
6/14/2022 6:45:00 PM 18.5 65.3 0.644 8.11 83.21 10.38
6/14/2022 7:00:00 PM 18.45 65.21 0.644 8.09 65.35 10.24
6/14/2022 7:15:00 PM 18.4 65.12 0.644 8.08 69.68 10.09
6/14/2022 7:30:00 PM 18.35 65.03 0.644 8.06 79.85 9.92
6/14/2022 7:45:00 PM 18.3 64.94 0.644 8.05 72.7 9.76
6/14/2022 8:00:00 PM 18.26 64.868 0.645 8.04 71.66 9.61
6/14/2022 8:15:00 PM 18.22 64.796 0.645 8.02 81.81 9.47
6/14/2022 8:30:00 PM 18.18 64.724 0.645 8.01 106.8 9.33
6/14/2022 8:45:00 PM 18.14 64.652 0.645 8 72.89 9.19
6/14/2022 9:00:00 PM 18.1 64.58 0.645 7.99 76.59 9.08
6/14/2022 9:15:00 PM 18.05 64.49 0.645 7.97 85.29 8.96
6/14/2022 9:30:00 PM 18 64.4 0.646 7.96 74.86 8.85
6/14/2022 9:45:00 PM 17.95 64.31 0.647 7.95 99.05 8.75
6/14/2022 10:00:00 PM 17.9 64.22 0.641 7.94 79.24 8.67
6/14/2022 10:15:00 PM 17.85 64.13 0.645 7.93 104.1 8.6
6/14/2022 10:30:00 PM 17.81 64.058 0.558 7.92 82.57 8.54
6/14/2022 10:45:00 PM 17.77 63.986 0.602 7.91 94.59 8.49
6/14/2022 11:00:00 PM 17.73 63.914 0.589 7.91 89.46 8.44
6/14/2022 11:15:00 PM 17.69 63.842 0.65 7.9 109.2 8.39
6/14/2022 11:30:00 PM 17.65 63.77 0.629 7.89 94.31 8.35
6/14/2022 11:45:00 PM 17.61 63.698 0.651 7.89 84.48 8.32
6/15/2022 12:00:00 AM 17.57 63.626 0.651 7.88 89.4 8.28
6/15/2022 12:15:00 AM 17.54 63.572 0.651 7.88 78.92 8.25
6/15/2022 12:30:00 AM 17.49 63.482 0.652 7.87 74.36 8.21
6/15/2022 12:45:00 AM 17.45 63.41 0.652 7.87 81.53 8.19
6/15/2022 1:00:00 AM 17.41 63.338 0.652 7.86 81.89 8.17
6/15/2022 1:15:00 AM 17.37 63.266 0.651 7.86 78.18 8.15
6/15/2022 1:30:00 AM 17.33 63.194 0.652 7.86 73.39 8.14
6/15/2022 1:45:00 AM 17.29 63.122 0.652 7.85 98.64 8.13
6/15/2022 2:00:00 AM 17.25 63.05 0.651 7.85 72.05 8.11
6/15/2022 2:15:00 AM 17.22 62.996 0.652 7.85 73.64 8.09
6/15/2022 2:30:00 AM 17.18 62.924 0.65 7.85 166.6 8.09
6/15/2022 2:45:00 AM 17.14 62.852 0.652 7.84 256.5 8.07
6/15/2022 3:00:00 AM 17.1 62.78 0.651 7.84 179.2 8.08
6/15/2022 3:15:00 AM 17.06 62.708 0.651 7.84 104.2 8.07
6/15/2022 3:30:00 AM 17.03 62.654 0.651 7.84 196.6 8.07
6/15/2022 3:45:00 AM 16.99 62.582 0.651 7.84 221 8.06
6/15/2022 4:00:00 AM 16.95 62.51 0.65 7.83 164 8.06
6/15/2022 4:15:00 AM 16.92 62.456 0.65 7.83 133.8 8.07
6/15/2022 4:30:00 AM 16.88 62.384 0.65 7.83 106.4 8.06
6/15/2022 4:45:00 AM 16.85 62.33 0.65 7.83 153.7 8.07
6/15/2022 5:00:00 AM 16.81 62.258 0.65 7.83 177.2 8.07
6/15/2022 5:15:00 AM 16.79 62.222 0.65 7.83 109.2 8.07
6/15/2022 5:30:00 AM 16.76 62.168 0.65 7.82 165.8 8.06
6/15/2022 5:45:00 AM 16.73 62.114 0.649 7.82 152.9 8.08
6/15/2022 6:00:00 AM 16.7 62.06 0.649 7.82 95.19 8.08
6/15/2022 6:15:00 AM 16.68 62.024 0.648 7.82 158.7 8.09
6/15/2022 6:30:00 AM 16.66 61.988 0.649 7.82 94.93 8.12
6/15/2022 6:45:00 AM 16.65 61.97 0.649 7.83 134.2 8.17
6/15/2022 7:00:00 AM 16.65 61.97 0.649 7.83 123.5 8.23
6/15/2022 7:15:00 AM 16.66 61.988 0.647 7.84 87.23 8.33
6/15/2022 7:30:00 AM 16.67 62.006 0.647 7.84 199.4 8.44
6/15/2022 7:45:00 AM 16.7 62.06 0.646 7.85 71.57 8.57
6/15/2022 8:00:00 AM 16.73 62.114 0.646 7.86 79.1 8.72
6/15/2022 8:15:00 AM 16.79 62.222 0.646 7.88 62.18 8.91
6/15/2022 8:30:00 AM 16.85 62.33 0.645 7.89 62.2 9.1
6/15/2022 8:45:00 AM 16.91 62.438 0.646 7.91 69.1 9.27
6/15/2022 9:00:00 AM 16.99 62.582 0.646 7.93 61.32 9.46
6/15/2022 9:15:00 AM 17.06 62.708 0.647 7.94 62.05 9.62
6/15/2022 9:30:00 AM 17.14 62.852 0.648 7.96 65.94 9.79
6/15/2022 9:45:00 AM 17.23 63.014 0.648 7.98 60.97 9.93
6/15/2022 10:00:00 AM 17.32 63.176 0.649 7.99 66.12 10.07
6/15/2022 10:15:00 AM 17.42 63.356 0.649 8.01 115.1 10.24
6/15/2022 10:30:00 AM 17.54 63.572 0.649 8.02 61.81 10.39
6/15/2022 10:45:00 AM 17.67 63.806 0.648 8.04 66.09 10.56
6/15/2022 11:00:00 AM 17.82 64.076 0.647 8.06 62.98 10.73
6/15/2022 11:15:00 AM 17.96 64.328 0.647 8.08 80.76 10.9
6/15/2022 11:30:00 AM 18.09 64.562 0.646 8.1 82.12 11.08
6/15/2022 11:45:00 AM 18.2 64.76 0.646 8.11 62.7 11.21
6/15/2022 12:00:00 PM 18.32 64.976 0.646 8.13 112.1 11.34
6/15/2022 12:15:00 PM 18.42 65.156 0.646 8.14 107.9 11.43
6/15/2022 12:30:00 PM 18.54 65.372 0.646 8.15 190.9 11.53
6/15/2022 12:45:00 PM 18.67 65.606 0.646 8.16 65.42 11.65
6/15/2022 1:00:00 PM 18.78 65.804 0.645 8.17 69.43 11.79
6/15/2022 1:15:00 PM 18.88 65.984 0.644 8.18 52.81 11.86
6/15/2022 1:30:00 PM 18.97 66.146 0.644 8.19 56.45 11.95
6/15/2022 1:45:00 PM 19.06 66.308 0.644 8.2 59.33 12.03
6/15/2022 2:00:00 PM 19.13 66.434 0.643 8.21 58.92 12.09
6/15/2022 2:15:00 PM 19.21 66.578 0.643 8.22 59.92 12.12
6/15/2022 2:30:00 PM 19.27 66.686 0.643 8.23 58.07 12.15
6/15/2022 2:45:00 PM 19.28 66.704 0.643 8.23 56.24 12.16
6/15/2022 3:00:00 PM 19.29 66.722 0.643 8.23 56.4 12.16
6/15/2022 3:15:00 PM 19.29 66.722 0.643 8.23 61.24 12.14
6/15/2022 3:30:00 PM 19.31 66.758 0.643 8.23 66.82 12.09
6/15/2022 3:45:00 PM 19.3 66.74 0.643 8.23 60.65 12.04
6/15/2022 4:00:00 PM 19.26 66.668 0.643 8.23 64.83 11.98
6/15/2022 4:15:00 PM 19.21 66.578 0.644 8.22 70.6 11.87
6/15/2022 4:30:00 PM 19.18 66.524 0.644 8.21 51.99 11.76
6/15/2022 4:45:00 PM 19.18 66.524 0.644 8.21 51.13 11.67
6/15/2022 5:00:00 PM 19.13 66.434 0.644 8.2 68.02 11.54
6/15/2022 5:15:00 PM 19.12 66.416 0.644 8.2 64.97 11.43
6/15/2022 5:30:00 PM 19.12 66.416 0.644 8.19 51.17 11.31
6/15/2022 5:45:00 PM 19.1 66.38 0.642 8.18 53.37 11.16
6/15/2022 6:00:00 PM 19.09 66.362 0.643 8.17 72.54 11.01
6/15/2022 6:15:00 PM 19.09 66.362 0.644 8.16 58.28 10.87
6/15/2022 6:30:00 PM 19.06 66.308 0.644 8.14 61.64 10.67
6/15/2022 6:45:00 PM 19.04 66.272 0.644 8.13 55.22 10.51
6/15/2022 7:00:00 PM 19.02 66.236 0.643 8.12 59.05 10.34
6/15/2022 7:15:00 PM 19 66.2 0.644 8.1 55.25 10.17
6/15/2022 7:30:00 PM 18.97 66.146 0.644 8.09 55.24 10
6/15/2022 7:45:00 PM 18.93 66.074 0.644 8.07 54.13 9.83
6/15/2022 8:00:00 PM 18.9 66.02 0.644 8.05 56.24 9.64
6/15/2022 8:15:00 PM 18.86 65.948 0.644 8.04 54.53 9.51
6/15/2022 8:30:00 PM 18.82 65.876 0.644 8.03 52.44 9.35
6/15/2022 8:45:00 PM 18.79 65.82201 0.644 8.01 54.91 9.19
6/15/2022 9:00:00 PM 18.76 65.768 0.644 8 54.58 9.05
6/15/2022 9:15:00 PM 18.72 65.696 0.645 7.98 59.07 8.93
6/15/2022 9:30:00 PM 18.69 65.642 0.645 7.97 55.57 8.8
6/15/2022 9:45:00 PM 18.65 65.57 0.645 7.96 56 8.7
6/15/2022 10:00:00 PM 18.62 65.516 0.645 7.95 54.59 8.61
6/15/2022 10:15:00 PM 18.59 65.462 0.594 7.94 58.29 8.54
6/15/2022 10:30:00 PM 18.55 65.39 0.646 7.93 56.53 8.46
6/15/2022 10:45:00 PM 18.52 65.336 0.646 7.92 60.77 8.39
6/15/2022 11:00:00 PM 18.48 65.264 0.647 7.91 59.49 8.33
6/15/2022 11:15:00 PM 18.44 65.192 0.647 7.91 59.87 8.29
6/15/2022 11:30:00 PM 18.41 65.138 0.647 7.9 70.38 8.24
6/15/2022 11:45:00 PM 18.38 65.084 0.648 7.9 59.14 8.19
6/16/2022 12:00:00 AM 18.36 65.048 0.617 7.89 55.84 8.15
6/16/2022 12:15:00 AM 18.34 65.012 0.648 7.88 56.65 8.11
6/16/2022 12:30:00 AM 18.31 64.958 0.648 7.88 71.3 8.07
6/16/2022 12:45:00 AM 18.28 64.904 0.624 7.87 60.75 8.04
6/16/2022 1:00:00 AM 18.25 64.85 0.648 7.87 60.36 8.01
6/16/2022 1:15:00 AM 18.21 64.778 0.649 7.86 58.07 7.99
6/16/2022 1:30:00 AM 18.18 64.724 0.649 7.86 61.29 7.97
6/16/2022 1:45:00 AM 18.14 64.652 0.649 7.85 56.92 7.95
6/16/2022 2:00:00 AM 18.11 64.598 0.649 7.85 55.56 7.93
6/16/2022 2:15:00 AM 18.08 64.544 0.649 7.85 56.64 7.92
6/16/2022 2:30:00 AM 18.05 64.49 0.65 7.85 68.01 7.9
6/16/2022 2:45:00 AM 18.03 64.454 0.649 7.84 74.77 7.88
6/16/2022 3:00:00 AM 18 64.4 0.65 7.84 57.62 7.87
6/16/2022 3:15:00 AM 17.98 64.364 0.649 7.84 56.42 7.86
6/16/2022 3:30:00 AM 17.96 64.328 0.649 7.84 52.9 7.85
6/16/2022 3:45:00 AM 17.93 64.274 0.65 7.84 57.39 7.85
6/16/2022 4:00:00 AM 17.91 64.238 0.65 7.83 56.71 7.85
6/16/2022 4:15:00 AM 17.89 64.202 0.65 7.83 57.26 7.83
6/16/2022 4:30:00 AM 17.87 64.166 0.651 7.83 57.45 7.84
6/16/2022 4:45:00 AM 17.85 64.13 0.65 7.83 56.63 7.84
6/16/2022 5:00:00 AM 17.83 64.094 0.651 7.83 57.79 7.83
6/16/2022 5:15:00 AM 17.81 64.058 0.651 7.82 58.96 7.83
6/16/2022 5:30:00 AM 17.79 64.022 0.651 7.82 58.97 7.83
6/16/2022 5:45:00 AM 17.78 64.004 0.651 7.82 58.78 7.83
6/16/2022 6:00:00 AM 17.77 63.986 0.651 7.82 60.15 7.82
6/16/2022 6:15:00 AM 17.75 63.95 0.651 7.82 61.91 7.82
6/16/2022 6:30:00 AM 17.73 63.914 0.651 7.82 86.71 7.82
6/16/2022 6:45:00 AM 17.72 63.896 0.651 7.82 94.75 7.84
6/16/2022 7:00:00 AM 17.7 63.86 0.65 7.83 65.06 7.89
6/16/2022 7:15:00 AM 17.69 63.842 0.65 7.83 60.13 7.93
6/16/2022 7:30:00 AM 17.68 63.824 0.65 7.83 60.68 7.98
6/16/2022 7:45:00 AM 17.68 63.824 0.65 7.84 65.84 8.04
6/16/2022 8:00:00 AM 17.67 63.806 0.643 7.85 59.29 8.17
6/16/2022 8:15:00 AM 17.67 63.806 0.642 7.85 59.17 8.24
6/16/2022 8:30:00 AM 17.66 63.788 0.643 7.86 57.97 8.3
6/16/2022 8:45:00 AM 17.65 63.77 0.642 7.86 63.85 8.32
6/16/2022 9:00:00 AM 17.64 63.752 0.642 7.86 59 8.34
6/16/2022 9:15:00 AM 17.63 63.734 0.643 7.87 59.28 8.35
6/16/2022 9:30:00 AM 17.61 63.698 0.642 7.87 75.13 8.4
6/16/2022 9:45:00 AM 17.61 63.698 0.641 7.87 59.51 8.47
6/16/2022 10:00:00 AM 17.61 63.698 0.641 7.88 59.07 8.61
6/16/2022 10:15:00 AM 17.62 63.716 0.64 7.89 65.1 8.71
6/16/2022 10:30:00 AM 17.63 63.734 0.641 7.9 59.1 8.85
6/16/2022 10:45:00 AM 17.65 63.77 0.641 7.92 60.1 9.01
6/16/2022 11:00:00 AM 17.65 63.77 0.641 7.93 57.22 9.11
6/16/2022 11:15:00 AM 17.66 63.788 0.641 7.93 57.29 9.19
6/16/2022 11:30:00 AM 17.66 63.788 0.641 7.94 57.29 9.3
6/16/2022 11:45:00 AM 17.65 63.77 0.641 7.95 57.41 9.38
6/16/2022 12:00:00 PM 17.66 63.788 0.641 7.95 57.82 9.47
6/16/2022 12:15:00 PM 17.7 63.86 0.641 7.97 57.13 9.65
6/16/2022 12:30:00 PM 17.74 63.932 0.642 7.99 55.64 9.89
6/16/2022 12:45:00 PM 17.77 63.986 0.641 8 57.5 10.03
6/16/2022 1:00:00 PM 17.8 64.04 0.642 8.01 58.05 10.16
6/16/2022 1:15:00 PM 17.83 64.094 0.641 8.03 55.59 10.25
6/16/2022 1:30:00 PM 17.87 64.166 0.64 8.04 58.73 10.37
6/16/2022 1:45:00 PM 17.91 64.238 0.64 8.05 55.71 10.5
6/16/2022 2:00:00 PM 17.93 64.274 0.638 8.06 54.56 10.53
6/16/2022 2:15:00 PM 17.95 64.31 0.634 8.07 54.52 10.53
6/16/2022 2:30:00 PM 17.96 64.328 0.629 8.06 56.77 10.4
6/16/2022 2:45:00 PM 17.96 64.328 0.623 8.04 56.5 10.18
6/16/2022 3:00:00 PM 17.97 64.346 0.617 8.03 58.13 10.09
6/16/2022 3:15:00 PM 17.97 64.346 0.615 8.02 58.9 10.02
6/16/2022 3:30:00 PM 17.95 64.31 0.616 8.01 60.73 10
6/16/2022 3:45:00 PM 17.94 64.292 0.618 8.01 55.66 10.05
6/16/2022 4:00:00 PM 17.96 64.328 0.621 8.02 56.1 10.18
6/16/2022 4:15:00 PM 17.96 64.328 0.624 8.03 56.32 10.33
6/16/2022 4:30:00 PM 17.96 64.328 0.628 8.04 60.38 10.39
6/16/2022 4:45:00 PM 17.98 64.364 0.631 8.06 63.43 10.54
6/16/2022 5:00:00 PM 17.98 64.364 0.633 8.07 62.38 10.64
6/16/2022 5:15:00 PM 17.98 64.364 0.635 8.08 59.13 10.69
6/16/2022 5:30:00 PM 17.99 64.382 0.637 8.09 61.85 10.71
6/16/2022 5:45:00 PM 17.99 64.382 0.638 8.09 60.97 10.75
6/16/2022 6:00:00 PM 18 64.4 0.639 8.1 62.24 10.72
6/16/2022 6:15:00 PM 18 64.4 0.639 8.1 61.85 10.65
6/16/2022 6:30:00 PM 17.98 64.364 0.64 8.09 60.79 10.53
6/16/2022 6:45:00 PM 17.96 64.328 0.641 8.08 61.62 10.4
6/16/2022 7:00:00 PM 17.92 64.256 0.642 8.07 61.98 10.24
6/16/2022 7:15:00 PM 17.86 64.148 0.643 8.05 62.11 10.07
6/16/2022 7:30:00 PM 17.81 64.058 0.642 8.04 78.84 9.91
6/16/2022 7:45:00 PM 17.76 63.968 0.643 8.02 75.32 9.73
6/16/2022 8:00:00 PM 17.73 63.914 0.643 8.01 71.3 9.57
6/16/2022 8:15:00 PM 17.69 63.842 0.643 7.99 70.38 9.44
6/16/2022 8:30:00 PM 17.67 63.806 0.642 7.98 65.47 9.31
6/16/2022 8:45:00 PM 17.65 63.77 0.642 7.97 66.02 9.18
6/16/2022 9:00:00 PM 17.64 63.752 0.642 7.96 63.67 9.07
6/16/2022 9:15:00 PM 17.62 63.716 0.643 7.95 63.76 8.97
6/16/2022 9:30:00 PM 17.61 63.698 0.643 7.94 63.37 8.89
6/16/2022 9:45:00 PM 17.58 63.644 0.643 7.93 63.18 8.81
6/16/2022 10:00:00 PM 17.57 63.626 0.643 7.92 62.25 8.75
6/16/2022 10:15:00 PM 17.56 63.608 0.641 7.92 64.75 8.7
6/16/2022 10:30:00 PM 17.54 63.572 0.642 7.92 66.88 8.64
6/16/2022 10:45:00 PM 17.51 63.518 0.643 7.91 64.52 8.57
6/16/2022 11:00:00 PM 17.49 63.482 0.643 7.9 63.05 8.52
6/16/2022 11:15:00 PM 17.46 63.428 0.643 7.9 67.63 8.49
6/16/2022 11:30:00 PM 17.44 63.392 0.644 7.89 70.05 8.44
6/16/2022 11:45:00 PM 17.41 63.338 0.644 7.89 70.13 8.4
6/17/2022 12:00:00 AM 17.39 63.302 0.644 7.88 70.62 8.36
6/17/2022 12:15:00 AM 17.37 63.266 0.644 7.87 69.56 8.33
6/17/2022 12:30:00 AM 17.35 63.23 0.644 7.87 69.55 8.3
6/17/2022 12:45:00 AM 17.34 63.212 0.643 7.86 72.19 8.28
6/17/2022 1:00:00 AM 17.33 63.194 0.643 7.85 70.1 8.25
6/17/2022 1:15:00 AM 17.31 63.158 0.643 7.85 73.03 8.23
6/17/2022 1:30:00 AM 17.29 63.122 0.642 7.85 71.48 8.2
6/17/2022 1:45:00 AM 17.26 63.068 0.641 7.85 66.4 8.19
6/17/2022 2:00:00 AM 17.23 63.014 0.641 7.85 68.48 8.17
6/17/2022 2:15:00 AM 17.2 62.96 0.64 7.84 66.31 8.15
6/17/2022 2:30:00 AM 17.18 62.924 0.638 7.83 72.6 8.12
6/17/2022 2:45:00 AM 17.15 62.87 0.637 7.83 69.91 8.1
6/17/2022 3:00:00 AM 17.13 62.834 0.636 7.82 70.9 8.08
6/17/2022 3:15:00 AM 17.11 62.798 0.635 7.81 66.58 8.06
6/17/2022 3:30:00 AM 17.1 62.78 0.635 7.81 66.72 8.04
6/17/2022 3:45:00 AM 17.09 62.762 0.634 7.8 67.3 8.03
6/17/2022 4:00:00 AM 17.08 62.744 0.633 7.8 70.88 8.01
6/17/2022 4:15:00 AM 17.07 62.726 0.632 7.79 67.82 7.99
6/17/2022 4:30:00 AM 17.06 62.708 0.631 7.79 69.85 7.98
6/17/2022 4:45:00 AM 17.05 62.69 0.629 7.78 71.82 7.96
6/17/2022 5:00:00 AM 17.05 62.69 0.627 7.78 69.18 7.94
6/17/2022 5:15:00 AM 17.05 62.69 0.625 7.77 63.74 7.92
6/17/2022 5:30:00 AM 17.05 62.69 0.623 7.77 68.05 7.88
6/17/2022 5:45:00 AM 17.05 62.69 0.622 7.76 67.83 7.89
6/17/2022 6:00:00 AM 17.05 62.69 0.622 7.76 64.48 7.89
6/17/2022 6:15:00 AM 17.04 62.672 0.623 7.76 69.73 7.9
6/17/2022 6:30:00 AM 17.03 62.654 0.625 7.76 67.03 7.93
6/17/2022 6:45:00 AM 17.02 62.636 0.627 7.77 67.9 7.98
6/17/2022 7:00:00 AM 17.02 62.636 0.629 7.77 65.1 8.04
6/17/2022 7:15:00 AM 17.02 62.636 0.63 7.78 62.26 8.13
6/17/2022 7:30:00 AM 17.04 62.672 0.632 7.78 60.88 8.25
6/17/2022 7:45:00 AM 17.04 62.672 0.634 7.79 61.28 8.39
6/17/2022 8:00:00 AM 17.05 62.69 0.635 7.8 62.92 8.55
6/17/2022 8:15:00 AM 17.05 62.69 0.637 7.82 62.53 8.71
6/17/2022 8:30:00 AM 17.07 62.726 0.639 7.83 64.41 8.88
6/17/2022 8:45:00 AM 17.12 62.816 0.64 7.85 63.55 9.05
6/17/2022 9:00:00 AM 17.18 62.924 0.641 7.87 62.31 9.26
6/17/2022 9:15:00 AM 17.26 63.068 0.642 7.89 66.1 9.45
6/17/2022 9:30:00 AM 17.35 63.23 0.643 7.91 86.61 9.63
6/17/2022 9:45:00 AM 17.45 63.41 0.643 7.93 63.58 9.83
6/17/2022 10:00:00 AM 17.57 63.626 0.644 7.95 61.81 10.01
6/17/2022 10:15:00 AM 17.69 63.842 0.644 7.98 62.69 10.18
6/17/2022 10:30:00 AM 17.83 64.094 0.644 8 65.22 10.38
6/17/2022 10:45:00 AM 17.94 64.292 0.645 8.01 59.04 10.55
6/17/2022 11:00:00 AM 18 64.4 0.645 8.03 60 10.59
6/17/2022 11:15:00 AM 18.09 64.562 0.645 8.03 62.6 10.68
6/17/2022 11:30:00 AM 18.24 64.832 0.645 8.05 61.9 10.82
6/17/2022 11:45:00 AM 18.4 65.12 0.645 8.07 63.55 11
6/17/2022 12:00:00 PM 18.58 65.444 0.645 8.09 84.98 11.18
6/17/2022 12:15:00 PM 18.73 65.714 0.644 8.11 431.3 11.36
6/17/2022 12:30:00 PM 18.87 65.966 0.645 8.12 64.47 11.48
6/17/2022 12:45:00 PM 19.01 66.218 0.645 8.14 62.78 11.61
6/17/2022 1:00:00 PM 19.15 66.47 0.645 8.15 382.1 11.74
6/17/2022 1:15:00 PM 19.29 66.722 0.645 8.16 86.38 11.85
6/17/2022 1:30:00 PM 19.42 66.956 0.645 8.18 102 11.94
6/17/2022 1:45:00 PM 19.53 67.154 0.645 8.19 61.41 12
6/17/2022 2:00:00 PM 19.61 67.298 0.646 8.2 54.66 11.98
6/17/2022 2:15:00 PM 19.72 67.496 0.646 8.21 43.59 12.06
6/17/2022 2:30:00 PM 19.8 67.64 0.646 8.23 39.1 12.09
6/17/2022 2:45:00 PM 19.84 67.712 0.646 8.23 31.68 12.06
6/17/2022 3:00:00 PM 19.87 67.766 0.646 8.23 33.32 12.05
6/17/2022 3:15:00 PM 19.91 67.838 0.646 8.23 24.16 12.04
6/17/2022 3:30:00 PM 19.91 67.838 0.646 8.24 41.57 11.98
6/17/2022 3:45:00 PM 19.94 67.892 0.646 8.23 30.55 11.91
6/17/2022 4:00:00 PM 19.96 67.92799 0.645 8.23 38.14 11.81
6/17/2022 4:15:00 PM 19.97 67.946 0.644 8.23 19.63 11.74
6/17/2022 4:30:00 PM 19.96 67.92799 0.644 8.23 26.71 11.67
6/17/2022 4:45:00 PM 19.95 67.91 0.644 8.22 26.24 11.58
6/17/2022 5:00:00 PM 19.92 67.856 0.644 8.21 27.44 11.46
6/17/2022 5:15:00 PM 19.89 67.802 0.644 8.2 28.69 11.34
6/17/2022 5:30:00 PM 19.85 67.73 0.645 8.19 25.49 11.17
6/17/2022 5:45:00 PM 19.81 67.658 0.644 8.18 18.92 10.99
6/17/2022 6:00:00 PM 19.76 67.568 0.645 8.17 45.32 10.8
6/17/2022 6:15:00 PM 19.73 67.514 0.645 8.15 18.78 10.61
6/17/2022 6:30:00 PM 19.69 67.442 0.645 8.14 18.46 10.4
6/17/2022 6:45:00 PM 19.66 67.388 0.645 8.12 19.86 10.22
6/17/2022 7:00:00 PM 19.61 67.298 0.646 8.11 26.7 10.05
6/17/2022 7:15:00 PM 19.57 67.226 0.646 8.09 31.03 9.85
6/17/2022 7:30:00 PM 19.51 67.118 0.646 8.08 22.19 9.65
6/17/2022 7:45:00 PM 19.46 67.028 0.646 8.06 20.79 9.48
6/17/2022 8:00:00 PM 19.42 66.956 0.646 8.05 21.75 9.3
6/17/2022 8:15:00 PM 19.37 66.866 0.647 8.03 28.46 9.16
6/17/2022 8:30:00 PM 19.32 66.776 0.647 8.02 29.31 9
6/17/2022 8:45:00 PM 19.28 66.704 0.647 8.01 29.53 8.88
6/17/2022 9:00:00 PM 19.23 66.614 0.647 7.99 21.98 8.74
6/17/2022 9:15:00 PM 19.17 66.506 0.647 7.98 27.54 8.62
6/17/2022 9:30:00 PM 19.11 66.398 0.648 7.97 28.72 8.51
6/17/2022 9:45:00 PM 19.05 66.29 0.648 7.95 29.15 8.41
6/17/2022 10:00:00 PM 18.99 66.182 0.648 7.95 32.46 8.32
6/17/2022 10:15:00 PM 18.93 66.074 0.648 7.94 27.5 8.24
6/17/2022 10:30:00 PM 18.88 65.984 0.649 7.93 32.81 8.18
6/17/2022 10:45:00 PM 18.82 65.876 0.648 7.92 21.92 8.11
6/17/2022 11:00:00 PM 18.77 65.786 0.648 7.92 33.23 8.08
6/17/2022 11:15:00 PM 18.72 65.696 0.649 7.91 34.2 8.02
6/17/2022 11:30:00 PM 18.66 65.588 0.647 7.9 24.11 7.99
6/17/2022 11:45:00 PM 18.61 65.498 0.624 7.89 23.33 7.94
6/18/2022 12:00:00 AM 18.54 65.372 0.636 7.89 24.61 7.92
6/18/2022 12:15:00 AM 18.48 65.264 0.634 7.88 25.94 7.88
6/18/2022 12:30:00 AM 18.42 65.156 0.635 7.88 27.69 7.86
6/18/2022 12:45:00 AM 18.36 65.048 0.649 7.88 32.24 7.84
6/18/2022 1:00:00 AM 18.3 64.94 0.645 7.87 34.97 7.82
6/18/2022 1:15:00 AM 18.24 64.832 0.649 7.87 35.28 7.79
6/18/2022 1:30:00 AM 18.19 64.742 0.623 7.87 35.38 7.78
6/18/2022 1:45:00 AM 18.13 64.634 0.648 7.86 37.06 7.77
6/18/2022 2:00:00 AM 18.08 64.544 0.575 7.86 36.25 7.76
6/18/2022 2:15:00 AM 18.02 64.436 0.646 7.86 38.63 7.76
6/18/2022 2:30:00 AM 17.97 64.346 0.647 7.85 36.75 7.75
6/18/2022 2:45:00 AM 17.92 64.256 0.649 7.85 36.79 7.73
6/18/2022 3:00:00 AM 17.87 64.166 0.647 7.85 37.86 7.74
6/18/2022 3:15:00 AM 17.83 64.094 0.641 7.85 38.57 7.73
6/18/2022 3:30:00 AM 17.78 64.004 0.645 7.85 38.39 7.73
6/18/2022 3:45:00 AM 17.74 63.932 0.651 7.85 40.44 7.73
6/18/2022 4:00:00 AM 17.71 63.878 0.635 7.85 41.17 7.73
6/18/2022 4:15:00 AM 17.67 63.806 0.608 7.84 42.63 7.75
6/18/2022 4:30:00 AM 17.64 63.752 0.651 7.84 71.61 7.75
6/18/2022 4:45:00 AM 17.6 63.68 0.576 7.84 443.4 7.76
6/18/2022 5:00:00 AM 17.57 63.626 0.638 7.84 46.66 7.75
6/18/2022 5:15:00 AM 17.54 63.572 0.628 7.85 112.3 7.76
6/18/2022 5:30:00 AM 17.51 63.518 0.648 7.85 54.85 7.77
6/18/2022 5:45:00 AM 17.48 63.464 0.646 7.85 46.35 7.76
6/18/2022 6:00:00 AM 17.45 63.41 0.642 7.85 39.84 7.79
6/18/2022 6:15:00 AM 17.43 63.374 0.647 7.85 37 7.8
6/18/2022 6:30:00 AM 17.4 63.32 0.647 7.85 42.7 7.82
6/18/2022 6:45:00 AM 17.37 63.266 0.641 7.86 363.3 7.86
6/18/2022 7:00:00 AM 17.34 63.212 0.642 7.86 73.87 7.89
6/18/2022 7:15:00 AM 17.31 63.158 0.648 7.87 66.55 7.93
6/18/2022 7:30:00 AM 17.29 63.122 0.649 7.87 66.32 8.04
6/18/2022 7:45:00 AM 17.27 63.086 0.649 7.88 53.95 8.16
6/18/2022 8:00:00 AM 17.26 63.068 0.648 7.89 153 8.3
6/18/2022 8:15:00 AM 17.26 63.068 0.625 7.91 83.22 8.48
6/18/2022 8:30:00 AM 17.24 63.032 0.646 7.92 64.39 8.56
6/18/2022 8:45:00 AM 17.22 62.996 0.638 7.92 28.89 8.59
6/18/2022 9:00:00 AM 17.2 62.96 0.646 7.93 19.94 8.66
6/18/2022 9:15:00 AM 17.18 62.924 0.647 7.93 18.82 8.72
6/18/2022 9:30:00 AM 17.15 62.87 0.647 7.93 16.89 8.69
6/18/2022 9:45:00 AM 17.12 62.816 0.646 7.94 20.6 8.7
6/18/2022 10:00:00 AM 17.13 62.834 0.646 7.94 17.26 8.83
6/18/2022 10:15:00 AM 17.17 62.906 0.645 7.96 12.72 9.16
6/18/2022 10:30:00 AM 17.22 62.996 0.646 8 9.43 9.5
6/18/2022 10:45:00 AM 17.23 63.014 0.646 8.02 11.62 9.68
6/18/2022 11:00:00 AM 17.2 62.96 0.646 8.02 10.95 9.71
6/18/2022 11:15:00 AM 17.21 62.978 0.645 8.03 10.34 9.81
6/18/2022 11:30:00 AM 17.21 62.978 0.645 8.04 9.81 9.89
6/18/2022 11:45:00 AM 17.19 62.942 0.645 8.05 10.91 10.01
6/18/2022 12:00:00 PM 17.21 62.978 0.645 8.07 9.95 10.21
6/18/2022 12:15:00 PM 17.2 62.96 0.645 8.08 10.73 10.31
6/18/2022 12:30:00 PM 17.15 62.87 0.645 8.08 14.46 10.29
6/18/2022 12:45:00 PM 17.2 62.96 0.636 8.1 11.26 10.45
6/18/2022 1:00:00 PM 17.2 62.96 0.644 8.11 11.12 10.57
6/18/2022 1:15:00 PM 17.14 62.852 0.645 8.11 11.29 10.48
6/18/2022 1:30:00 PM 17.11 62.798 0.645 8.11 8 10.48
6/18/2022 1:45:00 PM 17.14 62.852 0.644 8.12 9.13 10.66
6/18/2022 2:00:00 PM 17.15 62.87 0.629 8.14 9.81 10.8
6/18/2022 2:15:00 PM 17.21 62.978 0.636 8.15 13.32 10.98
6/18/2022 2:30:00 PM 17.35 63.23 0.643 8.17 7.52 11.23
6/18/2022 2:45:00 PM 17.48 63.464 0.644 8.2 7.26 11.43
6/18/2022 3:00:00 PM 17.56 63.608 0.642 8.21 6.32 11.56
6/18/2022 3:15:00 PM 17.65 63.77 0.644 8.23 5.61 11.66
6/18/2022 3:30:00 PM 17.76 63.968 0.643 8.24 6.61 11.75
6/18/2022 3:45:00 PM 17.83 64.094 0.642 8.24 5.92 11.79
6/18/2022 4:00:00 PM 17.85 64.13 0.613 8.24 6.55 11.8
6/18/2022 4:15:00 PM 17.85 64.13 0.635 8.24 5.91 11.74
6/18/2022 4:30:00 PM 17.88 64.184 0.644 8.24 5.52 11.7
6/18/2022 4:45:00 PM 17.92 64.256 0.647 8.24 6.04 11.6
6/18/2022 5:00:00 PM 17.95 64.31 0.65 8.24 5.75 11.5
6/18/2022 5:15:00 PM 17.94 64.292 0.653 8.23 5.31 11.38
6/18/2022 5:30:00 PM 17.86 64.148 0.654 8.22 5.92 11.22
6/18/2022 5:45:00 PM 17.78 64.004 0.653 8.21 5.07 11.12
6/18/2022 6:00:00 PM 17.68 63.824 0.65 8.2 4.74 11.01
6/18/2022 6:15:00 PM 17.58 63.644 0.649 8.19 6.26 10.91
6/18/2022 6:30:00 PM 17.51 63.518 0.647 8.18 4.89 10.79
6/18/2022 6:45:00 PM 17.44 63.392 0.646 8.17 4.26 10.63
6/18/2022 7:00:00 PM 17.37 63.266 0.646 8.15 4.27 10.47
6/18/2022 7:15:00 PM 17.31 63.158 0.646 8.14 5.87 10.34
6/18/2022 7:30:00 PM 17.26 63.068 0.646 8.13 3.84 10.18
6/18/2022 7:45:00 PM 17.2 62.96 0.646 8.12 4.46 10.02
6/18/2022 8:00:00 PM 17.15 62.87 0.601 8.1 5.95 9.89
6/18/2022 8:15:00 PM 17.1 62.78 0.647 8.09 4.58 9.74
6/18/2022 8:30:00 PM 17.05 62.69 0.642 8.08 5.71 9.6
6/18/2022 8:45:00 PM 16.99 62.582 0.648 8.06 6.14 9.48
6/18/2022 9:00:00 PM 16.94 62.492 0.642 8.05 5.77 9.36
6/18/2022 9:15:00 PM 16.89 62.402 0.647 8.04 6.97 9.25
6/18/2022 9:30:00 PM 16.84 62.312 0.64 8.03 7.12 9.15
6/18/2022 9:45:00 PM 16.79 62.222 0.635 8.02 7.53 9.06
6/18/2022 10:00:00 PM 16.74 62.132 0.636 8.01 8.14 8.99
6/18/2022 10:15:00 PM 16.68 62.024 0.641 8 6.92 8.92
6/18/2022 10:30:00 PM 16.63 61.934 0.648 7.99 7.54 8.86
6/18/2022 10:45:00 PM 16.58 61.844 0.644 7.99 8.23 8.81
6/18/2022 11:00:00 PM 16.53 61.754 0.646 7.98 8.75 8.76
6/18/2022 11:15:00 PM 16.48 61.664 0.63 7.98 8.78 8.73
6/18/2022 11:30:00 PM 16.43 61.574 0.62 7.97 7.89 8.7
6/18/2022 11:45:00 PM 16.38 61.484 0.65 7.97 8.36 8.67
6/19/2022 12:00:00 AM 16.33 61.394 0.651 7.96 7.32 8.64
6/19/2022 12:15:00 AM 16.28 61.304 0.638 7.95 7.31 8.61
6/19/2022 12:30:00 AM 16.23 61.214 0.64 7.95 8.2 8.6
6/19/2022 12:45:00 AM 16.18 61.124 0.65 7.95 6.53 8.58
6/19/2022 1:00:00 AM 16.13 61.034 0.647 7.95 8.07 8.56
6/19/2022 1:15:00 AM 16.08 60.944 0.646 7.94 8.23 8.54
6/19/2022 1:30:00 AM 16.03 60.854 0.647 7.94 9.53 8.52
6/19/2022 1:45:00 AM 15.98 60.764 0.65 7.94 7.43 8.51
6/19/2022 2:00:00 AM 15.94 60.692 0.645 7.93 7.66 8.51
6/19/2022 2:15:00 AM 15.89 60.602 0.636 7.93 8.94 8.5
6/19/2022 2:30:00 AM 15.85 60.53 0.531 7.93 7.8 8.5
6/19/2022 2:45:00 AM 15.8 60.44 0.616 7.93 7.91 8.49
6/19/2022 3:00:00 AM 15.76 60.368 0.643 7.92 8.19 8.49
6/19/2022 3:15:00 AM 15.71 60.278 0.643 7.92 8.25 8.49
6/19/2022 3:30:00 AM 15.68 60.224 0.644 7.92 8.02 8.49
6/19/2022 3:45:00 AM 15.63 60.134 0.651 7.92 10.16 8.5
6/19/2022 4:00:00 AM 15.59 60.062 0.654 7.92 9.86 8.49
6/19/2022 4:15:00 AM 15.54 59.972 0.655 7.92 8.91 8.49
6/19/2022 4:30:00 AM 15.5 59.9 0.655 7.92 9.76 8.49
6/19/2022 4:45:00 AM 15.45 59.81 0.652 7.92 8.14 8.49
6/19/2022 5:00:00 AM 15.4 59.72 0.655 7.91 9.79 8.5
6/19/2022 5:15:00 AM 15.36 59.648 0.632 7.92 10.91 8.5
6/19/2022 5:30:00 AM 15.31 59.558 0.655 7.91 10.22 8.52
6/19/2022 5:45:00 AM 15.26 59.468 0.655 7.91 15.87 8.53
6/19/2022 6:00:00 AM 15.21 59.378 0.655 7.91 9.19 8.54
6/19/2022 6:15:00 AM 15.16 59.288 0.651 7.91 9.28 8.57
6/19/2022 6:30:00 AM 15.12 59.216 0.654 7.91 7.87 8.6
6/19/2022 6:45:00 AM 15.08 59.144 0.653 7.92 111.8 8.66
6/19/2022 7:00:00 AM 15.06 59.108 0.653 7.92 13.7 8.74
6/19/2022 7:15:00 AM 15.04 59.072 0.653 7.93 6.76 8.84
6/19/2022 7:30:00 AM 15.03 59.054 0.654 7.94 6.65 8.95
6/19/2022 7:45:00 AM 15.04 59.072 0.654 7.95 5.2 9.09
6/19/2022 8:00:00 AM 15.06 59.108 0.654 7.95 3.99 9.24
6/19/2022 8:15:00 AM 15.1 59.18 0.653 7.97 4.26 9.42
6/19/2022 8:30:00 AM 15.14 59.252 0.653 7.98 3.29 9.61
6/19/2022 8:45:00 AM 15.2 59.36 0.652 8 3.42 9.8
6/19/2022 9:00:00 AM 15.26 59.468 0.653 8.02 2.63 9.99
6/19/2022 9:15:00 AM 15.35 59.63 0.652 8.03 2.7 10.16
6/19/2022 9:30:00 AM 15.42 59.756 0.649 8.05 2.02 10.34
6/19/2022 9:45:00 AM 15.52 59.936 0.595 8.06 2.2 10.52
6/19/2022 10:00:00 AM 15.62 60.116 0.651 8.08 2.68 10.68
6/19/2022 10:15:00 AM 15.72 60.296 0.651 8.1 2.38 10.85
6/19/2022 10:30:00 AM 15.82 60.476 0.651 8.11 2.03 11
6/19/2022 10:45:00 AM 15.93 60.674 0.651 8.13 2.51 11.14
6/19/2022 11:00:00 AM 16.04 60.872 0.65 8.14 2.07 11.28
6/19/2022 11:15:00 AM 16.17 61.106 0.65 8.16 1.71 11.42
6/19/2022 11:30:00 AM 16.29 61.322 0.65 8.17 5.74 11.56
6/19/2022 11:45:00 AM 16.4 61.52 0.649 8.18 2.1 11.68
6/19/2022 12:00:00 PM 16.53 61.754 0.649 8.2 2.88 11.78
6/19/2022 12:15:00 PM 16.65 61.97 0.649 8.21 2.07 11.89
6/19/2022 12:30:00 PM 16.78 62.204 0.649 8.22 2.62 11.99
6/19/2022 12:45:00 PM 16.9 62.42 0.649 8.23 169 12.08
6/19/2022 1:00:00 PM 17.01 62.618 0.648 8.24 211.1 12.15
6/19/2022 1:15:00 PM 17.13 62.834 0.649 8.25 842.5 12.24
6/19/2022 1:30:00 PM 17.23 63.014 0.649 8.25 727.5 12.27
6/19/2022 1:45:00 PM 17.32 63.176 0.648 8.26 1219 12.31
6/19/2022 2:00:00 PM 17.41 63.338 0.648 8.27 1.66 12.35
6/19/2022 2:15:00 PM 17.49 63.482 0.648 8.27 2.03 12.39
6/19/2022 2:30:00 PM 17.56 63.608 0.648 8.27 1.89 12.4
6/19/2022 2:45:00 PM 17.63 63.734 0.648 8.28 2.08 12.42
6/19/2022 3:00:00 PM 17.67 63.806 0.648 8.28 1.73 12.41
6/19/2022 3:15:00 PM 17.71 63.878 0.648 8.28 1.7 12.4
6/19/2022 3:30:00 PM 17.73 63.914 0.649 8.28 1.56 12.37
6/19/2022 3:45:00 PM 17.75 63.95 0.649 8.28 30.25 12.3
6/19/2022 4:00:00 PM 17.75 63.95 0.649 8.28 160.1 12.22
6/19/2022 4:15:00 PM 17.75 63.95 0.649 8.28 242.3 12.17
6/19/2022 4:30:00 PM 17.73 63.914 0.649 8.27 2.95 12.08
6/19/2022 4:45:00 PM 17.7 63.86 0.649 8.27 2.08 11.97
6/19/2022 5:00:00 PM 17.66 63.788 0.649 8.26 1.92 11.87
6/19/2022 5:15:00 PM 17.63 63.734 0.647 8.25 2.83 11.74
6/19/2022 5:30:00 PM 17.57 63.626 0.649 8.24 5.29 11.61
6/19/2022 5:45:00 PM 17.53 63.554 0.649 8.23 9.18 11.45
6/19/2022 6:00:00 PM 17.48 63.464 0.649 8.22 27.07 11.28
6/19/2022 6:15:00 PM 17.43 63.374 0.649 8.2 47.21 11.12
6/19/2022 6:30:00 PM 17.38 63.284 0.649 8.19 2.85 10.93
6/19/2022 6:45:00 PM 17.33 63.194 0.624 8.17 6.3 10.74
6/19/2022 7:00:00 PM 17.28 63.104 0.65 8.16 2.97 10.57
6/19/2022 7:15:00 PM 17.23 63.014 0.65 8.15 26.84 10.43
6/19/2022 7:30:00 PM 17.18 62.924 0.65 8.13 17.18 10.24
6/19/2022 7:45:00 PM 17.14 62.852 0.65 8.12 11.09 10.11
6/19/2022 8:00:00 PM 17.1 62.78 0.65 8.11 7.79 9.98
6/19/2022 8:15:00 PM 17.06 62.708 0.65 8.09 143.1 9.85
6/19/2022 8:30:00 PM 17.01 62.618 0.651 8.08 6.67 9.71
6/19/2022 8:45:00 PM 16.96 62.528 0.651 8.07 12.74 9.58
6/19/2022 9:00:00 PM 16.9 62.42 0.651 8.06 9.23 9.46
6/19/2022 9:15:00 PM 16.84 62.312 0.651 8.04 5.76 9.34
6/19/2022 9:30:00 PM 16.77 62.186 0.651 8.03 21.67 9.21
6/19/2022 9:45:00 PM 16.71 62.078 0.615 8.02 36.48 9.13
6/19/2022 10:00:00 PM 16.64 61.952 0.64 8.02 101.8 9.04
6/19/2022 10:15:00 PM 16.58 61.844 0.651 8.01 231 8.99
6/19/2022 10:30:00 PM 16.51 61.718 0.651 8 1592 8.92
6/19/2022 10:45:00 PM 16.44 61.592 0.652 7.99 272.7 8.86
6/19/2022 11:00:00 PM 16.38 61.484 0.652 7.98 122.3 8.8
6/19/2022 11:15:00 PM 16.31 61.358 0.652 7.98 131.1 8.76
6/19/2022 11:30:00 PM 16.25 61.25 0.615 7.97 19.95 8.72
6/19/2022 11:45:00 PM 16.2 61.16 0.644 7.97 37.11 8.69
6/20/2022 12:00:00 AM 16.14 61.052 0.653 7.96 3.69 8.66
6/20/2022 12:15:00 AM 16.08 60.944 0.653 7.96 55.12 8.64
6/20/2022 12:30:00 AM 16.02 60.836 0.653 7.95 36.19 8.6
6/20/2022 12:45:00 AM 15.97 60.746 0.653 7.94 16.94 8.58
6/20/2022 1:00:00 AM 15.91 60.638 0.653 7.94 43.66 8.56
6/20/2022 1:15:00 AM 15.86 60.548 0.654 7.94 23.02 8.55
6/20/2022 1:30:00 AM 15.8 60.44 0.654 7.93 38.95 8.53
6/20/2022 1:45:00 AM 15.74 60.332 0.654 7.93 26.28 8.51
6/20/2022 2:00:00 AM 15.68 60.224 0.654 7.93 20.37 8.51
6/20/2022 2:15:00 AM 15.62 60.116 0.655 7.92 4.95 8.5
6/20/2022 2:30:00 AM 15.56 60.008 0.655 7.92 7.28 8.47
6/20/2022 2:45:00 AM 15.49 59.882 0.656 7.92 5.4 8.44
6/20/2022 3:00:00 AM 15.41 59.738 0.657 7.91 10.79 8.39
6/20/2022 3:15:00 AM 15.34 59.612 0.658 7.91 3.4 8.36
6/20/2022 3:30:00 AM 15.27 59.486 0.659 7.91 6.38 8.34
6/20/2022 3:45:00 AM 15.22 59.396 0.659 7.9 39.26 8.32
6/20/2022 4:00:00 AM 15.17 59.306 0.66 7.9 29.66 8.31
6/20/2022 4:15:00 AM 15.12 59.216 0.66 7.9 37.42 8.3
6/20/2022 4:30:00 AM 15.1 59.18 0.659 7.9 49.12 8.33
6/20/2022 4:45:00 AM 15.08 59.144 0.658 7.9 23.51 8.38
6/20/2022 5:00:00 AM 15.05 59.09 0.657 7.9 11.21 8.4
6/20/2022 5:15:00 AM 15.02 59.036 0.657 7.89 7.6 8.43
6/20/2022 5:30:00 AM 14.98 58.964 0.657 7.89 4.67 8.45
6/20/2022 5:45:00 AM 14.94 58.892 0.657 7.89 5.96 8.47
6/20/2022 6:00:00 AM 14.9 58.82 0.656 7.89 4.98 8.48
6/20/2022 6:15:00 AM 14.86 58.748 0.656 7.89 5.49 8.52
6/20/2022 6:30:00 AM 14.83 58.694 0.656 7.89 4.36 8.56
6/20/2022 6:45:00 AM 14.81 58.658 0.656 7.9 4.19 8.62
6/20/2022 7:00:00 AM 14.79 58.622 0.656 7.9 4.05 8.68
6/20/2022 7:15:00 AM 14.78 58.604 0.656 7.9 2.97 8.8
6/20/2022 7:30:00 AM 14.79 58.622 0.655 7.91 3.06 8.92
6/20/2022 7:45:00 AM 14.81 58.658 0.655 7.92 10.61 9.06
6/20/2022 8:00:00 AM 14.83 58.694 0.655 7.93 26.47 9.2
6/20/2022 8:15:00 AM 14.84 58.712 0.656 7.94 25.8 9.36
6/20/2022 8:30:00 AM 14.86 58.748 0.657 7.96 107.2 9.51
6/20/2022 8:45:00 AM 14.89 58.802 0.658 7.97 9 9.66
6/20/2022 9:00:00 AM 14.95 58.91 0.658 7.99 2.29 9.81
6/20/2022 9:15:00 AM 15.03 59.054 0.658 8 1.56 9.95
6/20/2022 9:30:00 AM 15.13 59.234 0.658 8.02 2.76 10.1
6/20/2022 9:45:00 AM 15.25 59.45 0.658 8.04 2.08 10.26
6/20/2022 10:00:00 AM 15.36 59.648 0.657 8.05 1.46 10.41
6/20/2022 10:15:00 AM 15.49 59.882 0.657 8.07 1.65 10.57
6/20/2022 10:30:00 AM 15.63 60.134 0.657 8.09 2.04 10.74
6/20/2022 10:45:00 AM 15.76 60.368 0.656 8.11 1.91 10.91
6/20/2022 11:00:00 AM 15.9 60.62 0.656 8.12 2.26 11.05
6/20/2022 11:15:00 AM 16.04 60.872 0.656 8.14 1.74 11.22
6/20/2022 11:30:00 AM 16.19 61.142 0.656 8.16 1.6 11.34
6/20/2022 11:45:00 AM 16.34 61.412 0.655 8.17 14.32 11.48
6/20/2022 12:00:00 PM 16.48 61.664 0.655 8.18 3.16 11.62
6/20/2022 12:15:00 PM 16.63 61.934 0.655 8.2 8.55 11.73
6/20/2022 12:30:00 PM 16.77 62.186 0.654 8.21 4.38 11.85
6/20/2022 12:45:00 PM 16.91 62.438 0.654 8.22 2.15 11.95
6/20/2022 1:00:00 PM 17.05 62.69 0.654 8.23 2.78 12.04
6/20/2022 1:15:00 PM 17.18 62.924 0.654 8.24 1.15 12.11
6/20/2022 1:30:00 PM 17.29 63.122 0.654 8.25 2.28 12.19
6/20/2022 1:45:00 PM 17.39 63.302 0.654 8.25 1.91 12.24
6/20/2022 2:00:00 PM 17.49 63.482 0.653 8.26 5.43 12.28
6/20/2022 2:15:00 PM 17.58 63.644 0.654 8.27 7.22 12.33
6/20/2022 2:30:00 PM 17.65 63.77 0.653 8.28 2.62 12.37
6/20/2022 2:45:00 PM 17.72 63.896 0.653 8.28 1.68 12.4
6/20/2022 3:00:00 PM 17.79 64.022 0.653 8.29 5.4 12.43
6/20/2022 3:15:00 PM 17.84 64.112 0.653 8.29 1.99 12.39
6/20/2022 3:30:00 PM 17.87 64.166 0.653 8.29 27.93 12.39
6/20/2022 3:45:00 PM 17.89 64.202 0.653 8.29 18.98 12.36
6/20/2022 4:00:00 PM 17.89 64.202 0.653 8.29 8.48 12.32
6/20/2022 4:15:00 PM 17.88 64.184 0.654 8.29 4.9 12.24
6/20/2022 4:30:00 PM 17.86 64.148 0.654 8.29 4.06 12.12
6/20/2022 4:45:00 PM 17.83 64.094 0.654 8.28 3.27 12
6/20/2022 5:00:00 PM 17.79 64.022 0.654 8.27 2.63 11.86
6/20/2022 5:15:00 PM 17.76 63.968 0.654 8.27 3.61 11.71
6/20/2022 5:30:00 PM 17.72 63.896 0.655 8.26 2.37 11.57
6/20/2022 5:45:00 PM 17.68 63.824 0.655 8.25 2.02 11.41
6/20/2022 6:00:00 PM 17.64 63.752 0.655 8.23 2.39 11.25
6/20/2022 6:15:00 PM 17.61 63.698 0.655 8.22 6.92 11.11
6/20/2022 6:30:00 PM 17.58 63.644 0.656 8.21 1.83 10.97
6/20/2022 6:45:00 PM 17.56 63.608 0.656 8.2 1.81 10.82
6/20/2022 7:00:00 PM 17.52 63.536 0.656 8.18 2.61 10.62
6/20/2022 7:15:00 PM 17.47 63.446 0.656 8.17 3.14 10.42
6/20/2022 7:30:00 PM 17.44 63.392 0.656 8.15 3.49 10.23
6/20/2022 7:45:00 PM 17.42 63.356 0.654 8.14 2.02 10.05
6/20/2022 8:00:00 PM 17.4 63.32 0.653 8.12 4.1 9.91
6/20/2022 8:15:00 PM 17.38 63.284 0.653 8.1 3.73 9.83
6/20/2022 8:30:00 PM 17.35 63.23 0.652 8.08 2.84 9.73
6/20/2022 8:45:00 PM 17.31 63.158 0.652 8.07 7.21 9.61
6/20/2022 9:00:00 PM 17.26 63.068 0.653 8.05 6.11 9.48
6/20/2022 9:15:00 PM 17.21 62.978 0.653 8.04 2.63 9.35
6/20/2022 9:30:00 PM 17.16 62.888 0.653 8.03 3.75 9.22
6/20/2022 9:45:00 PM 17.1 62.78 0.653 8.02 4.09 9.11
6/20/2022 10:00:00 PM 17.05 62.69 0.654 8 3.99 9.02
6/20/2022 10:15:00 PM 16.99 62.582 0.654 7.99 4.09 8.94
6/20/2022 10:30:00 PM 16.94 62.492 0.654 7.98 4.57 8.85
6/20/2022 10:45:00 PM 16.9 62.42 0.655 7.97 4.73 8.8
6/20/2022 11:00:00 PM 16.85 62.33 0.655 7.97 4.63 8.73
6/20/2022 11:15:00 PM 16.81 62.258 0.655 7.96 4.28 8.68
6/20/2022 11:30:00 PM 16.76 62.168 0.655 7.95 3.76 8.63
6/20/2022 11:45:00 PM 16.72 62.096 0.656 7.95 5.28 8.58
6/21/2022 12:00:00 AM 16.68 62.024 0.656 7.94 4.25 8.53
6/21/2022 12:15:00 AM 16.63 61.934 0.656 7.94 3.6 8.52
6/21/2022 12:30:00 AM 16.58 61.844 0.656 7.93 4.93 8.49
6/21/2022 12:45:00 AM 16.53 61.754 0.656 7.93 16.98 8.46
6/21/2022 1:00:00 AM 16.49 61.682 0.656 7.92 4.25 8.44
6/21/2022 1:15:00 AM 16.44 61.592 0.656 7.92 5.36 8.42
6/21/2022 1:30:00 AM 16.4 61.52 0.656 7.91 5.08 8.4
6/21/2022 1:45:00 AM 16.36 61.448 0.657 7.91 4.57 8.37
6/21/2022 2:00:00 AM 16.32 61.376 0.657 7.9 6.78 8.36
6/21/2022 2:15:00 AM 16.28 61.304 0.657 7.9 7.48 8.35
6/21/2022 2:30:00 AM 16.24 61.232 0.658 7.9 9.34 8.34
6/21/2022 2:45:00 AM 16.2 61.16 0.658 7.89 4.81 8.32
6/21/2022 3:00:00 AM 16.17 61.106 0.658 7.89 5.24 8.32
6/21/2022 3:15:00 AM 16.13 61.034 0.658 7.89 4.52 8.31
6/21/2022 3:30:00 AM 16.1 60.98 0.658 7.89 11.02 8.29
6/21/2022 3:45:00 AM 16.06 60.908 0.658 7.88 4.5 8.28
6/21/2022 4:00:00 AM 16.03 60.854 0.659 7.88 5.59 8.28
6/21/2022 4:15:00 AM 15.99 60.782 0.659 7.88 3.94 8.26
6/21/2022 4:30:00 AM 15.96 60.728 0.658 7.88 3.86 8.27
6/21/2022 4:45:00 AM 15.93 60.674 0.658 7.88 4.94 8.26
6/21/2022 5:00:00 AM 15.9 60.62 0.658 7.87 4.03 8.26
6/21/2022 5:15:00 AM 15.88 60.584 0.658 7.87 3.79 8.26
6/21/2022 5:30:00 AM 15.86 60.548 0.658 7.87 5.57 8.26
6/21/2022 5:45:00 AM 15.85 60.53 0.658 7.87 4.46 8.26
6/21/2022 6:00:00 AM 15.84 60.512 0.658 7.87 4.79 8.27
6/21/2022 6:15:00 AM 15.82 60.476 0.657 7.87 5.82 8.29
6/21/2022 6:30:00 AM 15.81 60.458 0.657 7.87 5.27 8.32
6/21/2022 6:45:00 AM 15.8 60.44 0.657 7.87 5.56 8.35
6/21/2022 7:00:00 AM 15.79 60.422 0.657 7.87 4.93 8.36
6/21/2022 7:15:00 AM 15.79 60.422 0.656 7.87 4.56 8.39
6/21/2022 7:30:00 AM 15.79 60.422 0.656 7.87 2.61 8.44
6/21/2022 7:45:00 AM 15.8 60.44 0.656 7.88 2.69 8.51
6/21/2022 8:00:00 AM 15.8 60.44 0.656 7.88 2.91 8.58
6/21/2022 8:15:00 AM 15.81 60.458 0.656 7.88 2.74 8.62
6/21/2022 8:30:00 AM 15.82 60.476 0.655 7.89 2.31 8.71
6/21/2022 8:45:00 AM 15.82 60.476 0.656 7.89 2.37 8.76
6/21/2022 9:00:00 AM 15.8 60.44 0.656 7.9 2.79 8.83
6/21/2022 9:15:00 AM 15.77 60.386 0.658 7.9 4.33 8.82
6/21/2022 9:30:00 AM 15.74 60.332 0.659 7.9 35.64 8.85
6/21/2022 9:45:00 AM 15.76 60.368 0.659 7.91 1.57 8.96
6/21/2022 10:00:00 AM 15.79 60.422 0.659 7.93 1.97 9.18
6/21/2022 10:15:00 AM 15.81 60.458 0.659 7.94 1.61 9.31
6/21/2022 10:30:00 AM 15.82 60.476 0.659 7.95 2.62 9.37
6/21/2022 10:45:00 AM 15.84 60.512 0.658 7.96 2.67 9.47
6/21/2022 11:00:00 AM 15.87 60.566 0.658 7.97 2.72 9.59
6/21/2022 11:15:00 AM 15.92 60.656 0.658 7.98 3.04 9.71
6/21/2022 11:30:00 AM 16.05 60.89 0.657 8 2.92 10.02
6/21/2022 11:45:00 AM 16.23 61.214 0.657 8.03 1.58 10.36
6/21/2022 12:00:00 PM 16.36 61.448 0.656 8.06 2.85 10.62
6/21/2022 12:15:00 PM 16.49 61.682 0.656 8.09 2.46 10.88
6/21/2022 12:30:00 PM 16.65 61.97 0.655 8.12 2.19 11.16
6/21/2022 12:45:00 PM 16.82 62.276 0.655 8.14 1.48 11.39
6/21/2022 1:00:00 PM 17.02 62.636 0.655 8.16 2.28 11.62
6/21/2022 1:15:00 PM 17.18 62.924 0.654 8.18 1.98 11.8
6/21/2022 1:30:00 PM 17.35 63.23 0.654 8.2 1.51 11.95
6/21/2022 1:45:00 PM 17.43 63.374 0.654 8.21 2.36 12.03
6/21/2022 2:00:00 PM 17.47 63.446 0.654 8.22 2.59 12.05
6/21/2022 2:15:00 PM 17.57 63.626 0.654 8.23 1.82 12.07
6/21/2022 2:30:00 PM 17.76 63.968 0.654 8.24 1.44 12.26
6/21/2022 2:45:00 PM 17.83 64.094 0.654 8.26 1.27 12.3
6/21/2022 3:00:00 PM 17.92 64.256 0.654 8.26 2.8 12.35
6/21/2022 3:15:00 PM 17.99 64.382 0.654 8.27 5.21 12.38
6/21/2022 3:30:00 PM 18.03 64.454 0.654 8.27 3.35 12.35
6/21/2022 3:45:00 PM 18.09 64.562 0.654 8.28 2.48 12.36
6/21/2022 4:00:00 PM 18.14 64.652 0.654 8.28 1.76 12.36
6/21/2022 4:15:00 PM 18.18 64.724 0.654 8.29 1.88 12.34
6/21/2022 4:30:00 PM 18.17 64.706 0.655 8.29 3.16 12.27
6/21/2022 4:45:00 PM 18.16 64.688 0.654 8.28 2.6 12.2
6/21/2022 5:00:00 PM 18.14 64.652 0.655 8.28 1.91 12.1
6/21/2022 5:15:00 PM 18.1 64.58 0.655 8.27 3.24 11.95
6/21/2022 5:30:00 PM 18.05 64.49 0.655 8.26 2.05 11.81
6/21/2022 5:45:00 PM 18.01 64.418 0.655 8.25 1.97 11.66
6/21/2022 6:00:00 PM 17.96 64.328 0.655 8.24 2.2 11.52
6/21/2022 6:15:00 PM 17.91 64.238 0.656 8.23 1.35 11.35
6/21/2022 6:30:00 PM 17.87 64.166 0.656 8.22 2.78 11.14
6/21/2022 6:45:00 PM 17.82 64.076 0.656 8.2 2.34 10.93
6/21/2022 7:00:00 PM 17.78 64.004 0.656 8.18 3.43 10.75
6/21/2022 7:15:00 PM 17.75 63.95 0.657 8.16 2.89 10.51
6/21/2022 7:30:00 PM 17.73 63.914 0.656 8.15 2.76 10.32
6/21/2022 7:45:00 PM 17.72 63.896 0.655 8.13 2.18 10.12
6/21/2022 8:00:00 PM 17.72 63.896 0.654 8.11 7.97 9.97
6/21/2022 8:15:00 PM 17.71 63.878 0.653 8.1 2.53 9.84
6/21/2022 8:30:00 PM 17.69 63.842 0.653 8.08 2.46 9.75
6/21/2022 8:45:00 PM 17.67 63.806 0.654 8.06 2.77 9.61
6/21/2022 9:00:00 PM 17.64 63.752 0.654 8.05 3.79 9.48
6/21/2022 9:15:00 PM 17.61 63.698 0.654 8.03 2.93 9.34
6/21/2022 9:30:00 PM 17.58 63.644 0.654 8.02 4.6 9.19
6/21/2022 9:45:00 PM 17.55 63.59 0.654 8 4.62 9.07
6/21/2022 10:00:00 PM 17.52 63.536 0.654 7.99 5.23 8.96
6/21/2022 10:15:00 PM 17.48 63.464 0.576 7.98 4.22 8.87
6/21/2022 10:30:00 PM 17.45 63.41 0.653 7.97 4.01 8.78
6/21/2022 10:45:00 PM 17.42 63.356 0.652 7.96 3.92 8.69
6/21/2022 11:00:00 PM 17.39 63.302 0.655 7.95 4.88 8.62
6/21/2022 11:15:00 PM 17.35 63.23 0.648 7.94 5.34 8.56
6/21/2022 11:30:00 PM 17.32 63.176 0.641 7.93 5.87 8.53
6/21/2022 11:45:00 PM 17.29 63.122 0.568 7.93 3.83 8.49
6/22/2022 12:00:00 AM 17.25 63.05 0.653 7.92 5.02 8.45
6/22/2022 12:15:00 AM 17.22 62.996 0.647 7.92 8.13 8.4
6/22/2022 12:30:00 AM 17.18 62.924 0.656 7.92 4.23 8.37
6/22/2022 12:45:00 AM 17.14 62.852 0.609 7.91 5.32 8.33
6/22/2022 1:00:00 AM 17.1 62.78 0.548 7.91 5.22 8.31
6/22/2022 1:15:00 AM 17.06 62.708 0.656 7.9 4.84 8.28
6/22/2022 1:30:00 AM 17.03 62.654 0.652 7.89 4.71 8.26
6/22/2022 1:45:00 AM 16.99 62.582 0.565 7.89 3.88 8.24
6/22/2022 2:00:00 AM 16.96 62.528 0.656 7.89 5.4 8.21
6/22/2022 2:15:00 AM 16.93 62.474 0.652 7.88 4.48 8.18
6/22/2022 2:30:00 AM 16.9 62.42 0.642 7.88 5.3 8.15
6/22/2022 2:45:00 AM 16.88 62.384 0.656 7.87 4.28 8.14
6/22/2022 3:00:00 AM 16.86 62.348 0.571 7.87 4.77 8.12
6/22/2022 3:15:00 AM 16.84 62.312 0.657 7.87 7.53 8.1
6/22/2022 3:30:00 AM 16.82 62.276 0.657 7.87 5.78 8.08
6/22/2022 3:45:00 AM 16.8 62.24 0.646 7.86 35.2 8.08
6/22/2022 4:00:00 AM 16.79 62.222 0.631 7.86 5.64 8.06
6/22/2022 4:15:00 AM 16.77 62.186 0.654 7.86 9.5 8.05
6/22/2022 4:30:00 AM 16.75 62.15 0.654 7.86 31.3 8.04
6/22/2022 4:45:00 AM 16.73 62.114 0.649 7.86 10.65 8.04
6/22/2022 5:00:00 AM 16.71 62.078 0.637 7.85 8.91 8.03
6/22/2022 5:15:00 AM 16.69 62.042 0.658 7.85 6.46 8.02
6/22/2022 5:30:00 AM 16.67 62.006 0.658 7.85 13.18 8.03
6/22/2022 5:45:00 AM 16.65 61.97 0.658 7.85 60.14 8.02
6/22/2022 6:00:00 AM 16.63 61.934 0.658 7.85 6.08 8.03
6/22/2022 6:15:00 AM 16.62 61.916 0.658 7.85 6.47 8.06
6/22/2022 6:30:00 AM 16.61 61.898 0.657 7.85 6.17 8.12
6/22/2022 6:45:00 AM 16.61 61.898 0.657 7.85 6.82 8.22
6/22/2022 7:00:00 AM 16.61 61.898 0.657 7.86 9.06 8.31
6/22/2022 7:15:00 AM 16.61 61.898 0.657 7.87 5.11 8.4
6/22/2022 7:30:00 AM 16.63 61.934 0.647 7.87 4.22 8.54
6/22/2022 7:45:00 AM 16.66 61.988 0.648 7.88 3.45 8.75
6/22/2022 8:00:00 AM 16.71 62.078 0.648 7.9 3.49 8.97
6/22/2022 8:15:00 AM 16.78 62.204 0.656 7.92 101.2 9.21
6/22/2022 8:30:00 AM 16.83 62.294 0.653 7.94 7.01 9.4
6/22/2022 8:45:00 AM 16.86 62.348 0.655 7.95 1.92 9.53
6/22/2022 9:00:00 AM 16.91 62.438 0.655 7.97 2.95 9.72
6/22/2022 9:15:00 AM 16.97 62.546 0.654 7.99 3 9.9
6/22/2022 9:30:00 AM 17.02 62.636 0.654 8 4.76 10.04
6/22/2022 9:45:00 AM 17.08 62.744 0.631 8.01 2.52 10.19
6/22/2022 10:00:00 AM 17.16 62.888 0.65 8.03 2.86 10.38
6/22/2022 10:15:00 AM 17.2 62.96 0.615 8.05 2.24 10.48
6/22/2022 10:30:00 AM 17.24 63.032 0.652 8.06 1.84 10.55
6/22/2022 10:45:00 AM 17.27 63.086 0.644 8.07 4.23 10.58
6/22/2022 11:00:00 AM 17.29 63.122 0.643 8.07 3.14 10.58
6/22/2022 11:15:00 AM 17.35 63.23 0.63 8.08 7.78 10.67
6/22/2022 11:30:00 AM 17.45 63.41 0.61 8.09 2.43 10.87
6/22/2022 11:45:00 AM 17.55 63.59 0.614 8.11 2.6 11.05
6/22/2022 12:00:00 PM 17.6 63.68 0.598 8.13 2.16 11.19
6/22/2022 12:15:00 PM 17.65 63.77 0.605 8.14 2.2 11.3
6/22/2022 12:30:00 PM 17.69 63.842 0.61 8.15 1.97 11.35
6/22/2022 12:45:00 PM 17.73 63.914 0.63 8.16 1.63 11.35
6/22/2022 1:00:00 PM 17.77 63.986 0.611 8.16 4.52 11.38
6/22/2022 1:15:00 PM 17.77 63.986 0.614 8.16 1.76 11.32
6/22/2022 1:30:00 PM 17.77 63.986 0.617 8.16 5.27 11.27
6/22/2022 1:45:00 PM 17.84 64.112 0.65 8.17 1.86 11.41
6/22/2022 2:00:00 PM 17.9 64.22 0.649 8.19 1.16 11.52
6/22/2022 2:15:00 PM 17.86 64.148 0.65 8.18 1.61 11.39
6/22/2022 2:30:00 PM 17.83 64.094 0.65 8.17 1.07 11.27
6/22/2022 2:45:00 PM 17.89 64.202 0.65 8.17 1.53 11.33
6/22/2022 3:00:00 PM 17.95 64.31 0.65 8.17 1.86 11.45
6/22/2022 3:15:00 PM 17.98 64.364 0.65 8.18 1.44 11.48
6/22/2022 3:30:00 PM 18.02 64.436 0.65 8.18 1.51 11.53
6/22/2022 3:45:00 PM 18.04 64.472 0.65 8.19 1.68 11.48
6/22/2022 4:00:00 PM 18.04 64.472 0.65 8.18 1.37 11.38
6/22/2022 4:15:00 PM 18.03 64.454 0.651 8.17 1.82 11.16
6/22/2022 4:30:00 PM 17.99 64.382 0.651 8.14 1.37 10.91
6/22/2022 4:45:00 PM 17.97 64.346 0.651 8.12 2.01 10.69
6/22/2022 5:00:00 PM 17.93 64.274 0.652 8.11 1.29 10.48
6/22/2022 5:15:00 PM 17.89 64.202 0.653 8.1 1.98 10.31
6/22/2022 5:30:00 PM 17.86 64.148 0.654 8.09 1.96 10.18
6/22/2022 5:45:00 PM 17.83 64.094 0.655 8.08 2.48 10.06
6/22/2022 6:00:00 PM 17.8 64.04 0.655 8.07 2.55 9.91
6/22/2022 6:15:00 PM 17.78 64.004 0.655 8.06 2.42 9.81
6/22/2022 6:30:00 PM 17.76 63.968 0.656 8.05 1.83 9.68
6/22/2022 6:45:00 PM 17.73 63.914 0.656 8.04 2.78 9.52
6/22/2022 7:00:00 PM 17.71 63.878 0.656 8.03 2.58 9.4
6/22/2022 7:15:00 PM 17.68 63.824 0.656 8.02 2.62 9.29
6/22/2022 7:30:00 PM 17.66 63.788 0.656 8.01 2.54 9.18
6/22/2022 7:45:00 PM 17.63 63.734 0.655 8 3.41 9.08
6/22/2022 8:00:00 PM 17.61 63.698 0.655 7.99 2.62 9
6/22/2022 8:15:00 PM 17.59 63.662 0.654 7.98 2.66 8.93
6/22/2022 8:30:00 PM 17.56 63.608 0.654 7.97 3.81 8.86
6/22/2022 8:45:00 PM 17.53 63.554 0.654 7.96 3.1 8.78
6/22/2022 9:00:00 PM 17.5 63.5 0.654 7.95 5.97 8.72
6/22/2022 9:15:00 PM 17.48 63.464 0.654 7.95 4.35 8.65
6/22/2022 9:30:00 PM 17.46 63.428 0.651 7.94 5.31 8.63
6/22/2022 9:45:00 PM 17.45 63.41 0.648 7.94 4.58 8.59
6/22/2022 10:00:00 PM 17.43 63.374 0.646 7.94 6.3 8.55
6/22/2022 10:15:00 PM 17.41 63.338 0.646 7.94 4.55 8.5
6/22/2022 10:30:00 PM 17.39 63.302 0.646 7.93 6.1 8.45
6/22/2022 10:45:00 PM 17.37 63.266 0.646 7.92 5.63 8.41
6/22/2022 11:00:00 PM 17.34 63.212 0.646 7.91 5.87 8.37
6/22/2022 11:15:00 PM 17.31 63.158 0.645 7.91 7.25 8.32
6/22/2022 11:30:00 PM 17.28 63.104 0.645 7.9 6.3 8.28
6/22/2022 11:45:00 PM 17.26 63.068 0.643 7.89 6.36 8.25
6/23/2022 12:00:00 AM 17.24 63.032 0.641 7.89 6.94 8.22
6/23/2022 12:15:00 AM 17.21 62.978 0.639 7.89 7.34 8.2
6/23/2022 12:30:00 AM 17.19 62.942 0.638 7.88 9.16 8.17
6/23/2022 12:45:00 AM 17.17 62.906 0.636 7.88 7.79 8.17
6/23/2022 1:00:00 AM 17.15 62.87 0.634 7.88 8.52 8.17
6/23/2022 1:15:00 AM 17.12 62.816 0.633 7.88 7.7 8.15
6/23/2022 1:30:00 AM 17.09 62.762 0.632 7.87 10.77 8.14
6/23/2022 1:45:00 AM 17.07 62.726 0.631 7.86 9.02 8.12
6/23/2022 2:00:00 AM 17.04 62.672 0.63 7.86 9.97 8.1
6/23/2022 2:15:00 AM 17.03 62.654 0.628 7.86 9.34 8.08
6/23/2022 2:30:00 AM 17.01 62.618 0.626 7.85 11.52 8.06
6/23/2022 2:45:00 AM 17.01 62.618 0.624 7.85 9.02 8.03
6/23/2022 3:00:00 AM 17 62.6 0.622 7.85 13.13 8.02
6/23/2022 3:15:00 AM 17 62.6 0.621 7.84 12.52 8.01
6/23/2022 3:30:00 AM 16.98 62.564 0.62 7.84 13.06 7.99
6/23/2022 3:45:00 AM 16.96 62.528 0.62 7.84 12.8 7.99
6/23/2022 4:00:00 AM 16.94 62.492 0.621 7.84 11.91 7.98
6/23/2022 4:15:00 AM 16.9 62.42 0.622 7.83 14.22 7.97
6/23/2022 4:30:00 AM 16.87 62.366 0.622 7.83 11.93 7.95
6/23/2022 4:45:00 AM 16.86 62.348 0.621 7.82 13.57 7.92
6/23/2022 5:00:00 AM 16.84 62.312 0.621 7.81 13.07 7.89
6/23/2022 5:15:00 AM 16.84 62.312 0.62 7.8 12.55 7.87
6/23/2022 5:30:00 AM 16.83 62.294 0.619 7.79 14.4 7.87
6/23/2022 5:45:00 AM 16.83 62.294 0.618 7.78 14.31 7.87
6/23/2022 6:00:00 AM 16.82 62.276 0.614 7.78 15.06 7.87
6/23/2022 6:15:00 AM 16.83 62.294 0.606 7.78 22.39 7.86
6/23/2022 6:30:00 AM 16.84 62.312 0.598 7.77 25.31 7.84
6/23/2022 6:45:00 AM 16.84 62.312 0.593 7.76 22.01 7.84
6/23/2022 7:00:00 AM 16.82 62.276 0.595 7.76 25.17 7.85
6/23/2022 7:15:00 AM 16.78 62.204 0.601 7.75 22.96 7.87
6/23/2022 7:30:00 AM 16.77 62.186 0.607 7.75 20.37 7.89
6/23/2022 7:45:00 AM 16.78 62.204 0.609 7.76 19.04 7.91
6/23/2022 8:00:00 AM 16.82 62.276 0.608 7.76 18.71 7.91
6/23/2022 8:15:00 AM 16.87 62.366 0.604 7.76 14.93 7.89
6/23/2022 8:30:00 AM 16.92 62.456 0.599 7.76 13.66 7.85
6/23/2022 8:45:00 AM 16.98 62.564 0.593 7.76 13.22 7.82
6/23/2022 9:00:00 AM 17.04 62.672 0.59 7.76 13.4 7.81
6/23/2022 9:15:00 AM 17.09 62.762 0.59 7.76 12.43 7.81
6/23/2022 9:30:00 AM 17.13 62.834 0.593 7.76 12.58 7.83
6/23/2022 9:45:00 AM 17.16 62.888 0.598 7.76 12.06 7.83
6/23/2022 10:00:00 AM 17.17 62.906 0.602 7.77 14.79 7.88
6/23/2022 10:15:00 AM 17.17 62.906 0.603 7.77 10.49 7.88
6/23/2022 10:30:00 AM 17.16 62.888 0.6 7.77 9.87 7.9
6/23/2022 10:45:00 AM 17.16 62.888 0.594 7.77 9.97 8
6/23/2022 11:00:00 AM 17.16 62.888 0.585 7.77 9.49 8.04
6/23/2022 11:15:00 AM 17.15 62.87 0.573 7.76 10.78 8.07
6/23/2022 11:30:00 AM 17.15 62.87 0.56 7.76 10.13 8.08
6/23/2022 11:45:00 AM 17.14 62.852 0.546 7.75 9.99 8.06
6/23/2022 12:00:00 PM 17.13 62.834 0.533 7.74 8.27 8.03
6/23/2022 12:15:00 PM 17.14 62.852 0.52 7.73 10.81 8.07
6/23/2022 12:30:00 PM 17.15 62.87 0.509 7.72 7.8 8.12
6/23/2022 12:45:00 PM 17.15 62.87 0.499 7.72 8.36 8.14
6/23/2022 1:00:00 PM 17.16 62.888 0.491 7.71 6.42 8.18
6/23/2022 1:15:00 PM 17.16 62.888 0.484 7.71 8.48 8.23
6/23/2022 1:30:00 PM 17.17 62.906 0.48 7.71 7.88 8.3
6/23/2022 1:45:00 PM 17.19 62.942 0.477 7.71 9.8 8.42
6/23/2022 2:00:00 PM 17.23 63.014 0.476 7.72 10.23 8.61
6/23/2022 2:15:00 PM 17.28 63.104 0.476 7.74 7.06 8.85
6/23/2022 2:30:00 PM 17.3 63.14 0.478 7.76 8.44 8.99
6/23/2022 2:45:00 PM 17.29 63.122 0.481 7.76 5.99 9.02
6/23/2022 3:00:00 PM 17.27 63.086 0.484 7.77 5.72 8.99
6/23/2022 3:15:00 PM 17.24 63.032 0.488 7.77 7.27 8.96
6/23/2022 3:30:00 PM 17.2 62.96 0.493 7.76 7.27 8.89
6/23/2022 3:45:00 PM 17.16 62.888 0.497 7.76 8.87 8.87
6/23/2022 4:00:00 PM 17.13 62.834 0.502 7.76 7.7 8.89
6/23/2022 4:15:00 PM 17.11 62.798 0.506 7.77 6.21 8.96
6/23/2022 4:30:00 PM 17.09 62.762 0.51 7.77 7.79 8.96
6/23/2022 4:45:00 PM 17.08 62.744 0.514 7.78 5.3 9.02
6/23/2022 5:00:00 PM 17.08 62.744 0.518 7.79 7.14 9.09
6/23/2022 5:15:00 PM 17.06 62.708 0.521 7.8 5.67 9.09
6/23/2022 5:30:00 PM 17.03 62.654 0.524 7.81 5.1 9.04
6/23/2022 5:45:00 PM 17 62.6 0.527 7.81 3.65 8.98
6/23/2022 6:00:00 PM 16.98 62.564 0.529 7.81 3.76 8.97
6/23/2022 6:15:00 PM 16.96 62.528 0.532 7.81 5.73 8.94
6/23/2022 6:30:00 PM 16.95 62.51 0.534 7.81 8.09 8.92
6/23/2022 6:45:00 PM 16.93 62.474 0.536 7.8 8.17 8.88
6/23/2022 7:00:00 PM 16.92 62.456 0.539 7.81 5.57 8.88
6/23/2022 7:15:00 PM 16.91 62.438 0.541 7.81 5.33 8.89
6/23/2022 7:30:00 PM 16.9 62.42 0.542 7.81 4.82 8.88
6/23/2022 7:45:00 PM 16.9 62.42 0.544 7.81 5.97 8.87
6/23/2022 8:00:00 PM 16.89 62.402 0.545 7.81 10.5 8.86
6/23/2022 8:15:00 PM 16.88 62.384 0.548 7.8 6.26 8.79
6/23/2022 8:30:00 PM 16.86 62.348 0.55 7.8 6.19 8.71
6/23/2022 8:45:00 PM 16.84 62.312 0.553 7.79 9.21 8.65
6/23/2022 9:00:00 PM 16.82 62.276 0.556 7.78 7.82 8.58
6/23/2022 9:15:00 PM 16.79 62.222 0.56 7.78 8.33 8.51
6/23/2022 9:30:00 PM 16.76 62.168 0.563 7.77 8.1 8.45
6/23/2022 9:45:00 PM 16.73 62.114 0.566 7.77 7.76 8.42
6/23/2022 10:00:00 PM 16.7 62.06 0.569 7.77 4.55 8.37
6/23/2022 10:15:00 PM 16.68 62.024 0.572 7.77 6.19 8.36
6/23/2022 10:30:00 PM 16.65 61.97 0.575 7.77 7.63 8.33
6/23/2022 10:45:00 PM 16.63 61.934 0.577 7.76 7.3 8.3
6/23/2022 11:00:00 PM 16.6 61.88 0.579 7.76 8.77 8.28
6/23/2022 11:15:00 PM 16.59 61.862 0.581 7.76 8.11 8.25
6/23/2022 11:30:00 PM 16.56 61.808 0.582 7.76 9.64 8.26
6/23/2022 11:45:00 PM 16.54 61.772 0.584 7.76 8.59 8.24
6/24/2022 12:00:00 AM 16.51 61.718 0.585 7.76 8.91 8.23
6/24/2022 12:15:00 AM 16.48 61.664 0.586 7.76 10.6 8.22
6/24/2022 12:30:00 AM 16.46 61.628 0.587 7.75 7.36 8.22
6/24/2022 12:45:00 AM 16.43 61.574 0.588 7.76 7.11 8.2
6/24/2022 1:00:00 AM 16.41 61.538 0.589 7.76 8.87 8.2
6/24/2022 1:15:00 AM 16.38 61.484 0.59 7.76 10.73 8.2
6/24/2022 1:30:00 AM 16.35 61.43 0.591 7.76 8.79 8.19
6/24/2022 1:45:00 AM 16.32 61.376 0.592 7.76 9.26 8.21
6/24/2022 2:00:00 AM 16.29 61.322 0.593 7.76 7.67 8.21
6/24/2022 2:15:00 AM 16.26 61.268 0.595 7.76 9.21 8.21
6/24/2022 2:30:00 AM 16.23 61.214 0.596 7.76 7.39 8.21
6/24/2022 2:45:00 AM 16.2 61.16 0.598 7.76 8.92 8.23
6/24/2022 3:00:00 AM 16.18 61.124 0.6 7.76 10.47 8.22
6/24/2022 3:15:00 AM 16.15 61.07 0.601 7.76 10.1 8.24
6/24/2022 3:30:00 AM 16.12 61.016 0.603 7.77 8.51 8.25
6/24/2022 3:45:00 AM 16.09 60.962 0.604 7.76 10.8 8.24
6/24/2022 4:00:00 AM 16.06 60.908 0.605 7.77 10.29 8.25
6/24/2022 4:15:00 AM 16.03 60.854 0.606 7.77 9.13 8.26
6/24/2022 4:30:00 AM 16 60.8 0.607 7.77 8.87 8.26
6/24/2022 4:45:00 AM 15.98 60.764 0.608 7.77 9.25 8.28
6/24/2022 5:00:00 AM 15.96 60.728 0.609 7.77 9.25 8.28
6/24/2022 5:15:00 AM 15.94 60.692 0.61 7.77 10.26 8.29
6/24/2022 5:30:00 AM 15.92 60.656 0.611 7.77 8.1 8.3
6/24/2022 5:45:00 AM 15.9 60.62 0.612 7.77 9.58 8.29
6/24/2022 6:00:00 AM 15.88 60.584 0.613 7.77 12.21 8.31
6/24/2022 6:15:00 AM 15.86 60.548 0.614 7.77 8.45 8.33
6/24/2022 6:30:00 AM 15.85 60.53 0.615 7.78 7.33 8.36
6/24/2022 6:45:00 AM 15.84 60.512 0.617 7.78 8.98 8.38
6/24/2022 7:00:00 AM 15.84 60.512 0.618 7.78 7.13 8.44
6/24/2022 7:15:00 AM 15.84 60.512 0.619 7.79 7.96 8.49
6/24/2022 7:30:00 AM 15.84 60.512 0.619 7.8 6.28 8.55
6/24/2022 7:45:00 AM 15.84 60.512 0.62 7.8 5.32 8.6
6/24/2022 8:00:00 AM 15.83 60.494 0.621 7.81 5.81 8.65
6/24/2022 8:15:00 AM 15.8 60.44 0.622 7.81 5.2 8.68
6/24/2022 8:30:00 AM 15.77 60.386 0.624 7.82 4.67 8.7
6/24/2022 8:45:00 AM 15.75 60.35 0.625 7.82 4.98 8.74
6/24/2022 9:00:00 AM 15.74 60.332 0.626 7.83 3.92 8.8
6/24/2022 9:15:00 AM 15.74 60.332 0.627 7.84 4.09 8.85
6/24/2022 9:30:00 AM 15.75 60.35 0.627 7.85 4.39 8.94
6/24/2022 9:45:00 AM 15.76 60.368 0.628 7.86 4.39 9.04
6/24/2022 10:00:00 AM 15.79 60.422 0.629 7.87 3.63 9.14
6/24/2022 10:15:00 AM 15.82 60.476 0.629 7.88 3.94 9.28
6/24/2022 10:30:00 AM 15.85 60.53 0.63 7.89 4.13 9.42
6/24/2022 10:45:00 AM 15.89 60.602 0.63 7.9 3.58 9.59
6/24/2022 11:00:00 AM 15.94 60.692 0.63 7.92 3.72 9.76
6/24/2022 11:15:00 AM 16 60.8 0.63 7.94 2.77 9.93
6/24/2022 11:30:00 AM 16.04 60.872 0.631 7.95 3.54 10.07
6/24/2022 11:45:00 AM 16.08 60.944 0.631 7.97 3.1 10.17
6/24/2022 12:00:00 PM 16.11 60.998 0.632 7.98 2.95 10.34
6/24/2022 12:15:00 PM 16.14 61.052 0.633 7.99 3.43 10.47
6/24/2022 12:30:00 PM 16.16 61.088 0.634 8 4.07 10.56
6/24/2022 12:45:00 PM 16.17 61.106 0.635 8.01 2.86 10.63
6/24/2022 1:00:00 PM 16.22 61.196 0.635 8.02 3.13 10.76
6/24/2022 1:15:00 PM 16.36 61.448 0.636 8.04 3.2 10.95
6/24/2022 1:30:00 PM 16.62 61.916 0.636 8.06 2.53 11.2
6/24/2022 1:45:00 PM 16.82 62.276 0.636 8.08 2.49 11.37
6/24/2022 2:00:00 PM 16.95 62.51 0.636 8.1 2.76 11.41
6/24/2022 2:15:00 PM 17.06 62.708 0.635 8.11 3.05 11.46
6/24/2022 2:30:00 PM 17.16 62.888 0.635 8.12 2.39 11.53
6/24/2022 2:45:00 PM 17.26 63.068 0.636 8.13 2.56 11.61
6/24/2022 3:00:00 PM 17.35 63.23 0.636 8.14 2.12 11.67
6/24/2022 3:15:00 PM 17.49 63.482 0.636 8.15 2.91 11.77
6/24/2022 3:30:00 PM 17.59 63.662 0.636 8.16 3.39 11.84
6/24/2022 3:45:00 PM 17.62 63.716 0.636 8.17 2.42 11.85
6/24/2022 4:00:00 PM 17.69 63.842 0.637 8.18 3.49 11.87
6/24/2022 4:15:00 PM 17.74 63.932 0.637 8.18 3.51 11.86
6/24/2022 4:30:00 PM 17.75 63.95 0.637 8.18 2.26 11.79
6/24/2022 4:45:00 PM 17.73 63.914 0.638 8.18 4.15 11.69
6/24/2022 5:00:00 PM 17.7 63.86 0.638 8.17 3.45 11.61
6/24/2022 5:15:00 PM 17.64 63.752 0.639 8.17 3.35 11.44
6/24/2022 5:30:00 PM 17.57 63.626 0.639 8.16 3.29 11.27
6/24/2022 5:45:00 PM 17.51 63.518 0.639 8.14 5.38 11.12
6/24/2022 6:00:00 PM 17.48 63.464 0.638 8.13 4.51 10.93
6/24/2022 6:15:00 PM 17.44 63.392 0.638 8.11 3.11 10.83
6/24/2022 6:30:00 PM 17.41 63.338 0.638 8.1 3.03 10.74
6/24/2022 6:45:00 PM 17.37 63.266 0.638 8.09 3.75 10.64
6/24/2022 7:00:00 PM 17.34 63.212 0.638 8.07 3.6 10.52
6/24/2022 7:15:00 PM 17.3 63.14 0.638 8.06 2.28 10.39
6/24/2022 7:30:00 PM 17.28 63.104 0.639 8.05 2.44 10.23
6/24/2022 7:45:00 PM 17.25 63.05 0.639 8.03 3.96 10.07
6/24/2022 8:00:00 PM 17.23 63.014 0.639 8.02 3.38 9.96
6/24/2022 8:15:00 PM 17.2 62.96 0.64 8.01 3.19 9.82
6/24/2022 8:30:00 PM 17.17 62.906 0.64 8 3.15 9.68
6/24/2022 8:45:00 PM 17.14 62.852 0.64 7.99 3.46 9.55
6/24/2022 9:00:00 PM 17.1 62.78 0.641 7.96 4.24 9.43
6/24/2022 9:15:00 PM 17.07 62.726 0.641 7.95 4.56 9.32
6/24/2022 9:30:00 PM 17.04 62.672 0.641 7.95 5.54 9.21
6/24/2022 9:45:00 PM 17.01 62.618 0.642 7.94 5.54 9.12
6/24/2022 10:00:00 PM 16.98 62.564 0.642 7.93 5.43 9.03
6/24/2022 10:15:00 PM 16.95 62.51 0.643 7.92 5.63 8.98
6/24/2022 10:30:00 PM 16.92 62.456 0.643 7.91 7.6 8.91
6/24/2022 10:45:00 PM 16.89 62.402 0.643 7.9 5.59 8.86
6/24/2022 11:00:00 PM 16.86 62.348 0.643 7.89 5.73 8.8
6/24/2022 11:15:00 PM 16.84 62.312 0.644 7.89 5.06 8.77
6/24/2022 11:30:00 PM 16.81 62.258 0.644 7.88 6.49 8.73
6/24/2022 11:45:00 PM 16.79 62.222 0.644 7.88 12.65 8.69
6/25/2022 12:00:00 AM 16.76 62.168 0.644 7.87 6.28 8.65
6/25/2022 12:15:00 AM 16.73 62.114 0.645 7.87 7.75 8.61
6/25/2022 12:30:00 AM 16.71 62.078 0.645 7.87 6.89 8.59
6/25/2022 12:45:00 AM 16.68 62.024 0.645 7.86 6.29 8.56
6/25/2022 1:00:00 AM 16.66 61.988 0.646 7.86 8.11 8.53
6/25/2022 1:15:00 AM 16.63 61.934 0.646 7.85 7.01 8.5
6/25/2022 1:30:00 AM 16.61 61.898 0.647 7.85 9.96 8.47
6/25/2022 1:45:00 AM 16.59 61.862 0.647 7.85 7.25 8.44
6/25/2022 2:00:00 AM 16.57 61.826 0.647 7.84 6.11 8.44
6/25/2022 2:15:00 AM 16.55 61.79 0.648 7.84 6.45 8.42
6/25/2022 2:30:00 AM 16.53 61.754 0.648 7.84 5.52 8.41
6/25/2022 2:45:00 AM 16.51 61.718 0.648 7.83 5.92 8.39
6/25/2022 3:00:00 AM 16.49 61.682 0.649 7.83 6.31 8.39
6/25/2022 3:15:00 AM 16.47 61.646 0.649 7.83 5.98 8.37
6/25/2022 3:30:00 AM 16.45 61.61 0.649 7.83 9.92 8.37
6/25/2022 3:45:00 AM 16.43 61.574 0.649 7.82 7.45 8.36
6/25/2022 4:00:00 AM 16.41 61.538 0.649 7.82 7.95 8.35
6/25/2022 4:15:00 AM 16.39 61.502 0.649 7.82 7.37 8.35
6/25/2022 4:30:00 AM 16.37 61.466 0.649 7.82 7.56 8.35
6/25/2022 4:45:00 AM 16.35 61.43 0.649 7.82 7.96 8.34
6/25/2022 5:00:00 AM 16.34 61.412 0.649 7.82 7.05 8.34
6/25/2022 5:15:00 AM 16.32 61.376 0.649 7.82 9.43 8.34
6/25/2022 5:30:00 AM 16.3 61.34 0.649 7.82 9.31 8.34
6/25/2022 5:45:00 AM 16.28 61.304 0.649 7.82 7.48 8.34
6/25/2022 6:00:00 AM 16.27 61.286 0.649 7.81 8.15 8.34
6/25/2022 6:15:00 AM 16.25 61.25 0.649 7.81 8.25 8.36
6/25/2022 6:30:00 AM 16.24 61.232 0.649 7.82 6.77 8.39
6/25/2022 6:45:00 AM 16.24 61.232 0.649 7.82 8.6 8.44
6/25/2022 7:00:00 AM 16.24 61.232 0.649 7.82 6.47 8.5
6/25/2022 7:15:00 AM 16.24 61.232 0.649 7.82 5.92 8.59
6/25/2022 7:30:00 AM 16.26 61.268 0.649 7.83 6.15 8.69
6/25/2022 7:45:00 AM 16.29 61.322 0.649 7.84 4.43 8.81
6/25/2022 8:00:00 AM 16.32 61.376 0.649 7.85 7.12 8.95
6/25/2022 8:15:00 AM 16.37 61.466 0.648 7.86 7.38 9.11
6/25/2022 8:30:00 AM 16.43 61.574 0.648 7.88 4.18 9.29
6/25/2022 8:45:00 AM 16.51 61.718 0.648 7.89 3.54 9.44
6/25/2022 9:00:00 AM 16.59 61.862 0.648 7.9 4.91 9.62
6/25/2022 9:15:00 AM 16.69 62.042 0.648 7.92 4.75 9.79
6/25/2022 9:30:00 AM 16.8 62.24 0.647 7.93 3.4 9.96
6/25/2022 9:45:00 AM 16.92 62.456 0.647 7.95 3.51 10.12
6/25/2022 10:00:00 AM 17.04 62.672 0.647 7.96 3.35 10.27
6/25/2022 10:15:00 AM 17.17 62.906 0.647 7.98 3.63 10.41
6/25/2022 10:30:00 AM 17.3 63.14 0.647 7.99 2.5 10.55
6/25/2022 10:45:00 AM 17.44 63.392 0.647 8.01 2.91 10.67
6/25/2022 11:00:00 AM 17.57 63.626 0.647 8.02 2.56 10.8
6/25/2022 11:15:00 AM 17.72 63.896 0.647 8.04 2.69 10.93
6/25/2022 11:30:00 AM 17.86 64.148 0.647 8.05 2.71 11.04
6/25/2022 11:45:00 AM 18 64.4 0.646 8.06 2.84 11.16
6/25/2022 12:00:00 PM 18.14 64.652 0.646 8.08 3.57 11.27
6/25/2022 12:15:00 PM 18.29 64.922 0.646 8.09 3.82 11.38
6/25/2022 12:30:00 PM 18.43 65.174 0.646 8.1 1.85 11.47
6/25/2022 12:45:00 PM 18.55 65.39 0.646 8.11 3.77 11.57
6/25/2022 1:00:00 PM 18.53 65.354 0.646 8.11 2.44 11.48
6/25/2022 1:15:00 PM 18.43 65.174 0.646 8.11 2.19 11.31
6/25/2022 1:30:00 PM 18.44 65.192 0.647 8.1 3.01 11.3
6/25/2022 1:45:00 PM 18.66 65.588 0.646 8.11 3.54 11.5
6/25/2022 2:00:00 PM 18.76 65.768 0.646 8.13 2.13 11.6
6/25/2022 2:15:00 PM 18.79 65.82201 0.646 8.14 2.05 11.62
6/25/2022 2:30:00 PM 18.96 66.128 0.646 8.15 3.08 11.78
6/25/2022 2:45:00 PM 19.08 66.344 0.646 8.17 1.84 11.87
6/25/2022 3:00:00 PM 19.15 66.47 0.646 8.17 3.18 11.9
6/25/2022 3:15:00 PM 19.17 66.506 0.646 8.18 2.42 11.83
6/25/2022 3:30:00 PM 19.15 66.47 0.646 8.18 3.21 11.72
6/25/2022 3:45:00 PM 19.09 66.362 0.646 8.17 4.19 11.6
6/25/2022 4:00:00 PM 19.14 66.452 0.646 8.17 3.4 11.55
6/25/2022 4:15:00 PM 19.17 66.506 0.646 8.17 4.04 11.54
6/25/2022 4:30:00 PM 19.15 66.47 0.646 8.17 3.28 11.47
6/25/2022 4:45:00 PM 19.16 66.488 0.646 8.17 3.71 11.42
6/25/2022 5:00:00 PM 19.2 66.56 0.646 8.17 2.5 11.41
6/25/2022 5:15:00 PM 19.21 66.578 0.646 8.17 2.78 11.31
6/25/2022 5:30:00 PM 19.2 66.56 0.646 8.16 2.26 11.2
6/25/2022 5:45:00 PM 19.19 66.542 0.646 8.15 2.47 11.07
6/25/2022 6:00:00 PM 19.15 66.47 0.646 8.14 4.04 10.9
6/25/2022 6:15:00 PM 19.1 66.38 0.646 8.13 4.98 10.73
6/25/2022 6:30:00 PM 19.04 66.272 0.646 8.12 3.35 10.52
6/25/2022 6:45:00 PM 18.97 66.146 0.647 8.1 3.85 10.33
6/25/2022 7:00:00 PM 18.91 66.038 0.647 8.08 4.39 10.15
6/25/2022 7:15:00 PM 18.86 65.948 0.647 8.07 4.31 9.98
6/25/2022 7:30:00 PM 18.81 65.858 0.648 8.05 3.92 9.84
6/25/2022 7:45:00 PM 18.77 65.786 0.648 8.04 4.32 9.66
6/25/2022 8:00:00 PM 18.73 65.714 0.649 8.02 3.12 9.52
6/25/2022 8:15:00 PM 18.69 65.642 0.649 8.01 3.85 9.37
6/25/2022 8:30:00 PM 18.66 65.588 0.649 8 2.92 9.24
6/25/2022 8:45:00 PM 18.63 65.534 0.649 7.98 4.42 9.1
6/25/2022 9:00:00 PM 18.6 65.48 0.65 7.97 5.98 8.99
6/25/2022 9:15:00 PM 18.57 65.426 0.65 7.96 6.4 8.87
6/25/2022 9:30:00 PM 18.54 65.372 0.65 7.95 6.56 8.76
6/25/2022 9:45:00 PM 18.52 65.336 0.651 7.94 7.15 8.68
6/25/2022 10:00:00 PM 18.49 65.282 0.651 7.93 8.86 8.62
6/25/2022 10:15:00 PM 18.46 65.228 0.651 7.92 8.21 8.54
6/25/2022 10:30:00 PM 18.43 65.174 0.651 7.91 6.39 8.48
6/25/2022 10:45:00 PM 18.4 65.12 0.651 7.9 6.81 8.43
6/25/2022 11:00:00 PM 18.37 65.066 0.651 7.89 8.25 8.38
6/25/2022 11:15:00 PM 18.34 65.012 0.652 7.89 9.66 8.34
6/25/2022 11:30:00 PM 18.31 64.958 0.652 7.88 8.88 8.3
6/25/2022 11:45:00 PM 18.28 64.904 0.652 7.88 6.77 8.25
6/26/2022 12:00:00 AM 18.24 64.832 0.652 7.87 7.85 8.21
6/26/2022 12:15:00 AM 18.21 64.778 0.652 7.87 9.26 8.19
6/26/2022 12:30:00 AM 18.17 64.706 0.652 7.86 7.69 8.15
6/26/2022 12:45:00 AM 18.12 64.616 0.652 7.86 10.2 8.13
6/26/2022 1:00:00 AM 18.08 64.544 0.652 7.85 11.36 8.1
6/26/2022 1:15:00 AM 18.04 64.472 0.652 7.85 8.97 8.12
6/26/2022 1:30:00 AM 18.02 64.436 0.653 7.85 6.63 8.13
6/26/2022 1:45:00 AM 18.03 64.454 0.657 7.84 10.59 8.12
6/26/2022 2:00:00 AM 18.06 64.508 0.662 7.84 8.82 8.1
6/26/2022 2:15:00 AM 18.08 64.544 0.666 7.84 8.27 8.09
6/26/2022 2:30:00 AM 18.08 64.544 0.668 7.83 7.02 8.07
6/26/2022 2:45:00 AM 18.06 64.508 0.669 7.83 7.1 8.06
6/26/2022 3:00:00 AM 18.04 64.472 0.67 7.83 7.59 8.05
6/26/2022 3:15:00 AM 18.01 64.418 0.67 7.83 8.4 8.05
6/26/2022 3:30:00 AM 17.99 64.382 0.67 7.83 11.88 8.03
6/26/2022 3:45:00 AM 17.96 64.328 0.671 7.82 8.52 8.04
6/26/2022 4:00:00 AM 17.93 64.274 0.671 7.82 8.01 8.04
6/26/2022 4:15:00 AM 17.91 64.238 0.671 7.82 7.77 8.02
6/26/2022 4:30:00 AM 17.88 64.184 0.671 7.82 9.47 8
6/26/2022 4:45:00 AM 17.85 64.13 0.671 7.82 11.1 7.99
6/26/2022 5:00:00 AM 17.81 64.058 0.671 7.81 7.96 7.97
6/26/2022 5:15:00 AM 17.76 63.968 0.669 7.81 9.32 7.94
6/26/2022 5:30:00 AM 17.68 63.824 0.666 7.81 9.07 7.93
6/26/2022 5:45:00 AM 17.6 63.68 0.662 7.81 9.36 7.93
6/26/2022 6:00:00 AM 17.54 63.572 0.659 7.8 9.34 7.94
6/26/2022 6:15:00 AM 17.49 63.482 0.657 7.81 7.16 7.97
6/26/2022 6:30:00 AM 17.47 63.446 0.656 7.81 7.68 8.01
6/26/2022 6:45:00 AM 17.46 63.428 0.656 7.81 6.83 8.08
6/26/2022 7:00:00 AM 17.44 63.392 0.655 7.81 6.72 8.1
6/26/2022 7:15:00 AM 17.43 63.374 0.655 7.81 6.99 8.13
6/26/2022 7:30:00 AM 17.43 63.374 0.655 7.81 8.19 8.17
6/26/2022 7:45:00 AM 17.42 63.356 0.655 7.82 6.13 8.2
6/26/2022 8:00:00 AM 17.42 63.356 0.654 7.82 4.84 8.3
6/26/2022 8:15:00 AM 17.45 63.41 0.654 7.83 4.89 8.47
6/26/2022 8:30:00 AM 17.49 63.482 0.654 7.84 5.05 8.63
6/26/2022 8:45:00 AM 17.53 63.554 0.653 7.85 4.36 8.81
6/26/2022 9:00:00 AM 17.62 63.716 0.653 7.87 4.13 9.03
6/26/2022 9:15:00 AM 17.71 63.878 0.653 7.89 4.54 9.28
6/26/2022 9:30:00 AM 17.81 64.058 0.652 7.91 4.23 9.49
6/26/2022 9:45:00 AM 17.92 64.256 0.652 7.93 4.37 9.69
6/26/2022 10:00:00 AM 18.03 64.454 0.652 7.95 3.69 9.88
6/26/2022 10:15:00 AM 18.15 64.67 0.651 7.96 3.35 10.05
6/26/2022 10:30:00 AM 18.27 64.886 0.651 7.98 3.18 10.21
6/26/2022 10:45:00 AM 18.41 65.138 0.65 8 4.22 10.38
6/26/2022 11:00:00 AM 18.54 65.372 0.65 8.02 3.25 10.53
6/26/2022 11:15:00 AM 18.69 65.642 0.65 8.03 3.32 10.69
6/26/2022 11:30:00 AM 18.82 65.876 0.649 8.05 4.27 10.81
6/26/2022 11:45:00 AM 18.96 66.128 0.649 8.06 3.29 10.95
6/26/2022 12:00:00 PM 19.09 66.362 0.649 8.08 2.62 11.08
6/26/2022 12:15:00 PM 19.21 66.578 0.649 8.09 2.66 11.21
6/26/2022 12:30:00 PM 19.34 66.812 0.648 8.11 3.42 11.32
6/26/2022 12:45:00 PM 19.45 67.01 0.648 8.12 3.33 11.43
6/26/2022 1:00:00 PM 19.57 67.226 0.648 8.13 3.64 11.51
6/26/2022 1:15:00 PM 19.66 67.388 0.648 8.14 3.94 11.59
6/26/2022 1:30:00 PM 19.77 67.586 0.648 8.15 2.77 11.63
6/26/2022 1:45:00 PM 19.84 67.712 0.648 8.16 2.34 11.66
6/26/2022 2:00:00 PM 19.88 67.784 0.648 8.16 3 11.63
6/26/2022 2:15:00 PM 19.83 67.694 0.648 8.16 3.4 11.5
6/26/2022 2:30:00 PM 19.78 67.604 0.648 8.16 3.33 11.39
6/26/2022 2:45:00 PM 19.79 67.622 0.648 8.15 3.21 11.33
6/26/2022 3:00:00 PM 19.79 67.622 0.648 8.16 2.65 11.36
6/26/2022 3:15:00 PM 19.78 67.604 0.648 8.16 2.28 11.33
6/26/2022 3:30:00 PM 19.8 67.64 0.648 8.16 2.93 11.34
6/26/2022 3:45:00 PM 19.84 67.712 0.648 8.16 2.32 11.34
6/26/2022 4:00:00 PM 19.81 67.658 0.648 8.17 2.79 11.28
6/26/2022 4:15:00 PM 19.73 67.514 0.649 8.16 3.22 11.11
6/26/2022 4:30:00 PM 19.67 67.406 0.649 8.15 2.57 10.97
6/26/2022 4:45:00 PM 19.62 67.316 0.649 8.14 2.91 10.79
6/26/2022 5:00:00 PM 19.55 67.19 0.649 8.12 2.99 10.61
6/26/2022 5:15:00 PM 19.5 67.1 0.649 8.11 3.23 10.42
6/26/2022 5:30:00 PM 19.46 67.028 0.649 8.09 3.38 10.18
6/26/2022 5:45:00 PM 19.43 66.974 0.65 8.08 3.8 9.97
6/26/2022 6:00:00 PM 19.41 66.938 0.647 8.07 5.91 9.83
6/26/2022 6:15:00 PM 19.39 66.902 0.65 8.05 2.82 9.64
6/26/2022 6:30:00 PM 19.38 66.884 0.648 8.04 4.01 9.48
6/26/2022 6:45:00 PM 19.38 66.884 0.643 8.03 7.71 9.31
6/26/2022 7:00:00 PM 19.35 66.83 0.64 8.02 4.85 9.16
6/26/2022 7:15:00 PM 19.31 66.758 0.639 8.01 4.35 9.03
6/26/2022 7:30:00 PM 19.27 66.686 0.637 8 4.56 8.89
6/26/2022 7:45:00 PM 19.24 66.632 0.633 7.99 5.89 8.78
6/26/2022 8:00:00 PM 19.19 66.542 0.632 7.97 7.81 8.69
6/26/2022 8:15:00 PM 19.14 66.452 0.63 7.96 19.15 8.58
6/26/2022 8:30:00 PM 19.1 66.38 0.628 7.95 8.62 8.5
6/26/2022 8:45:00 PM 19.07 66.326 0.626 7.94 8.58 8.41
6/26/2022 9:00:00 PM 19.04 66.272 0.625 7.93 8.94 8.32
6/26/2022 9:15:00 PM 19.01 66.218 0.624 7.92 11.8 8.23
6/26/2022 9:30:00 PM 18.98 66.164 0.624 7.91 56.01 8.17
6/26/2022 9:45:00 PM 18.96 66.128 0.622 7.9 15.55 8.09
6/26/2022 10:00:00 PM 18.94 66.092 0.622 7.89 69.94 8.05
6/26/2022 10:15:00 PM 18.91 66.038 0.62 7.88 13.43 8.01
6/26/2022 10:30:00 PM 18.89 66.002 0.621 7.88 14.73 7.98
6/26/2022 10:45:00 PM 18.87 65.966 0.621 7.89 13.73 7.93
6/26/2022 11:00:00 PM 18.84 65.912 0.622 7.89 13.31 7.89
6/26/2022 11:15:00 PM 18.79 65.82201 0.623 7.89 71.27 7.86
6/26/2022 11:30:00 PM 18.74 65.732 0.625 7.89 48.65 7.83
6/26/2022 11:45:00 PM 18.68 65.624 0.626 7.88 14 7.8
6/27/2022 12:00:00 AM 18.61 65.498 0.627 7.87 11.66 7.78
6/27/2022 12:15:00 AM 18.56 65.408 0.627 7.86 12.79 7.75
6/27/2022 12:30:00 AM 18.53 65.354 0.627 7.84 13.92 7.72
6/27/2022 12:45:00 AM 18.5 65.3 0.629 7.84 13.06 7.7
6/27/2022 1:00:00 AM 18.48 65.264 0.628 7.82 14.21 7.65
6/27/2022 1:15:00 AM 18.49 65.282 0.625 7.81 28.38 7.6
6/27/2022 1:30:00 AM 18.54 65.372 0.617 7.8 14.93 7.54
6/27/2022 1:45:00 AM 18.62 65.516 0.609 7.79 16.72 7.48
6/27/2022 2:00:00 AM 18.69 65.642 0.602 7.78 19.9 7.43
6/27/2022 2:15:00 AM 18.74 65.732 0.597 7.77 21.89 7.38
6/27/2022 2:30:00 AM 18.75 65.75 0.597 7.76 24.02 7.35
6/27/2022 2:45:00 AM 18.72 65.696 0.602 7.75 68.89 7.37
6/27/2022 3:00:00 AM 18.66 65.588 0.61 7.75 44.88 7.39
6/27/2022 3:15:00 AM 18.63 65.534 0.615 7.75 26.4 7.42
6/27/2022 3:30:00 AM 18.66 65.588 0.616 7.75 112.3 7.41
6/27/2022 3:45:00 AM 18.74 65.732 0.612 7.75 229.5 7.37
6/27/2022 4:00:00 AM 18.86 65.948 0.604 7.74 91.56 7.31
6/27/2022 4:15:00 AM 19 66.2 0.595 7.74 86.33 7.25
6/27/2022 4:30:00 AM 19.13 66.434 0.59 7.73 26.17 7.2
6/27/2022 4:45:00 AM 19.25 66.65 0.59 7.73 23.87 7.15
6/27/2022 5:00:00 AM 19.33 66.794 0.592 7.73 26.03 7.13
6/27/2022 5:15:00 AM 19.39 66.902 0.595 7.73 19.19 7.08
6/27/2022 5:30:00 AM 19.41 66.938 0.595 7.72 22.09 7.07
6/27/2022 5:45:00 AM 19.42 66.956 0.591 7.72 23.03 7.03
6/27/2022 6:00:00 AM 19.42 66.956 0.584 7.71 17.5 6.98
6/27/2022 6:15:00 AM 19.42 66.956 0.572 7.71 18.92 6.92
6/27/2022 6:30:00 AM 19.41 66.938 0.558 7.69 16.96 6.86
6/27/2022 6:45:00 AM 19.41 66.938 0.543 7.68 12.2 6.81
6/27/2022 7:00:00 AM 19.42 66.956 0.527 7.67 13.43 6.77
6/27/2022 7:15:00 AM 19.41 66.938 0.513 7.65 15.41 6.75
6/27/2022 7:30:00 AM 19.41 66.938 0.502 7.64 13.27 6.72
6/27/2022 7:45:00 AM 19.41 66.938 0.491 7.63 13.87 6.73
6/27/2022 8:00:00 AM 19.4 66.92 0.483 7.62 9.72 6.75
6/27/2022 8:15:00 AM 19.38 66.884 0.476 7.62 11.29 6.8
6/27/2022 8:30:00 AM 19.36 66.848 0.471 7.61 12.73 6.88
6/27/2022 8:45:00 AM 19.33 66.794 0.469 7.61 9.9 6.94
6/27/2022 9:00:00 AM 19.3 66.74 0.468 7.62 15.54 7.01
6/27/2022 9:15:00 AM 19.28 66.704 0.47 7.62 12.1 7.11